<?xml version="1.0" encoding="UTF-8" standalone="no" ?>
<gpx xmlns="http://www.topografix.com/GPX/1/1" xmlns:xsi="http://www.w3.org/2001/XMLSchema-instance" xsi:schemaLocation="http://www.topografix.com/GPX/1/1 http://www.topografix.com/GPX/1/1/gpx.xsd" version="1.1" creator="VisuGPX - https://www.visugpx.com">
  <metadata>
    <name>83 - AVF - Seillans - Bories - Notre Dame de l\'Ormeau</name>
    <desc><![CDATA[Seillans - Bories - Notre Dame de l\'Ormeau]]></desc>
  </metadata>
  <trk>
    <name><![CDATA[2011-09-23-23-seillans]]></name>
    <trkseg>
      <trkpt lat="43.63172" lon="6.65462">
        <ele>333.74469</ele>
        <time>2011-09-23T13:38:53Z</time>
      </trkpt>
      <trkpt lat="43.63172" lon="6.65462">
        <ele>332.243073</ele>
        <time>2011-09-23T13:38:54Z</time>
      </trkpt>
      <trkpt lat="43.63176" lon="6.6546">
        <ele>328.399994</ele>
        <time>2011-09-23T13:39:03Z</time>
      </trkpt>
      <trkpt lat="43.63176" lon="6.65459">
        <ele>328.5</ele>
        <time>2011-09-23T13:39:08Z</time>
      </trkpt>
      <trkpt lat="43.63175" lon="6.65459">
        <ele>328.399994</ele>
        <time>2011-09-23T13:39:13Z</time>
      </trkpt>
      <trkpt lat="43.63176" lon="6.65461">
        <ele>328.299988</ele>
        <time>2011-09-23T13:39:18Z</time>
      </trkpt>
      <trkpt lat="43.63175" lon="6.6546">
        <ele>328.100006</ele>
        <time>2011-09-23T13:39:23Z</time>
      </trkpt>
      <trkpt lat="43.63175" lon="6.65463">
        <ele>328</ele>
        <time>2011-09-23T13:39:28Z</time>
      </trkpt>
      <trkpt lat="43.63174" lon="6.65463">
        <ele>328</ele>
        <time>2011-09-23T13:39:33Z</time>
      </trkpt>
      <trkpt lat="43.63173" lon="6.6546">
        <ele>328</ele>
        <time>2011-09-23T13:39:38Z</time>
      </trkpt>
      <trkpt lat="43.63172" lon="6.65457">
        <ele>328.100006</ele>
        <time>2011-09-23T13:39:43Z</time>
      </trkpt>
      <trkpt lat="43.63168" lon="6.65456">
        <ele>328.399994</ele>
        <time>2011-09-23T13:39:48Z</time>
      </trkpt>
      <trkpt lat="43.6317" lon="6.65454">
        <ele>328.100006</ele>
        <time>2011-09-23T13:39:53Z</time>
      </trkpt>
      <trkpt lat="43.63169" lon="6.65453">
        <ele>328</ele>
        <time>2011-09-23T13:39:58Z</time>
      </trkpt>
      <trkpt lat="43.63169" lon="6.65452">
        <ele>328</ele>
        <time>2011-09-23T13:39:59Z</time>
      </trkpt>
      <trkpt lat="43.63173" lon="6.65446">
        <ele>328.5</ele>
        <time>2011-09-23T13:40:08Z</time>
      </trkpt>
      <trkpt lat="43.63177" lon="6.65443">
        <ele>329</ele>
        <time>2011-09-23T13:40:13Z</time>
      </trkpt>
      <trkpt lat="43.63181" lon="6.65442">
        <ele>329.600006</ele>
        <time>2011-09-23T13:40:18Z</time>
      </trkpt>
      <trkpt lat="43.63185" lon="6.6544">
        <ele>329.700012</ele>
        <time>2011-09-23T13:40:23Z</time>
      </trkpt>
      <trkpt lat="43.63189" lon="6.65438">
        <ele>330.299988</ele>
        <time>2011-09-23T13:40:28Z</time>
      </trkpt>
      <trkpt lat="43.63193" lon="6.65437">
        <ele>330.799988</ele>
        <time>2011-09-23T13:40:33Z</time>
      </trkpt>
      <trkpt lat="43.63195" lon="6.65438">
        <ele>330.799988</ele>
        <time>2011-09-23T13:40:38Z</time>
      </trkpt>
      <trkpt lat="43.63195" lon="6.65438">
        <ele>330.799988</ele>
        <time>2011-09-23T13:40:43Z</time>
      </trkpt>
      <trkpt lat="43.63196" lon="6.65439">
        <ele>330.700012</ele>
        <time>2011-09-23T13:40:48Z</time>
      </trkpt>
      <trkpt lat="43.63196" lon="6.65439">
        <ele>330.700012</ele>
        <time>2011-09-23T13:40:53Z</time>
      </trkpt>
      <trkpt lat="43.63198" lon="6.65439">
        <ele>331.100006</ele>
        <time>2011-09-23T13:40:58Z</time>
      </trkpt>
      <trkpt lat="43.63199" lon="6.65439">
        <ele>330.899994</ele>
        <time>2011-09-23T13:41:03Z</time>
      </trkpt>
      <trkpt lat="43.63199" lon="6.65439">
        <ele>330.799988</ele>
        <time>2011-09-23T13:41:04Z</time>
      </trkpt>
      <trkpt lat="43.63199" lon="6.65441">
        <ele>330.600006</ele>
        <time>2011-09-23T13:41:13Z</time>
      </trkpt>
      <trkpt lat="43.63198" lon="6.65442">
        <ele>331</ele>
        <time>2011-09-23T13:41:18Z</time>
      </trkpt>
      <trkpt lat="43.63198" lon="6.65443">
        <ele>331</ele>
        <time>2011-09-23T13:41:23Z</time>
      </trkpt>
      <trkpt lat="43.63197" lon="6.65444">
        <ele>330.899994</ele>
        <time>2011-09-23T13:41:28Z</time>
      </trkpt>
      <trkpt lat="43.632" lon="6.65444">
        <ele>330.799988</ele>
        <time>2011-09-23T13:41:33Z</time>
      </trkpt>
      <trkpt lat="43.63201" lon="6.65445">
        <ele>331.299988</ele>
        <time>2011-09-23T13:41:38Z</time>
      </trkpt>
      <trkpt lat="43.63203" lon="6.65449">
        <ele>331.399994</ele>
        <time>2011-09-23T13:41:43Z</time>
      </trkpt>
      <trkpt lat="43.63203" lon="6.65456">
        <ele>331.5</ele>
        <time>2011-09-23T13:41:48Z</time>
      </trkpt>
      <trkpt lat="43.63204" lon="6.65458">
        <ele>331.299988</ele>
        <time>2011-09-23T13:41:53Z</time>
      </trkpt>
      <trkpt lat="43.63205" lon="6.65458">
        <ele>330.799988</ele>
        <time>2011-09-23T13:41:58Z</time>
      </trkpt>
      <trkpt lat="43.63207" lon="6.65459">
        <ele>330.899994</ele>
        <time>2011-09-23T13:42:03Z</time>
      </trkpt>
      <trkpt lat="43.63209" lon="6.65465">
        <ele>330.899994</ele>
        <time>2011-09-23T13:42:08Z</time>
      </trkpt>
      <trkpt lat="43.63209" lon="6.65466">
        <ele>331</ele>
        <time>2011-09-23T13:42:09Z</time>
      </trkpt>
      <trkpt lat="43.63206" lon="6.65478">
        <ele>331</ele>
        <time>2011-09-23T13:42:18Z</time>
      </trkpt>
      <trkpt lat="43.63206" lon="6.65485">
        <ele>331</ele>
        <time>2011-09-23T13:42:23Z</time>
      </trkpt>
      <trkpt lat="43.63207" lon="6.65492">
        <ele>330.899994</ele>
        <time>2011-09-23T13:42:28Z</time>
      </trkpt>
      <trkpt lat="43.63209" lon="6.65499">
        <ele>330.600006</ele>
        <time>2011-09-23T13:42:33Z</time>
      </trkpt>
      <trkpt lat="43.63209" lon="6.65507">
        <ele>330.399994</ele>
        <time>2011-09-23T13:42:38Z</time>
      </trkpt>
      <trkpt lat="43.6321" lon="6.65516">
        <ele>330.100006</ele>
        <time>2011-09-23T13:42:43Z</time>
      </trkpt>
      <trkpt lat="43.63209" lon="6.65523">
        <ele>330</ele>
        <time>2011-09-23T13:42:48Z</time>
      </trkpt>
      <trkpt lat="43.63206" lon="6.65531">
        <ele>329.899994</ele>
        <time>2011-09-23T13:42:53Z</time>
      </trkpt>
      <trkpt lat="43.63201" lon="6.65537">
        <ele>330</ele>
        <time>2011-09-23T13:42:58Z</time>
      </trkpt>
      <trkpt lat="43.63192" lon="6.65542">
        <ele>329.5</ele>
        <time>2011-09-23T13:43:03Z</time>
      </trkpt>
      <trkpt lat="43.63184" lon="6.65546">
        <ele>329.200012</ele>
        <time>2011-09-23T13:43:08Z</time>
      </trkpt>
      <trkpt lat="43.63175" lon="6.6555">
        <ele>328.899994</ele>
        <time>2011-09-23T13:43:13Z</time>
      </trkpt>
      <trkpt lat="43.63173" lon="6.65551">
        <ele>328.899994</ele>
        <time>2011-09-23T13:43:14Z</time>
      </trkpt>
      <trkpt lat="43.63161" lon="6.65553">
        <ele>328.899994</ele>
        <time>2011-09-23T13:43:23Z</time>
      </trkpt>
      <trkpt lat="43.63155" lon="6.65555">
        <ele>328.5</ele>
        <time>2011-09-23T13:43:28Z</time>
      </trkpt>
      <trkpt lat="43.63151" lon="6.65556">
        <ele>328.5</ele>
        <time>2011-09-23T13:43:33Z</time>
      </trkpt>
      <trkpt lat="43.63151" lon="6.65557">
        <ele>328.200012</ele>
        <time>2011-09-23T13:43:38Z</time>
      </trkpt>
      <trkpt lat="43.63152" lon="6.65556">
        <ele>328.600006</ele>
        <time>2011-09-23T13:43:43Z</time>
      </trkpt>
      <trkpt lat="43.63154" lon="6.65554">
        <ele>328.600006</ele>
        <time>2011-09-23T13:43:48Z</time>
      </trkpt>
      <trkpt lat="43.63154" lon="6.65553">
        <ele>328.399994</ele>
        <time>2011-09-23T13:43:53Z</time>
      </trkpt>
      <trkpt lat="43.63151" lon="6.65553">
        <ele>328.299988</ele>
        <time>2011-09-23T13:43:58Z</time>
      </trkpt>
      <trkpt lat="43.63146" lon="6.65553">
        <ele>328.100006</ele>
        <time>2011-09-23T13:44:03Z</time>
      </trkpt>
      <trkpt lat="43.63144" lon="6.65554">
        <ele>327.899994</ele>
        <time>2011-09-23T13:44:08Z</time>
      </trkpt>
      <trkpt lat="43.63141" lon="6.65557">
        <ele>327.700012</ele>
        <time>2011-09-23T13:44:13Z</time>
      </trkpt>
      <trkpt lat="43.63138" lon="6.65561">
        <ele>327.399994</ele>
        <time>2011-09-23T13:44:18Z</time>
      </trkpt>
      <trkpt lat="43.63138" lon="6.65562">
        <ele>327.299988</ele>
        <time>2011-09-23T13:44:19Z</time>
      </trkpt>
      <trkpt lat="43.63129" lon="6.65568">
        <ele>326.700012</ele>
        <time>2011-09-23T13:44:28Z</time>
      </trkpt>
      <trkpt lat="43.63125" lon="6.65572">
        <ele>326.399994</ele>
        <time>2011-09-23T13:44:33Z</time>
      </trkpt>
      <trkpt lat="43.63121" lon="6.65576">
        <ele>326.200012</ele>
        <time>2011-09-23T13:44:38Z</time>
      </trkpt>
      <trkpt lat="43.63117" lon="6.65582">
        <ele>325.899994</ele>
        <time>2011-09-23T13:44:43Z</time>
      </trkpt>
      <trkpt lat="43.63113" lon="6.65587">
        <ele>325.600006</ele>
        <time>2011-09-23T13:44:48Z</time>
      </trkpt>
      <trkpt lat="43.63108" lon="6.65591">
        <ele>325.600006</ele>
        <time>2011-09-23T13:44:53Z</time>
      </trkpt>
      <trkpt lat="43.63104" lon="6.65597">
        <ele>325.299988</ele>
        <time>2011-09-23T13:44:58Z</time>
      </trkpt>
      <trkpt lat="43.631" lon="6.65602">
        <ele>324.899994</ele>
        <time>2011-09-23T13:45:03Z</time>
      </trkpt>
      <trkpt lat="43.63096" lon="6.65606">
        <ele>324.799988</ele>
        <time>2011-09-23T13:45:08Z</time>
      </trkpt>
      <trkpt lat="43.63091" lon="6.65612">
        <ele>324.299988</ele>
        <time>2011-09-23T13:45:13Z</time>
      </trkpt>
      <trkpt lat="43.63086" lon="6.65616">
        <ele>324</ele>
        <time>2011-09-23T13:45:18Z</time>
      </trkpt>
      <trkpt lat="43.63082" lon="6.65622">
        <ele>323.700012</ele>
        <time>2011-09-23T13:45:23Z</time>
      </trkpt>
      <trkpt lat="43.63081" lon="6.65623">
        <ele>323.700012</ele>
        <time>2011-09-23T13:45:24Z</time>
      </trkpt>
      <trkpt lat="43.63072" lon="6.65633">
        <ele>322.799988</ele>
        <time>2011-09-23T13:45:33Z</time>
      </trkpt>
      <trkpt lat="43.63068" lon="6.65638">
        <ele>322.899994</ele>
        <time>2011-09-23T13:45:38Z</time>
      </trkpt>
      <trkpt lat="43.63063" lon="6.65644">
        <ele>322.799988</ele>
        <time>2011-09-23T13:45:43Z</time>
      </trkpt>
      <trkpt lat="43.6306" lon="6.6565">
        <ele>322.700012</ele>
        <time>2011-09-23T13:45:48Z</time>
      </trkpt>
      <trkpt lat="43.63056" lon="6.65656">
        <ele>322.399994</ele>
        <time>2011-09-23T13:45:53Z</time>
      </trkpt>
      <trkpt lat="43.63052" lon="6.65661">
        <ele>322.299988</ele>
        <time>2011-09-23T13:45:58Z</time>
      </trkpt>
      <trkpt lat="43.63048" lon="6.65666">
        <ele>322.200012</ele>
        <time>2011-09-23T13:46:03Z</time>
      </trkpt>
      <trkpt lat="43.63043" lon="6.65671">
        <ele>322</ele>
        <time>2011-09-23T13:46:08Z</time>
      </trkpt>
      <trkpt lat="43.6304" lon="6.65677">
        <ele>321.799988</ele>
        <time>2011-09-23T13:46:13Z</time>
      </trkpt>
      <trkpt lat="43.63036" lon="6.65683">
        <ele>321.399994</ele>
        <time>2011-09-23T13:46:18Z</time>
      </trkpt>
      <trkpt lat="43.63029" lon="6.65687">
        <ele>321.200012</ele>
        <time>2011-09-23T13:46:23Z</time>
      </trkpt>
      <trkpt lat="43.63024" lon="6.65691">
        <ele>320.600006</ele>
        <time>2011-09-23T13:46:28Z</time>
      </trkpt>
      <trkpt lat="43.63023" lon="6.65692">
        <ele>320.700012</ele>
        <time>2011-09-23T13:46:29Z</time>
      </trkpt>
      <trkpt lat="43.63015" lon="6.657">
        <ele>320.100006</ele>
        <time>2011-09-23T13:46:38Z</time>
      </trkpt>
      <trkpt lat="43.63008" lon="6.65702">
        <ele>319.600006</ele>
        <time>2011-09-23T13:46:43Z</time>
      </trkpt>
      <trkpt lat="43.63002" lon="6.65705">
        <ele>319.399994</ele>
        <time>2011-09-23T13:46:48Z</time>
      </trkpt>
      <trkpt lat="43.62996" lon="6.65706">
        <ele>319.299988</ele>
        <time>2011-09-23T13:46:53Z</time>
      </trkpt>
      <trkpt lat="43.62989" lon="6.65707">
        <ele>319.299988</ele>
        <time>2011-09-23T13:46:58Z</time>
      </trkpt>
      <trkpt lat="43.62983" lon="6.65707">
        <ele>318.700012</ele>
        <time>2011-09-23T13:47:03Z</time>
      </trkpt>
      <trkpt lat="43.62978" lon="6.65709">
        <ele>318.200012</ele>
        <time>2011-09-23T13:47:08Z</time>
      </trkpt>
      <trkpt lat="43.62972" lon="6.65711">
        <ele>317.899994</ele>
        <time>2011-09-23T13:47:13Z</time>
      </trkpt>
      <trkpt lat="43.62967" lon="6.65714">
        <ele>317.700012</ele>
        <time>2011-09-23T13:47:18Z</time>
      </trkpt>
      <trkpt lat="43.62961" lon="6.65717">
        <ele>317.200012</ele>
        <time>2011-09-23T13:47:23Z</time>
      </trkpt>
      <trkpt lat="43.62955" lon="6.6572">
        <ele>317.100006</ele>
        <time>2011-09-23T13:47:28Z</time>
      </trkpt>
      <trkpt lat="43.6295" lon="6.65722">
        <ele>316.700012</ele>
        <time>2011-09-23T13:47:33Z</time>
      </trkpt>
      <trkpt lat="43.62948" lon="6.65722">
        <ele>316.799988</ele>
        <time>2011-09-23T13:47:34Z</time>
      </trkpt>
      <trkpt lat="43.62939" lon="6.65725">
        <ele>316.600006</ele>
        <time>2011-09-23T13:47:43Z</time>
      </trkpt>
      <trkpt lat="43.62934" lon="6.65727">
        <ele>315.799988</ele>
        <time>2011-09-23T13:47:48Z</time>
      </trkpt>
      <trkpt lat="43.62927" lon="6.6573">
        <ele>315.5</ele>
        <time>2011-09-23T13:47:53Z</time>
      </trkpt>
      <trkpt lat="43.6292" lon="6.65732">
        <ele>315.200012</ele>
        <time>2011-09-23T13:47:58Z</time>
      </trkpt>
      <trkpt lat="43.62913" lon="6.65735">
        <ele>315.100006</ele>
        <time>2011-09-23T13:48:03Z</time>
      </trkpt>
      <trkpt lat="43.62907" lon="6.65737">
        <ele>314.5</ele>
        <time>2011-09-23T13:48:08Z</time>
      </trkpt>
      <trkpt lat="43.62902" lon="6.65739">
        <ele>314.200012</ele>
        <time>2011-09-23T13:48:13Z</time>
      </trkpt>
      <trkpt lat="43.62898" lon="6.6574">
        <ele>314.5</ele>
        <time>2011-09-23T13:48:18Z</time>
      </trkpt>
      <trkpt lat="43.62891" lon="6.65741">
        <ele>314.299988</ele>
        <time>2011-09-23T13:48:23Z</time>
      </trkpt>
      <trkpt lat="43.62886" lon="6.65743">
        <ele>313.799988</ele>
        <time>2011-09-23T13:48:28Z</time>
      </trkpt>
      <trkpt lat="43.6288" lon="6.65746">
        <ele>313.799988</ele>
        <time>2011-09-23T13:48:33Z</time>
      </trkpt>
      <trkpt lat="43.62873" lon="6.65747">
        <ele>313.5</ele>
        <time>2011-09-23T13:48:38Z</time>
      </trkpt>
      <trkpt lat="43.62872" lon="6.65747">
        <ele>313.5</ele>
        <time>2011-09-23T13:48:39Z</time>
      </trkpt>
      <trkpt lat="43.62862" lon="6.65748">
        <ele>313</ele>
        <time>2011-09-23T13:48:48Z</time>
      </trkpt>
      <trkpt lat="43.62854" lon="6.65748">
        <ele>312.799988</ele>
        <time>2011-09-23T13:48:53Z</time>
      </trkpt>
      <trkpt lat="43.62849" lon="6.65749">
        <ele>313</ele>
        <time>2011-09-23T13:48:58Z</time>
      </trkpt>
      <trkpt lat="43.62844" lon="6.65749">
        <ele>312.399994</ele>
        <time>2011-09-23T13:49:03Z</time>
      </trkpt>
      <trkpt lat="43.62839" lon="6.65751">
        <ele>312</ele>
        <time>2011-09-23T13:49:08Z</time>
      </trkpt>
      <trkpt lat="43.62835" lon="6.65753">
        <ele>311.700012</ele>
        <time>2011-09-23T13:49:13Z</time>
      </trkpt>
      <trkpt lat="43.6283" lon="6.65754">
        <ele>311.100006</ele>
        <time>2011-09-23T13:49:18Z</time>
      </trkpt>
      <trkpt lat="43.62826" lon="6.65752">
        <ele>310.299988</ele>
        <time>2011-09-23T13:49:23Z</time>
      </trkpt>
      <trkpt lat="43.62821" lon="6.65748">
        <ele>310.299988</ele>
        <time>2011-09-23T13:49:28Z</time>
      </trkpt>
      <trkpt lat="43.62816" lon="6.65745">
        <ele>309.899994</ele>
        <time>2011-09-23T13:49:33Z</time>
      </trkpt>
      <trkpt lat="43.62811" lon="6.65743">
        <ele>309.5</ele>
        <time>2011-09-23T13:49:38Z</time>
      </trkpt>
      <trkpt lat="43.62808" lon="6.65738">
        <ele>309.399994</ele>
        <time>2011-09-23T13:49:43Z</time>
      </trkpt>
      <trkpt lat="43.62808" lon="6.65736">
        <ele>309.100006</ele>
        <time>2011-09-23T13:49:44Z</time>
      </trkpt>
      <trkpt lat="43.62802" lon="6.65724">
        <ele>309.5</ele>
        <time>2011-09-23T13:49:53Z</time>
      </trkpt>
      <trkpt lat="43.62797" lon="6.65717">
        <ele>309.200012</ele>
        <time>2011-09-23T13:49:58Z</time>
      </trkpt>
      <trkpt lat="43.62795" lon="6.65709">
        <ele>309</ele>
        <time>2011-09-23T13:50:03Z</time>
      </trkpt>
      <trkpt lat="43.62792" lon="6.65702">
        <ele>308.899994</ele>
        <time>2011-09-23T13:50:08Z</time>
      </trkpt>
      <trkpt lat="43.62788" lon="6.65697">
        <ele>308.299988</ele>
        <time>2011-09-23T13:50:13Z</time>
      </trkpt>
      <trkpt lat="43.62783" lon="6.65691">
        <ele>308.200012</ele>
        <time>2011-09-23T13:50:18Z</time>
      </trkpt>
      <trkpt lat="43.62777" lon="6.6569">
        <ele>308.100006</ele>
        <time>2011-09-23T13:50:23Z</time>
      </trkpt>
      <trkpt lat="43.62772" lon="6.65689">
        <ele>308.200012</ele>
        <time>2011-09-23T13:50:28Z</time>
      </trkpt>
      <trkpt lat="43.62768" lon="6.6569">
        <ele>308.100006</ele>
        <time>2011-09-23T13:50:33Z</time>
      </trkpt>
      <trkpt lat="43.62765" lon="6.65692">
        <ele>308</ele>
        <time>2011-09-23T13:50:38Z</time>
      </trkpt>
      <trkpt lat="43.62761" lon="6.65695">
        <ele>307.899994</ele>
        <time>2011-09-23T13:50:43Z</time>
      </trkpt>
      <trkpt lat="43.6276" lon="6.65699">
        <ele>308</ele>
        <time>2011-09-23T13:50:48Z</time>
      </trkpt>
      <trkpt lat="43.62759" lon="6.657">
        <ele>308.100006</ele>
        <time>2011-09-23T13:50:49Z</time>
      </trkpt>
      <trkpt lat="43.62751" lon="6.65708">
        <ele>307.600006</ele>
        <time>2011-09-23T13:50:58Z</time>
      </trkpt>
      <trkpt lat="43.62746" lon="6.65712">
        <ele>307</ele>
        <time>2011-09-23T13:51:03Z</time>
      </trkpt>
      <trkpt lat="43.62741" lon="6.65716">
        <ele>306.600006</ele>
        <time>2011-09-23T13:51:08Z</time>
      </trkpt>
      <trkpt lat="43.62737" lon="6.65721">
        <ele>306.200012</ele>
        <time>2011-09-23T13:51:13Z</time>
      </trkpt>
      <trkpt lat="43.62732" lon="6.65726">
        <ele>306.100006</ele>
        <time>2011-09-23T13:51:18Z</time>
      </trkpt>
      <trkpt lat="43.62727" lon="6.65729">
        <ele>305.799988</ele>
        <time>2011-09-23T13:51:23Z</time>
      </trkpt>
      <trkpt lat="43.62721" lon="6.65732">
        <ele>305.100006</ele>
        <time>2011-09-23T13:51:28Z</time>
      </trkpt>
      <trkpt lat="43.62716" lon="6.65736">
        <ele>305.100006</ele>
        <time>2011-09-23T13:51:33Z</time>
      </trkpt>
      <trkpt lat="43.62712" lon="6.65742">
        <ele>305.100006</ele>
        <time>2011-09-23T13:51:38Z</time>
      </trkpt>
      <trkpt lat="43.62707" lon="6.65746">
        <ele>305.299988</ele>
        <time>2011-09-23T13:51:43Z</time>
      </trkpt>
      <trkpt lat="43.62703" lon="6.65752">
        <ele>305.100006</ele>
        <time>2011-09-23T13:51:48Z</time>
      </trkpt>
      <trkpt lat="43.62699" lon="6.65757">
        <ele>305.299988</ele>
        <time>2011-09-23T13:51:53Z</time>
      </trkpt>
      <trkpt lat="43.62698" lon="6.65758">
        <ele>305.5</ele>
        <time>2011-09-23T13:51:54Z</time>
      </trkpt>
      <trkpt lat="43.6269" lon="6.65767">
        <ele>305.299988</ele>
        <time>2011-09-23T13:52:03Z</time>
      </trkpt>
      <trkpt lat="43.62688" lon="6.65773">
        <ele>304.799988</ele>
        <time>2011-09-23T13:52:08Z</time>
      </trkpt>
      <trkpt lat="43.62685" lon="6.65779">
        <ele>304.100006</ele>
        <time>2011-09-23T13:52:13Z</time>
      </trkpt>
      <trkpt lat="43.62681" lon="6.65782">
        <ele>303.799988</ele>
        <time>2011-09-23T13:52:18Z</time>
      </trkpt>
      <trkpt lat="43.62677" lon="6.65785">
        <ele>303.299988</ele>
        <time>2011-09-23T13:52:23Z</time>
      </trkpt>
      <trkpt lat="43.62674" lon="6.65786">
        <ele>302.700012</ele>
        <time>2011-09-23T13:52:28Z</time>
      </trkpt>
      <trkpt lat="43.6267" lon="6.65786">
        <ele>301.899994</ele>
        <time>2011-09-23T13:52:33Z</time>
      </trkpt>
      <trkpt lat="43.62667" lon="6.65786">
        <ele>301.899994</ele>
        <time>2011-09-23T13:52:38Z</time>
      </trkpt>
      <trkpt lat="43.62665" lon="6.65783">
        <ele>302.200012</ele>
        <time>2011-09-23T13:52:43Z</time>
      </trkpt>
      <trkpt lat="43.62665" lon="6.65779">
        <ele>302.899994</ele>
        <time>2011-09-23T13:52:48Z</time>
      </trkpt>
      <trkpt lat="43.62665" lon="6.65777">
        <ele>303.700012</ele>
        <time>2011-09-23T13:52:53Z</time>
      </trkpt>
      <trkpt lat="43.62663" lon="6.65775">
        <ele>304.100006</ele>
        <time>2011-09-23T13:52:58Z</time>
      </trkpt>
      <trkpt lat="43.62663" lon="6.65775">
        <ele>304.299988</ele>
        <time>2011-09-23T13:52:59Z</time>
      </trkpt>
      <trkpt lat="43.62661" lon="6.65773">
        <ele>304.700012</ele>
        <time>2011-09-23T13:53:08Z</time>
      </trkpt>
      <trkpt lat="43.62661" lon="6.65773">
        <ele>304.299988</ele>
        <time>2011-09-23T13:53:13Z</time>
      </trkpt>
      <trkpt lat="43.62661" lon="6.6577">
        <ele>304.299988</ele>
        <time>2011-09-23T13:53:18Z</time>
      </trkpt>
      <trkpt lat="43.62661" lon="6.65766">
        <ele>304.600006</ele>
        <time>2011-09-23T13:53:23Z</time>
      </trkpt>
      <trkpt lat="43.62657" lon="6.65763">
        <ele>305</ele>
        <time>2011-09-23T13:53:28Z</time>
      </trkpt>
      <trkpt lat="43.62653" lon="6.6576">
        <ele>305.100006</ele>
        <time>2011-09-23T13:53:33Z</time>
      </trkpt>
      <trkpt lat="43.62649" lon="6.65757">
        <ele>305.100006</ele>
        <time>2011-09-23T13:53:38Z</time>
      </trkpt>
      <trkpt lat="43.62645" lon="6.65751">
        <ele>304.600006</ele>
        <time>2011-09-23T13:53:43Z</time>
      </trkpt>
      <trkpt lat="43.62643" lon="6.65746">
        <ele>304.600006</ele>
        <time>2011-09-23T13:53:48Z</time>
      </trkpt>
      <trkpt lat="43.62639" lon="6.6574">
        <ele>304</ele>
        <time>2011-09-23T13:53:53Z</time>
      </trkpt>
      <trkpt lat="43.62637" lon="6.65734">
        <ele>304.299988</ele>
        <time>2011-09-23T13:53:58Z</time>
      </trkpt>
      <trkpt lat="43.62636" lon="6.65728">
        <ele>303.899994</ele>
        <time>2011-09-23T13:54:03Z</time>
      </trkpt>
      <trkpt lat="43.62636" lon="6.65727">
        <ele>303.799988</ele>
        <time>2011-09-23T13:54:04Z</time>
      </trkpt>
      <trkpt lat="43.62629" lon="6.6572">
        <ele>303.299988</ele>
        <time>2011-09-23T13:54:13Z</time>
      </trkpt>
      <trkpt lat="43.62631" lon="6.65713">
        <ele>303.200012</ele>
        <time>2011-09-23T13:54:18Z</time>
      </trkpt>
      <trkpt lat="43.62631" lon="6.65706">
        <ele>303.200012</ele>
        <time>2011-09-23T13:54:23Z</time>
      </trkpt>
      <trkpt lat="43.62634" lon="6.65701">
        <ele>303.5</ele>
        <time>2011-09-23T13:54:28Z</time>
      </trkpt>
      <trkpt lat="43.62636" lon="6.65701">
        <ele>303.299988</ele>
        <time>2011-09-23T13:54:33Z</time>
      </trkpt>
      <trkpt lat="43.6264" lon="6.65705">
        <ele>303.600006</ele>
        <time>2011-09-23T13:54:38Z</time>
      </trkpt>
      <trkpt lat="43.62649" lon="6.65706">
        <ele>303</ele>
        <time>2011-09-23T13:54:50Z</time>
      </trkpt>
      <trkpt lat="43.62652" lon="6.65701">
        <ele>303.799988</ele>
        <time>2011-09-23T13:54:57Z</time>
      </trkpt>
      <trkpt lat="43.62651" lon="6.65699">
        <ele>303.5</ele>
        <time>2011-09-23T13:55:02Z</time>
      </trkpt>
      <trkpt lat="43.62648" lon="6.65698">
        <ele>303.399994</ele>
        <time>2011-09-23T13:55:07Z</time>
      </trkpt>
      <trkpt lat="43.62648" lon="6.65698">
        <ele>303.600006</ele>
        <time>2011-09-23T13:55:08Z</time>
      </trkpt>
      <trkpt lat="43.62647" lon="6.657">
        <ele>303.799988</ele>
        <time>2011-09-23T13:55:17Z</time>
      </trkpt>
      <trkpt lat="43.62647" lon="6.657">
        <ele>303.600006</ele>
        <time>2011-09-23T13:55:22Z</time>
      </trkpt>
      <trkpt lat="43.62646" lon="6.657">
        <ele>303</ele>
        <time>2011-09-23T13:55:27Z</time>
      </trkpt>
      <trkpt lat="43.62644" lon="6.65703">
        <ele>303.5</ele>
        <time>2011-09-23T13:55:32Z</time>
      </trkpt>
      <trkpt lat="43.62642" lon="6.65703">
        <ele>303.399994</ele>
        <time>2011-09-23T13:55:37Z</time>
      </trkpt>
      <trkpt lat="43.62641" lon="6.65705">
        <ele>303.200012</ele>
        <time>2011-09-23T13:55:42Z</time>
      </trkpt>
      <trkpt lat="43.6264" lon="6.65706">
        <ele>303.299988</ele>
        <time>2011-09-23T13:55:47Z</time>
      </trkpt>
      <trkpt lat="43.62637" lon="6.65705">
        <ele>303.299988</ele>
        <time>2011-09-23T13:55:52Z</time>
      </trkpt>
      <trkpt lat="43.62636" lon="6.65704">
        <ele>303.399994</ele>
        <time>2011-09-23T13:55:57Z</time>
      </trkpt>
      <trkpt lat="43.62637" lon="6.65704">
        <ele>303.200012</ele>
        <time>2011-09-23T13:56:02Z</time>
      </trkpt>
      <trkpt lat="43.62638" lon="6.65704">
        <ele>303.5</ele>
        <time>2011-09-23T13:56:07Z</time>
      </trkpt>
      <trkpt lat="43.62637" lon="6.65703">
        <ele>303.5</ele>
        <time>2011-09-23T13:56:12Z</time>
      </trkpt>
      <trkpt lat="43.62636" lon="6.65703">
        <ele>303.399994</ele>
        <time>2011-09-23T13:56:13Z</time>
      </trkpt>
      <trkpt lat="43.62637" lon="6.65701">
        <ele>303.100006</ele>
        <time>2011-09-23T13:56:22Z</time>
      </trkpt>
      <trkpt lat="43.62637" lon="6.65701">
        <ele>303.299988</ele>
        <time>2011-09-23T13:56:27Z</time>
      </trkpt>
      <trkpt lat="43.62636" lon="6.65701">
        <ele>303.200012</ele>
        <time>2011-09-23T13:56:32Z</time>
      </trkpt>
      <trkpt lat="43.62638" lon="6.65701">
        <ele>303</ele>
        <time>2011-09-23T13:56:37Z</time>
      </trkpt>
      <trkpt lat="43.62641" lon="6.65702">
        <ele>302.899994</ele>
        <time>2011-09-23T13:56:42Z</time>
      </trkpt>
      <trkpt lat="43.62642" lon="6.65704">
        <ele>303</ele>
        <time>2011-09-23T13:56:47Z</time>
      </trkpt>
      <trkpt lat="43.62641" lon="6.65703">
        <ele>302.899994</ele>
        <time>2011-09-23T13:56:52Z</time>
      </trkpt>
      <trkpt lat="43.6264" lon="6.65701">
        <ele>303</ele>
        <time>2011-09-23T13:56:57Z</time>
      </trkpt>
      <trkpt lat="43.62639" lon="6.65701">
        <ele>302.899994</ele>
        <time>2011-09-23T13:57:02Z</time>
      </trkpt>
      <trkpt lat="43.62636" lon="6.65703">
        <ele>302.799988</ele>
        <time>2011-09-23T13:57:07Z</time>
      </trkpt>
      <trkpt lat="43.62635" lon="6.65705">
        <ele>302.399994</ele>
        <time>2011-09-23T13:57:12Z</time>
      </trkpt>
      <trkpt lat="43.62634" lon="6.65708">
        <ele>302.600006</ele>
        <time>2011-09-23T13:57:17Z</time>
      </trkpt>
      <trkpt lat="43.62633" lon="6.65708">
        <ele>302.5</ele>
        <time>2011-09-23T13:57:18Z</time>
      </trkpt>
      <trkpt lat="43.62632" lon="6.6571">
        <ele>302.600006</ele>
        <time>2011-09-23T13:57:27Z</time>
      </trkpt>
      <trkpt lat="43.62632" lon="6.65709">
        <ele>302.600006</ele>
        <time>2011-09-23T13:57:32Z</time>
      </trkpt>
      <trkpt lat="43.62639" lon="6.65706">
        <ele>302.5</ele>
        <time>2011-09-23T13:57:37Z</time>
      </trkpt>
      <trkpt lat="43.62639" lon="6.65706">
        <ele>302.399994</ele>
        <time>2011-09-23T13:57:42Z</time>
      </trkpt>
      <trkpt lat="43.62636" lon="6.65709">
        <ele>302.399994</ele>
        <time>2011-09-23T13:57:47Z</time>
      </trkpt>
      <trkpt lat="43.62638" lon="6.65707">
        <ele>302.399994</ele>
        <time>2011-09-23T13:57:52Z</time>
      </trkpt>
      <trkpt lat="43.62639" lon="6.65707">
        <ele>302.5</ele>
        <time>2011-09-23T13:57:57Z</time>
      </trkpt>
      <trkpt lat="43.62637" lon="6.65709">
        <ele>302.5</ele>
        <time>2011-09-23T13:58:02Z</time>
      </trkpt>
      <trkpt lat="43.62638" lon="6.65711">
        <ele>302.5</ele>
        <time>2011-09-23T13:58:07Z</time>
      </trkpt>
      <trkpt lat="43.62638" lon="6.6571">
        <ele>303.200012</ele>
        <time>2011-09-23T13:58:12Z</time>
      </trkpt>
      <trkpt lat="43.62638" lon="6.65709">
        <ele>303.5</ele>
        <time>2011-09-23T13:58:17Z</time>
      </trkpt>
      <trkpt lat="43.62639" lon="6.65711">
        <ele>303.5</ele>
        <time>2011-09-23T13:58:22Z</time>
      </trkpt>
      <trkpt lat="43.6264" lon="6.65711">
        <ele>303.399994</ele>
        <time>2011-09-23T13:58:23Z</time>
      </trkpt>
      <trkpt lat="43.6264" lon="6.65714">
        <ele>303.600006</ele>
        <time>2011-09-23T13:58:32Z</time>
      </trkpt>
      <trkpt lat="43.62641" lon="6.65717">
        <ele>303.799988</ele>
        <time>2011-09-23T13:58:37Z</time>
      </trkpt>
      <trkpt lat="43.62642" lon="6.65721">
        <ele>304</ele>
        <time>2011-09-23T13:58:42Z</time>
      </trkpt>
      <trkpt lat="43.62642" lon="6.65724">
        <ele>304.200012</ele>
        <time>2011-09-23T13:58:47Z</time>
      </trkpt>
      <trkpt lat="43.62645" lon="6.65728">
        <ele>304.100006</ele>
        <time>2011-09-23T13:58:52Z</time>
      </trkpt>
      <trkpt lat="43.62648" lon="6.65732">
        <ele>304</ele>
        <time>2011-09-23T13:58:57Z</time>
      </trkpt>
      <trkpt lat="43.6265" lon="6.65735">
        <ele>304.399994</ele>
        <time>2011-09-23T13:59:02Z</time>
      </trkpt>
      <trkpt lat="43.62652" lon="6.65738">
        <ele>304.600006</ele>
        <time>2011-09-23T13:59:07Z</time>
      </trkpt>
      <trkpt lat="43.62656" lon="6.65743">
        <ele>304.700012</ele>
        <time>2011-09-23T13:59:12Z</time>
      </trkpt>
      <trkpt lat="43.62661" lon="6.65748">
        <ele>304.799988</ele>
        <time>2011-09-23T13:59:17Z</time>
      </trkpt>
      <trkpt lat="43.62663" lon="6.65752">
        <ele>304.899994</ele>
        <time>2011-09-23T13:59:22Z</time>
      </trkpt>
      <trkpt lat="43.62663" lon="6.65756">
        <ele>304.799988</ele>
        <time>2011-09-23T13:59:27Z</time>
      </trkpt>
      <trkpt lat="43.62663" lon="6.65758">
        <ele>304.700012</ele>
        <time>2011-09-23T13:59:28Z</time>
      </trkpt>
      <trkpt lat="43.62666" lon="6.65766">
        <ele>303.899994</ele>
        <time>2011-09-23T13:59:37Z</time>
      </trkpt>
      <trkpt lat="43.62666" lon="6.6577">
        <ele>302.899994</ele>
        <time>2011-09-23T13:59:42Z</time>
      </trkpt>
      <trkpt lat="43.62668" lon="6.65775">
        <ele>302.100006</ele>
        <time>2011-09-23T13:59:47Z</time>
      </trkpt>
      <trkpt lat="43.62668" lon="6.65777">
        <ele>302.100006</ele>
        <time>2011-09-23T13:59:52Z</time>
      </trkpt>
      <trkpt lat="43.6267" lon="6.65777">
        <ele>302</ele>
        <time>2011-09-23T13:59:57Z</time>
      </trkpt>
      <trkpt lat="43.62672" lon="6.65779">
        <ele>301.799988</ele>
        <time>2011-09-23T14:00:02Z</time>
      </trkpt>
      <trkpt lat="43.62672" lon="6.65781">
        <ele>302.399994</ele>
        <time>2011-09-23T14:00:07Z</time>
      </trkpt>
      <trkpt lat="43.62672" lon="6.65783">
        <ele>302.200012</ele>
        <time>2011-09-23T14:00:12Z</time>
      </trkpt>
      <trkpt lat="43.62671" lon="6.65785">
        <ele>302.100006</ele>
        <time>2011-09-23T14:00:17Z</time>
      </trkpt>
      <trkpt lat="43.62671" lon="6.65787">
        <ele>302.399994</ele>
        <time>2011-09-23T14:00:22Z</time>
      </trkpt>
      <trkpt lat="43.62672" lon="6.65789">
        <ele>302.399994</ele>
        <time>2011-09-23T14:00:27Z</time>
      </trkpt>
      <trkpt lat="43.62672" lon="6.6579">
        <ele>302.299988</ele>
        <time>2011-09-23T14:00:32Z</time>
      </trkpt>
      <trkpt lat="43.62671" lon="6.6579">
        <ele>302.399994</ele>
        <time>2011-09-23T14:00:33Z</time>
      </trkpt>
      <trkpt lat="43.62669" lon="6.65789">
        <ele>302.399994</ele>
        <time>2011-09-23T14:00:42Z</time>
      </trkpt>
      <trkpt lat="43.6267" lon="6.65789">
        <ele>302.200012</ele>
        <time>2011-09-23T14:00:47Z</time>
      </trkpt>
      <trkpt lat="43.62671" lon="6.6579">
        <ele>302</ele>
        <time>2011-09-23T14:00:52Z</time>
      </trkpt>
      <trkpt lat="43.62671" lon="6.65793">
        <ele>302.100006</ele>
        <time>2011-09-23T14:00:57Z</time>
      </trkpt>
      <trkpt lat="43.62671" lon="6.65795">
        <ele>302</ele>
        <time>2011-09-23T14:01:02Z</time>
      </trkpt>
      <trkpt lat="43.6267" lon="6.65795">
        <ele>302.100006</ele>
        <time>2011-09-23T14:01:07Z</time>
      </trkpt>
      <trkpt lat="43.6267" lon="6.65795">
        <ele>302.399994</ele>
        <time>2011-09-23T14:01:12Z</time>
      </trkpt>
      <trkpt lat="43.62672" lon="6.65796">
        <ele>302.299988</ele>
        <time>2011-09-23T14:01:17Z</time>
      </trkpt>
      <trkpt lat="43.62673" lon="6.65796">
        <ele>302.399994</ele>
        <time>2011-09-23T14:01:22Z</time>
      </trkpt>
      <trkpt lat="43.62674" lon="6.65795">
        <ele>302.100006</ele>
        <time>2011-09-23T14:01:27Z</time>
      </trkpt>
      <trkpt lat="43.62675" lon="6.65794">
        <ele>302.299988</ele>
        <time>2011-09-23T14:01:32Z</time>
      </trkpt>
      <trkpt lat="43.62676" lon="6.65794">
        <ele>302.299988</ele>
        <time>2011-09-23T14:01:37Z</time>
      </trkpt>
      <trkpt lat="43.62676" lon="6.65794">
        <ele>302.200012</ele>
        <time>2011-09-23T14:01:38Z</time>
      </trkpt>
      <trkpt lat="43.62675" lon="6.65792">
        <ele>302.299988</ele>
        <time>2011-09-23T14:01:47Z</time>
      </trkpt>
      <trkpt lat="43.62674" lon="6.65793">
        <ele>302.200012</ele>
        <time>2011-09-23T14:01:52Z</time>
      </trkpt>
      <trkpt lat="43.62674" lon="6.65792">
        <ele>302.200012</ele>
        <time>2011-09-23T14:01:57Z</time>
      </trkpt>
      <trkpt lat="43.62675" lon="6.65792">
        <ele>302.299988</ele>
        <time>2011-09-23T14:02:02Z</time>
      </trkpt>
      <trkpt lat="43.62674" lon="6.65793">
        <ele>302.200012</ele>
        <time>2011-09-23T14:02:07Z</time>
      </trkpt>
      <trkpt lat="43.62673" lon="6.65795">
        <ele>302</ele>
        <time>2011-09-23T14:02:12Z</time>
      </trkpt>
      <trkpt lat="43.62673" lon="6.65796">
        <ele>302</ele>
        <time>2011-09-23T14:02:17Z</time>
      </trkpt>
      <trkpt lat="43.62673" lon="6.65797">
        <ele>301.899994</ele>
        <time>2011-09-23T14:02:22Z</time>
      </trkpt>
      <trkpt lat="43.62674" lon="6.65798">
        <ele>302.200012</ele>
        <time>2011-09-23T14:02:27Z</time>
      </trkpt>
      <trkpt lat="43.62673" lon="6.65798">
        <ele>301.700012</ele>
        <time>2011-09-23T14:02:32Z</time>
      </trkpt>
      <trkpt lat="43.62672" lon="6.65798">
        <ele>301.899994</ele>
        <time>2011-09-23T14:02:37Z</time>
      </trkpt>
      <trkpt lat="43.62671" lon="6.658">
        <ele>301.899994</ele>
        <time>2011-09-23T14:02:42Z</time>
      </trkpt>
      <trkpt lat="43.62671" lon="6.658">
        <ele>302</ele>
        <time>2011-09-23T14:02:43Z</time>
      </trkpt>
      <trkpt lat="43.62668" lon="6.65803">
        <ele>301.100006</ele>
        <time>2011-09-23T14:02:52Z</time>
      </trkpt>
      <trkpt lat="43.62667" lon="6.65808">
        <ele>300.700012</ele>
        <time>2011-09-23T14:02:57Z</time>
      </trkpt>
      <trkpt lat="43.62667" lon="6.65812">
        <ele>300.100006</ele>
        <time>2011-09-23T14:03:02Z</time>
      </trkpt>
      <trkpt lat="43.62665" lon="6.65817">
        <ele>299.799988</ele>
        <time>2011-09-23T14:03:07Z</time>
      </trkpt>
      <trkpt lat="43.62665" lon="6.65823">
        <ele>299.399994</ele>
        <time>2011-09-23T14:03:12Z</time>
      </trkpt>
      <trkpt lat="43.62665" lon="6.65828">
        <ele>299.399994</ele>
        <time>2011-09-23T14:03:17Z</time>
      </trkpt>
      <trkpt lat="43.62664" lon="6.65835">
        <ele>299.299988</ele>
        <time>2011-09-23T14:03:22Z</time>
      </trkpt>
      <trkpt lat="43.62665" lon="6.65841">
        <ele>298.799988</ele>
        <time>2011-09-23T14:03:27Z</time>
      </trkpt>
      <trkpt lat="43.62662" lon="6.65845">
        <ele>298.5</ele>
        <time>2011-09-23T14:03:32Z</time>
      </trkpt>
      <trkpt lat="43.62661" lon="6.65851">
        <ele>298.5</ele>
        <time>2011-09-23T14:03:37Z</time>
      </trkpt>
      <trkpt lat="43.62662" lon="6.65857">
        <ele>298.299988</ele>
        <time>2011-09-23T14:03:42Z</time>
      </trkpt>
      <trkpt lat="43.62663" lon="6.65865">
        <ele>298.700012</ele>
        <time>2011-09-23T14:03:47Z</time>
      </trkpt>
      <trkpt lat="43.62662" lon="6.65866">
        <ele>298.600006</ele>
        <time>2011-09-23T14:03:48Z</time>
      </trkpt>
      <trkpt lat="43.62662" lon="6.65879">
        <ele>298.600006</ele>
        <time>2011-09-23T14:03:57Z</time>
      </trkpt>
      <trkpt lat="43.62662" lon="6.65886">
        <ele>298.600006</ele>
        <time>2011-09-23T14:04:02Z</time>
      </trkpt>
      <trkpt lat="43.62663" lon="6.65895">
        <ele>299</ele>
        <time>2011-09-23T14:04:07Z</time>
      </trkpt>
      <trkpt lat="43.62663" lon="6.65902">
        <ele>298.799988</ele>
        <time>2011-09-23T14:04:12Z</time>
      </trkpt>
      <trkpt lat="43.62662" lon="6.6591">
        <ele>298.299988</ele>
        <time>2011-09-23T14:04:17Z</time>
      </trkpt>
      <trkpt lat="43.62662" lon="6.65918">
        <ele>298.600006</ele>
        <time>2011-09-23T14:04:22Z</time>
      </trkpt>
      <trkpt lat="43.62663" lon="6.65925">
        <ele>298.299988</ele>
        <time>2011-09-23T14:04:27Z</time>
      </trkpt>
      <trkpt lat="43.62663" lon="6.65933">
        <ele>298.5</ele>
        <time>2011-09-23T14:04:32Z</time>
      </trkpt>
      <trkpt lat="43.62659" lon="6.65939">
        <ele>298.299988</ele>
        <time>2011-09-23T14:04:37Z</time>
      </trkpt>
      <trkpt lat="43.62654" lon="6.65946">
        <ele>298.5</ele>
        <time>2011-09-23T14:04:42Z</time>
      </trkpt>
      <trkpt lat="43.6265" lon="6.65951">
        <ele>298.5</ele>
        <time>2011-09-23T14:04:47Z</time>
      </trkpt>
      <trkpt lat="43.62644" lon="6.65957">
        <ele>298</ele>
        <time>2011-09-23T14:04:52Z</time>
      </trkpt>
      <trkpt lat="43.62643" lon="6.65958">
        <ele>298</ele>
        <time>2011-09-23T14:04:53Z</time>
      </trkpt>
      <trkpt lat="43.62634" lon="6.65965">
        <ele>297.799988</ele>
        <time>2011-09-23T14:05:02Z</time>
      </trkpt>
      <trkpt lat="43.62629" lon="6.65968">
        <ele>297.700012</ele>
        <time>2011-09-23T14:05:07Z</time>
      </trkpt>
      <trkpt lat="43.62622" lon="6.65971">
        <ele>297.399994</ele>
        <time>2011-09-23T14:05:12Z</time>
      </trkpt>
      <trkpt lat="43.62616" lon="6.65973">
        <ele>297.700012</ele>
        <time>2011-09-23T14:05:17Z</time>
      </trkpt>
      <trkpt lat="43.62612" lon="6.65974">
        <ele>297.399994</ele>
        <time>2011-09-23T14:05:22Z</time>
      </trkpt>
      <trkpt lat="43.62607" lon="6.65974">
        <ele>297.100006</ele>
        <time>2011-09-23T14:05:27Z</time>
      </trkpt>
      <trkpt lat="43.62602" lon="6.65975">
        <ele>297.100006</ele>
        <time>2011-09-23T14:05:32Z</time>
      </trkpt>
      <trkpt lat="43.62595" lon="6.65978">
        <ele>297.200012</ele>
        <time>2011-09-23T14:05:37Z</time>
      </trkpt>
      <trkpt lat="43.6259" lon="6.65979">
        <ele>296.700012</ele>
        <time>2011-09-23T14:05:42Z</time>
      </trkpt>
      <trkpt lat="43.62585" lon="6.65979">
        <ele>296.200012</ele>
        <time>2011-09-23T14:05:47Z</time>
      </trkpt>
      <trkpt lat="43.6258" lon="6.65978">
        <ele>295.899994</ele>
        <time>2011-09-23T14:05:52Z</time>
      </trkpt>
      <trkpt lat="43.62575" lon="6.65978">
        <ele>295.700012</ele>
        <time>2011-09-23T14:05:57Z</time>
      </trkpt>
      <trkpt lat="43.62574" lon="6.65978">
        <ele>295.600006</ele>
        <time>2011-09-23T14:05:58Z</time>
      </trkpt>
      <trkpt lat="43.62565" lon="6.65978">
        <ele>294.5</ele>
        <time>2011-09-23T14:06:07Z</time>
      </trkpt>
      <trkpt lat="43.62561" lon="6.65978">
        <ele>293.899994</ele>
        <time>2011-09-23T14:06:12Z</time>
      </trkpt>
      <trkpt lat="43.62557" lon="6.65979">
        <ele>293.899994</ele>
        <time>2011-09-23T14:06:17Z</time>
      </trkpt>
      <trkpt lat="43.62553" lon="6.6598">
        <ele>293.600006</ele>
        <time>2011-09-23T14:06:22Z</time>
      </trkpt>
      <trkpt lat="43.62548" lon="6.65981">
        <ele>293.5</ele>
        <time>2011-09-23T14:06:27Z</time>
      </trkpt>
      <trkpt lat="43.62544" lon="6.65982">
        <ele>293.600006</ele>
        <time>2011-09-23T14:06:32Z</time>
      </trkpt>
      <trkpt lat="43.6254" lon="6.65983">
        <ele>293.399994</ele>
        <time>2011-09-23T14:06:37Z</time>
      </trkpt>
      <trkpt lat="43.62535" lon="6.65984">
        <ele>293.600006</ele>
        <time>2011-09-23T14:06:42Z</time>
      </trkpt>
      <trkpt lat="43.62529" lon="6.65986">
        <ele>293.600006</ele>
        <time>2011-09-23T14:06:47Z</time>
      </trkpt>
      <trkpt lat="43.62525" lon="6.65989">
        <ele>293.899994</ele>
        <time>2011-09-23T14:06:52Z</time>
      </trkpt>
      <trkpt lat="43.62523" lon="6.65995">
        <ele>293.5</ele>
        <time>2011-09-23T14:06:57Z</time>
      </trkpt>
      <trkpt lat="43.6252" lon="6.66">
        <ele>293.5</ele>
        <time>2011-09-23T14:07:02Z</time>
      </trkpt>
      <trkpt lat="43.62519" lon="6.66">
        <ele>293.700012</ele>
        <time>2011-09-23T14:07:03Z</time>
      </trkpt>
      <trkpt lat="43.62512" lon="6.66001">
        <ele>292.799988</ele>
        <time>2011-09-23T14:07:12Z</time>
      </trkpt>
      <trkpt lat="43.62508" lon="6.66001">
        <ele>292.899994</ele>
        <time>2011-09-23T14:07:17Z</time>
      </trkpt>
      <trkpt lat="43.62503" lon="6.66001">
        <ele>292.799988</ele>
        <time>2011-09-23T14:07:22Z</time>
      </trkpt>
      <trkpt lat="43.62497" lon="6.65999">
        <ele>292.399994</ele>
        <time>2011-09-23T14:07:27Z</time>
      </trkpt>
      <trkpt lat="43.62492" lon="6.65998">
        <ele>292.200012</ele>
        <time>2011-09-23T14:07:32Z</time>
      </trkpt>
      <trkpt lat="43.62491" lon="6.65998">
        <ele>292.100006</ele>
        <time>2011-09-23T14:07:37Z</time>
      </trkpt>
      <trkpt lat="43.62491" lon="6.65999">
        <ele>292.100006</ele>
        <time>2011-09-23T14:07:42Z</time>
      </trkpt>
      <trkpt lat="43.62488" lon="6.65999">
        <ele>292.399994</ele>
        <time>2011-09-23T14:07:47Z</time>
      </trkpt>
      <trkpt lat="43.62485" lon="6.65997">
        <ele>292.5</ele>
        <time>2011-09-23T14:07:52Z</time>
      </trkpt>
      <trkpt lat="43.62484" lon="6.65996">
        <ele>292.700012</ele>
        <time>2011-09-23T14:07:57Z</time>
      </trkpt>
      <trkpt lat="43.62486" lon="6.65996">
        <ele>292.600006</ele>
        <time>2011-09-23T14:08:02Z</time>
      </trkpt>
      <trkpt lat="43.62487" lon="6.65996">
        <ele>292.700012</ele>
        <time>2011-09-23T14:08:07Z</time>
      </trkpt>
      <trkpt lat="43.62488" lon="6.65996">
        <ele>292.600006</ele>
        <time>2011-09-23T14:08:08Z</time>
      </trkpt>
      <trkpt lat="43.62488" lon="6.65995">
        <ele>292.700012</ele>
        <time>2011-09-23T14:08:17Z</time>
      </trkpt>
      <trkpt lat="43.62486" lon="6.65997">
        <ele>293</ele>
        <time>2011-09-23T14:08:22Z</time>
      </trkpt>
      <trkpt lat="43.62485" lon="6.65999">
        <ele>293.200012</ele>
        <time>2011-09-23T14:08:27Z</time>
      </trkpt>
      <trkpt lat="43.62485" lon="6.66003">
        <ele>293.100006</ele>
        <time>2011-09-23T14:08:32Z</time>
      </trkpt>
      <trkpt lat="43.62483" lon="6.66009">
        <ele>292.899994</ele>
        <time>2011-09-23T14:08:37Z</time>
      </trkpt>
      <trkpt lat="43.62482" lon="6.66012">
        <ele>293</ele>
        <time>2011-09-23T14:08:42Z</time>
      </trkpt>
      <trkpt lat="43.62482" lon="6.66015">
        <ele>293.299988</ele>
        <time>2011-09-23T14:08:47Z</time>
      </trkpt>
      <trkpt lat="43.62481" lon="6.6602">
        <ele>293.299988</ele>
        <time>2011-09-23T14:08:52Z</time>
      </trkpt>
      <trkpt lat="43.62481" lon="6.66025">
        <ele>292.899994</ele>
        <time>2011-09-23T14:08:57Z</time>
      </trkpt>
      <trkpt lat="43.62479" lon="6.6603">
        <ele>292.600006</ele>
        <time>2011-09-23T14:09:02Z</time>
      </trkpt>
      <trkpt lat="43.62479" lon="6.66035">
        <ele>292.200012</ele>
        <time>2011-09-23T14:09:07Z</time>
      </trkpt>
      <trkpt lat="43.62481" lon="6.66039">
        <ele>291.200012</ele>
        <time>2011-09-23T14:09:12Z</time>
      </trkpt>
      <trkpt lat="43.62482" lon="6.6604">
        <ele>291.299988</ele>
        <time>2011-09-23T14:09:13Z</time>
      </trkpt>
      <trkpt lat="43.62485" lon="6.66041">
        <ele>291.399994</ele>
        <time>2011-09-23T14:09:22Z</time>
      </trkpt>
      <trkpt lat="43.62483" lon="6.66041">
        <ele>291.399994</ele>
        <time>2011-09-23T14:09:27Z</time>
      </trkpt>
      <trkpt lat="43.62486" lon="6.66042">
        <ele>291.399994</ele>
        <time>2011-09-23T14:09:32Z</time>
      </trkpt>
      <trkpt lat="43.62485" lon="6.66042">
        <ele>291.100006</ele>
        <time>2011-09-23T14:09:37Z</time>
      </trkpt>
      <trkpt lat="43.62485" lon="6.66043">
        <ele>291.700012</ele>
        <time>2011-09-23T14:09:42Z</time>
      </trkpt>
      <trkpt lat="43.62485" lon="6.66042">
        <ele>291.700012</ele>
        <time>2011-09-23T14:09:47Z</time>
      </trkpt>
      <trkpt lat="43.62484" lon="6.66042">
        <ele>291.700012</ele>
        <time>2011-09-23T14:09:52Z</time>
      </trkpt>
      <trkpt lat="43.62485" lon="6.66042">
        <ele>291.5</ele>
        <time>2011-09-23T14:09:57Z</time>
      </trkpt>
      <trkpt lat="43.62484" lon="6.66048">
        <ele>291</ele>
        <time>2011-09-23T14:10:12Z</time>
      </trkpt>
      <trkpt lat="43.62487" lon="6.66063">
        <ele>291.299988</ele>
        <time>2011-09-23T14:10:23Z</time>
      </trkpt>
      <trkpt lat="43.62487" lon="6.66054">
        <ele>291.299988</ele>
        <time>2011-09-23T14:10:28Z</time>
      </trkpt>
      <trkpt lat="43.62487" lon="6.66048">
        <ele>291.200012</ele>
        <time>2011-09-23T14:10:33Z</time>
      </trkpt>
      <trkpt lat="43.62488" lon="6.66049">
        <ele>291.200012</ele>
        <time>2011-09-23T14:10:38Z</time>
      </trkpt>
      <trkpt lat="43.62488" lon="6.6605">
        <ele>291.299988</ele>
        <time>2011-09-23T14:10:43Z</time>
      </trkpt>
      <trkpt lat="43.62488" lon="6.66048">
        <ele>291.100006</ele>
        <time>2011-09-23T14:10:48Z</time>
      </trkpt>
      <trkpt lat="43.62489" lon="6.66049">
        <ele>291.299988</ele>
        <time>2011-09-23T14:10:53Z</time>
      </trkpt>
      <trkpt lat="43.62486" lon="6.6605">
        <ele>291.200012</ele>
        <time>2011-09-23T14:10:58Z</time>
      </trkpt>
      <trkpt lat="43.62486" lon="6.66047">
        <ele>291.399994</ele>
        <time>2011-09-23T14:11:03Z</time>
      </trkpt>
      <trkpt lat="43.62484" lon="6.66044">
        <ele>291.100006</ele>
        <time>2011-09-23T14:11:08Z</time>
      </trkpt>
      <trkpt lat="43.6248" lon="6.6604">
        <ele>291.399994</ele>
        <time>2011-09-23T14:11:13Z</time>
      </trkpt>
      <trkpt lat="43.62482" lon="6.66043">
        <ele>291.399994</ele>
        <time>2011-09-23T14:11:18Z</time>
      </trkpt>
      <trkpt lat="43.62482" lon="6.66045">
        <ele>291.399994</ele>
        <time>2011-09-23T14:11:23Z</time>
      </trkpt>
      <trkpt lat="43.62483" lon="6.66048">
        <ele>291.399994</ele>
        <time>2011-09-23T14:11:28Z</time>
      </trkpt>
      <trkpt lat="43.62482" lon="6.66048">
        <ele>291.399994</ele>
        <time>2011-09-23T14:11:29Z</time>
      </trkpt>
      <trkpt lat="43.6248" lon="6.66046">
        <ele>291.5</ele>
        <time>2011-09-23T14:11:38Z</time>
      </trkpt>
      <trkpt lat="43.62482" lon="6.66047">
        <ele>291.200012</ele>
        <time>2011-09-23T14:11:43Z</time>
      </trkpt>
      <trkpt lat="43.6248" lon="6.66047">
        <ele>291.399994</ele>
        <time>2011-09-23T14:11:48Z</time>
      </trkpt>
      <trkpt lat="43.62482" lon="6.66047">
        <ele>291.200012</ele>
        <time>2011-09-23T14:11:53Z</time>
      </trkpt>
      <trkpt lat="43.62482" lon="6.66047">
        <ele>291.299988</ele>
        <time>2011-09-23T14:11:58Z</time>
      </trkpt>
      <trkpt lat="43.62484" lon="6.66048">
        <ele>291.200012</ele>
        <time>2011-09-23T14:12:03Z</time>
      </trkpt>
      <trkpt lat="43.62484" lon="6.66048">
        <ele>291.299988</ele>
        <time>2011-09-23T14:12:08Z</time>
      </trkpt>
      <trkpt lat="43.6248" lon="6.66046">
        <ele>291.100006</ele>
        <time>2011-09-23T14:12:13Z</time>
      </trkpt>
      <trkpt lat="43.62476" lon="6.66044">
        <ele>291.5</ele>
        <time>2011-09-23T14:12:18Z</time>
      </trkpt>
      <trkpt lat="43.62473" lon="6.66044">
        <ele>291.299988</ele>
        <time>2011-09-23T14:12:23Z</time>
      </trkpt>
      <trkpt lat="43.62475" lon="6.66043">
        <ele>291.5</ele>
        <time>2011-09-23T14:12:28Z</time>
      </trkpt>
      <trkpt lat="43.62476" lon="6.66042">
        <ele>291.600006</ele>
        <time>2011-09-23T14:12:33Z</time>
      </trkpt>
      <trkpt lat="43.62476" lon="6.66043">
        <ele>291.700012</ele>
        <time>2011-09-23T14:12:34Z</time>
      </trkpt>
      <trkpt lat="43.62478" lon="6.66044">
        <ele>291.600006</ele>
        <time>2011-09-23T14:12:43Z</time>
      </trkpt>
      <trkpt lat="43.62482" lon="6.66045">
        <ele>291.5</ele>
        <time>2011-09-23T14:12:48Z</time>
      </trkpt>
      <trkpt lat="43.62483" lon="6.66048">
        <ele>291.600006</ele>
        <time>2011-09-23T14:12:53Z</time>
      </trkpt>
      <trkpt lat="43.62485" lon="6.66048">
        <ele>291.399994</ele>
        <time>2011-09-23T14:12:58Z</time>
      </trkpt>
      <trkpt lat="43.62482" lon="6.66049">
        <ele>291.600006</ele>
        <time>2011-09-23T14:13:03Z</time>
      </trkpt>
      <trkpt lat="43.6248" lon="6.66052">
        <ele>291.600006</ele>
        <time>2011-09-23T14:13:08Z</time>
      </trkpt>
      <trkpt lat="43.62479" lon="6.66053">
        <ele>291.299988</ele>
        <time>2011-09-23T14:13:13Z</time>
      </trkpt>
      <trkpt lat="43.62479" lon="6.66052">
        <ele>291.600006</ele>
        <time>2011-09-23T14:13:18Z</time>
      </trkpt>
      <trkpt lat="43.62481" lon="6.66046">
        <ele>291.399994</ele>
        <time>2011-09-23T14:13:23Z</time>
      </trkpt>
      <trkpt lat="43.62484" lon="6.66043">
        <ele>291.600006</ele>
        <time>2011-09-23T14:13:28Z</time>
      </trkpt>
      <trkpt lat="43.62484" lon="6.66045">
        <ele>291.299988</ele>
        <time>2011-09-23T14:13:33Z</time>
      </trkpt>
      <trkpt lat="43.62482" lon="6.66046">
        <ele>291.299988</ele>
        <time>2011-09-23T14:13:38Z</time>
      </trkpt>
      <trkpt lat="43.62482" lon="6.66046">
        <ele>291.399994</ele>
        <time>2011-09-23T14:13:39Z</time>
      </trkpt>
      <trkpt lat="43.62482" lon="6.66047">
        <ele>291.5</ele>
        <time>2011-09-23T14:13:48Z</time>
      </trkpt>
      <trkpt lat="43.62481" lon="6.66047">
        <ele>291.299988</ele>
        <time>2011-09-23T14:13:53Z</time>
      </trkpt>
      <trkpt lat="43.6248" lon="6.66048">
        <ele>291.299988</ele>
        <time>2011-09-23T14:13:58Z</time>
      </trkpt>
      <trkpt lat="43.6248" lon="6.66048">
        <ele>291.299988</ele>
        <time>2011-09-23T14:14:03Z</time>
      </trkpt>
      <trkpt lat="43.62482" lon="6.66049">
        <ele>291.5</ele>
        <time>2011-09-23T14:14:08Z</time>
      </trkpt>
      <trkpt lat="43.62483" lon="6.66049">
        <ele>291.299988</ele>
        <time>2011-09-23T14:14:13Z</time>
      </trkpt>
      <trkpt lat="43.62485" lon="6.66049">
        <ele>291.200012</ele>
        <time>2011-09-23T14:14:18Z</time>
      </trkpt>
      <trkpt lat="43.62487" lon="6.66049">
        <ele>291.600006</ele>
        <time>2011-09-23T14:14:23Z</time>
      </trkpt>
      <trkpt lat="43.62487" lon="6.66048">
        <ele>291.700012</ele>
        <time>2011-09-23T14:14:28Z</time>
      </trkpt>
      <trkpt lat="43.62485" lon="6.66047">
        <ele>291.600006</ele>
        <time>2011-09-23T14:14:33Z</time>
      </trkpt>
      <trkpt lat="43.62482" lon="6.66044">
        <ele>291.600006</ele>
        <time>2011-09-23T14:14:38Z</time>
      </trkpt>
      <trkpt lat="43.62482" lon="6.66046">
        <ele>291.700012</ele>
        <time>2011-09-23T14:14:43Z</time>
      </trkpt>
      <trkpt lat="43.62482" lon="6.66046">
        <ele>291.600006</ele>
        <time>2011-09-23T14:14:44Z</time>
      </trkpt>
      <trkpt lat="43.62481" lon="6.66043">
        <ele>291.600006</ele>
        <time>2011-09-23T14:14:53Z</time>
      </trkpt>
      <trkpt lat="43.62478" lon="6.66041">
        <ele>291.600006</ele>
        <time>2011-09-23T14:14:58Z</time>
      </trkpt>
      <trkpt lat="43.62476" lon="6.66042">
        <ele>291.299988</ele>
        <time>2011-09-23T14:15:03Z</time>
      </trkpt>
      <trkpt lat="43.62473" lon="6.66041">
        <ele>291.399994</ele>
        <time>2011-09-23T14:15:08Z</time>
      </trkpt>
      <trkpt lat="43.62476" lon="6.66041">
        <ele>290.600006</ele>
        <time>2011-09-23T14:15:13Z</time>
      </trkpt>
      <trkpt lat="43.62477" lon="6.66042">
        <ele>290.899994</ele>
        <time>2011-09-23T14:15:18Z</time>
      </trkpt>
      <trkpt lat="43.62477" lon="6.66045">
        <ele>290.600006</ele>
        <time>2011-09-23T14:15:23Z</time>
      </trkpt>
      <trkpt lat="43.62477" lon="6.66048">
        <ele>290.5</ele>
        <time>2011-09-23T14:15:28Z</time>
      </trkpt>
      <trkpt lat="43.62477" lon="6.66046">
        <ele>290.299988</ele>
        <time>2011-09-23T14:15:33Z</time>
      </trkpt>
      <trkpt lat="43.62476" lon="6.66045">
        <ele>290.5</ele>
        <time>2011-09-23T14:15:38Z</time>
      </trkpt>
      <trkpt lat="43.62478" lon="6.66045">
        <ele>290.600006</ele>
        <time>2011-09-23T14:15:43Z</time>
      </trkpt>
      <trkpt lat="43.62479" lon="6.66045">
        <ele>290.700012</ele>
        <time>2011-09-23T14:15:48Z</time>
      </trkpt>
      <trkpt lat="43.62479" lon="6.66044">
        <ele>290.600006</ele>
        <time>2011-09-23T14:15:49Z</time>
      </trkpt>
      <trkpt lat="43.62477" lon="6.66045">
        <ele>290.5</ele>
        <time>2011-09-23T14:15:58Z</time>
      </trkpt>
      <trkpt lat="43.62478" lon="6.66045">
        <ele>290.600006</ele>
        <time>2011-09-23T14:16:03Z</time>
      </trkpt>
      <trkpt lat="43.62477" lon="6.66045">
        <ele>290.5</ele>
        <time>2011-09-23T14:16:08Z</time>
      </trkpt>
      <trkpt lat="43.62477" lon="6.66046">
        <ele>290.700012</ele>
        <time>2011-09-23T14:16:13Z</time>
      </trkpt>
      <trkpt lat="43.62477" lon="6.66047">
        <ele>290.299988</ele>
        <time>2011-09-23T14:16:18Z</time>
      </trkpt>
      <trkpt lat="43.62478" lon="6.66048">
        <ele>290.299988</ele>
        <time>2011-09-23T14:16:23Z</time>
      </trkpt>
      <trkpt lat="43.62479" lon="6.66048">
        <ele>290.799988</ele>
        <time>2011-09-23T14:16:28Z</time>
      </trkpt>
      <trkpt lat="43.62478" lon="6.66049">
        <ele>290.700012</ele>
        <time>2011-09-23T14:16:33Z</time>
      </trkpt>
      <trkpt lat="43.62479" lon="6.66049">
        <ele>290.100006</ele>
        <time>2011-09-23T14:16:38Z</time>
      </trkpt>
      <trkpt lat="43.62479" lon="6.66048">
        <ele>291</ele>
        <time>2011-09-23T14:16:43Z</time>
      </trkpt>
      <trkpt lat="43.62478" lon="6.66048">
        <ele>290.600006</ele>
        <time>2011-09-23T14:16:48Z</time>
      </trkpt>
      <trkpt lat="43.62478" lon="6.66048">
        <ele>290.700012</ele>
        <time>2011-09-23T14:16:53Z</time>
      </trkpt>
      <trkpt lat="43.62478" lon="6.66048">
        <ele>290.899994</ele>
        <time>2011-09-23T14:16:54Z</time>
      </trkpt>
      <trkpt lat="43.62477" lon="6.66048">
        <ele>291</ele>
        <time>2011-09-23T14:17:03Z</time>
      </trkpt>
      <trkpt lat="43.62477" lon="6.66048">
        <ele>291.299988</ele>
        <time>2011-09-23T14:17:08Z</time>
      </trkpt>
      <trkpt lat="43.62477" lon="6.66048">
        <ele>291.700012</ele>
        <time>2011-09-23T14:17:13Z</time>
      </trkpt>
      <trkpt lat="43.62477" lon="6.66049">
        <ele>291.700012</ele>
        <time>2011-09-23T14:17:18Z</time>
      </trkpt>
      <trkpt lat="43.62477" lon="6.66049">
        <ele>291.5</ele>
        <time>2011-09-23T14:17:23Z</time>
      </trkpt>
      <trkpt lat="43.62477" lon="6.66048">
        <ele>291.600006</ele>
        <time>2011-09-23T14:17:28Z</time>
      </trkpt>
      <trkpt lat="43.62478" lon="6.66048">
        <ele>291.5</ele>
        <time>2011-09-23T14:17:33Z</time>
      </trkpt>
      <trkpt lat="43.62479" lon="6.66049">
        <ele>291.700012</ele>
        <time>2011-09-23T14:17:38Z</time>
      </trkpt>
      <trkpt lat="43.6248" lon="6.66049">
        <ele>291.799988</ele>
        <time>2011-09-23T14:17:43Z</time>
      </trkpt>
      <trkpt lat="43.6248" lon="6.66048">
        <ele>291.399994</ele>
        <time>2011-09-23T14:17:48Z</time>
      </trkpt>
      <trkpt lat="43.6248" lon="6.66048">
        <ele>291.399994</ele>
        <time>2011-09-23T14:17:53Z</time>
      </trkpt>
      <trkpt lat="43.6248" lon="6.66047">
        <ele>291.299988</ele>
        <time>2011-09-23T14:17:58Z</time>
      </trkpt>
      <trkpt lat="43.6248" lon="6.66048">
        <ele>291.200012</ele>
        <time>2011-09-23T14:17:59Z</time>
      </trkpt>
      <trkpt lat="43.62481" lon="6.66047">
        <ele>292</ele>
        <time>2011-09-23T14:18:08Z</time>
      </trkpt>
      <trkpt lat="43.62484" lon="6.66048">
        <ele>292</ele>
        <time>2011-09-23T14:18:13Z</time>
      </trkpt>
      <trkpt lat="43.62482" lon="6.66046">
        <ele>292</ele>
        <time>2011-09-23T14:18:18Z</time>
      </trkpt>
      <trkpt lat="43.62483" lon="6.66045">
        <ele>291.799988</ele>
        <time>2011-09-23T14:18:23Z</time>
      </trkpt>
      <trkpt lat="43.62483" lon="6.66045">
        <ele>291.799988</ele>
        <time>2011-09-23T14:18:28Z</time>
      </trkpt>
      <trkpt lat="43.62483" lon="6.66048">
        <ele>291.899994</ele>
        <time>2011-09-23T14:18:33Z</time>
      </trkpt>
      <trkpt lat="43.62482" lon="6.66049">
        <ele>291.700012</ele>
        <time>2011-09-23T14:18:38Z</time>
      </trkpt>
      <trkpt lat="43.62479" lon="6.66048">
        <ele>291.799988</ele>
        <time>2011-09-23T14:18:43Z</time>
      </trkpt>
      <trkpt lat="43.62476" lon="6.66045">
        <ele>292</ele>
        <time>2011-09-23T14:18:48Z</time>
      </trkpt>
      <trkpt lat="43.62475" lon="6.66043">
        <ele>292.100006</ele>
        <time>2011-09-23T14:18:53Z</time>
      </trkpt>
      <trkpt lat="43.62475" lon="6.66044">
        <ele>291.899994</ele>
        <time>2011-09-23T14:18:58Z</time>
      </trkpt>
      <trkpt lat="43.62473" lon="6.66045">
        <ele>291.700012</ele>
        <time>2011-09-23T14:19:03Z</time>
      </trkpt>
      <trkpt lat="43.62473" lon="6.66046">
        <ele>291.799988</ele>
        <time>2011-09-23T14:19:04Z</time>
      </trkpt>
      <trkpt lat="43.62472" lon="6.66044">
        <ele>292</ele>
        <time>2011-09-23T14:19:13Z</time>
      </trkpt>
      <trkpt lat="43.62472" lon="6.66042">
        <ele>292.200012</ele>
        <time>2011-09-23T14:19:18Z</time>
      </trkpt>
      <trkpt lat="43.62473" lon="6.6604">
        <ele>292.399994</ele>
        <time>2011-09-23T14:19:23Z</time>
      </trkpt>
      <trkpt lat="43.62475" lon="6.66038">
        <ele>292.5</ele>
        <time>2011-09-23T14:19:28Z</time>
      </trkpt>
      <trkpt lat="43.62475" lon="6.6604">
        <ele>292</ele>
        <time>2011-09-23T14:19:33Z</time>
      </trkpt>
      <trkpt lat="43.62476" lon="6.6604">
        <ele>292</ele>
        <time>2011-09-23T14:19:38Z</time>
      </trkpt>
      <trkpt lat="43.62476" lon="6.66042">
        <ele>292</ele>
        <time>2011-09-23T14:19:43Z</time>
      </trkpt>
      <trkpt lat="43.62477" lon="6.66044">
        <ele>292.299988</ele>
        <time>2011-09-23T14:19:48Z</time>
      </trkpt>
      <trkpt lat="43.62476" lon="6.66045">
        <ele>292.200012</ele>
        <time>2011-09-23T14:19:53Z</time>
      </trkpt>
      <trkpt lat="43.62472" lon="6.66046">
        <ele>292</ele>
        <time>2011-09-23T14:19:58Z</time>
      </trkpt>
      <trkpt lat="43.62469" lon="6.66045">
        <ele>292.200012</ele>
        <time>2011-09-23T14:20:03Z</time>
      </trkpt>
      <trkpt lat="43.62468" lon="6.66048">
        <ele>292.200012</ele>
        <time>2011-09-23T14:20:08Z</time>
      </trkpt>
      <trkpt lat="43.62468" lon="6.66048">
        <ele>292.100006</ele>
        <time>2011-09-23T14:20:09Z</time>
      </trkpt>
      <trkpt lat="43.62467" lon="6.6605">
        <ele>292.100006</ele>
        <time>2011-09-23T14:20:18Z</time>
      </trkpt>
      <trkpt lat="43.62469" lon="6.66049">
        <ele>292.399994</ele>
        <time>2011-09-23T14:20:23Z</time>
      </trkpt>
      <trkpt lat="43.6247" lon="6.66047">
        <ele>292.200012</ele>
        <time>2011-09-23T14:20:28Z</time>
      </trkpt>
      <trkpt lat="43.6247" lon="6.66046">
        <ele>292.200012</ele>
        <time>2011-09-23T14:20:33Z</time>
      </trkpt>
      <trkpt lat="43.62469" lon="6.66044">
        <ele>292.299988</ele>
        <time>2011-09-23T14:20:38Z</time>
      </trkpt>
      <trkpt lat="43.62469" lon="6.66043">
        <ele>292.299988</ele>
        <time>2011-09-23T14:20:43Z</time>
      </trkpt>
      <trkpt lat="43.6247" lon="6.66042">
        <ele>292.299988</ele>
        <time>2011-09-23T14:20:48Z</time>
      </trkpt>
      <trkpt lat="43.62471" lon="6.66043">
        <ele>292</ele>
        <time>2011-09-23T14:20:53Z</time>
      </trkpt>
      <trkpt lat="43.62472" lon="6.66044">
        <ele>291.899994</ele>
        <time>2011-09-23T14:20:58Z</time>
      </trkpt>
      <trkpt lat="43.62473" lon="6.66043">
        <ele>292.200012</ele>
        <time>2011-09-23T14:21:03Z</time>
      </trkpt>
      <trkpt lat="43.62474" lon="6.66043">
        <ele>292.299988</ele>
        <time>2011-09-23T14:21:08Z</time>
      </trkpt>
      <trkpt lat="43.62474" lon="6.66042">
        <ele>292</ele>
        <time>2011-09-23T14:21:13Z</time>
      </trkpt>
      <trkpt lat="43.62474" lon="6.66042">
        <ele>291.700012</ele>
        <time>2011-09-23T14:21:14Z</time>
      </trkpt>
      <trkpt lat="43.62477" lon="6.66042">
        <ele>292.100006</ele>
        <time>2011-09-23T14:21:23Z</time>
      </trkpt>
      <trkpt lat="43.62476" lon="6.66042">
        <ele>292.100006</ele>
        <time>2011-09-23T14:21:28Z</time>
      </trkpt>
      <trkpt lat="43.62476" lon="6.66042">
        <ele>292.200012</ele>
        <time>2011-09-23T14:21:33Z</time>
      </trkpt>
      <trkpt lat="43.62477" lon="6.66043">
        <ele>292.200012</ele>
        <time>2011-09-23T14:21:38Z</time>
      </trkpt>
      <trkpt lat="43.62477" lon="6.66043">
        <ele>292.200012</ele>
        <time>2011-09-23T14:21:43Z</time>
      </trkpt>
      <trkpt lat="43.62478" lon="6.66042">
        <ele>292.100006</ele>
        <time>2011-09-23T14:21:48Z</time>
      </trkpt>
      <trkpt lat="43.62479" lon="6.66041">
        <ele>291.899994</ele>
        <time>2011-09-23T14:21:53Z</time>
      </trkpt>
      <trkpt lat="43.6248" lon="6.66042">
        <ele>292.100006</ele>
        <time>2011-09-23T14:21:58Z</time>
      </trkpt>
      <trkpt lat="43.62479" lon="6.66043">
        <ele>292</ele>
        <time>2011-09-23T14:22:03Z</time>
      </trkpt>
      <trkpt lat="43.62478" lon="6.66046">
        <ele>292.5</ele>
        <time>2011-09-23T14:22:08Z</time>
      </trkpt>
      <trkpt lat="43.62478" lon="6.66044">
        <ele>292.399994</ele>
        <time>2011-09-23T14:22:13Z</time>
      </trkpt>
      <trkpt lat="43.62479" lon="6.66044">
        <ele>292.299988</ele>
        <time>2011-09-23T14:22:18Z</time>
      </trkpt>
      <trkpt lat="43.62479" lon="6.66044">
        <ele>292.399994</ele>
        <time>2011-09-23T14:22:19Z</time>
      </trkpt>
      <trkpt lat="43.62479" lon="6.66045">
        <ele>292.200012</ele>
        <time>2011-09-23T14:22:28Z</time>
      </trkpt>
      <trkpt lat="43.6248" lon="6.66043">
        <ele>292.100006</ele>
        <time>2011-09-23T14:22:33Z</time>
      </trkpt>
      <trkpt lat="43.62481" lon="6.66043">
        <ele>292.5</ele>
        <time>2011-09-23T14:22:38Z</time>
      </trkpt>
      <trkpt lat="43.62482" lon="6.66046">
        <ele>292.299988</ele>
        <time>2011-09-23T14:22:43Z</time>
      </trkpt>
      <trkpt lat="43.62477" lon="6.66044">
        <ele>292.100006</ele>
        <time>2011-09-23T14:22:48Z</time>
      </trkpt>
      <trkpt lat="43.62474" lon="6.66044">
        <ele>292.299988</ele>
        <time>2011-09-23T14:22:53Z</time>
      </trkpt>
      <trkpt lat="43.62473" lon="6.66045">
        <ele>292.200012</ele>
        <time>2011-09-23T14:22:58Z</time>
      </trkpt>
      <trkpt lat="43.62475" lon="6.66045">
        <ele>292.299988</ele>
        <time>2011-09-23T14:23:03Z</time>
      </trkpt>
      <trkpt lat="43.62476" lon="6.66045">
        <ele>292.700012</ele>
        <time>2011-09-23T14:23:08Z</time>
      </trkpt>
      <trkpt lat="43.62477" lon="6.66044">
        <ele>292.5</ele>
        <time>2011-09-23T14:23:13Z</time>
      </trkpt>
      <trkpt lat="43.62478" lon="6.66043">
        <ele>292.399994</ele>
        <time>2011-09-23T14:23:18Z</time>
      </trkpt>
      <trkpt lat="43.62478" lon="6.66043">
        <ele>292</ele>
        <time>2011-09-23T14:23:23Z</time>
      </trkpt>
      <trkpt lat="43.62478" lon="6.66043">
        <ele>292.100006</ele>
        <time>2011-09-23T14:23:24Z</time>
      </trkpt>
      <trkpt lat="43.62474" lon="6.66044">
        <ele>291.899994</ele>
        <time>2011-09-23T14:23:33Z</time>
      </trkpt>
      <trkpt lat="43.62476" lon="6.66045">
        <ele>292</ele>
        <time>2011-09-23T14:23:38Z</time>
      </trkpt>
      <trkpt lat="43.62478" lon="6.66047">
        <ele>292.200012</ele>
        <time>2011-09-23T14:23:43Z</time>
      </trkpt>
      <trkpt lat="43.6248" lon="6.66048">
        <ele>291.899994</ele>
        <time>2011-09-23T14:23:48Z</time>
      </trkpt>
      <trkpt lat="43.6248" lon="6.66047">
        <ele>292.100006</ele>
        <time>2011-09-23T14:23:53Z</time>
      </trkpt>
      <trkpt lat="43.62481" lon="6.66048">
        <ele>292.299988</ele>
        <time>2011-09-23T14:23:58Z</time>
      </trkpt>
      <trkpt lat="43.6248" lon="6.66049">
        <ele>292.299988</ele>
        <time>2011-09-23T14:24:03Z</time>
      </trkpt>
      <trkpt lat="43.62479" lon="6.66051">
        <ele>291.799988</ele>
        <time>2011-09-23T14:24:08Z</time>
      </trkpt>
      <trkpt lat="43.62476" lon="6.66049">
        <ele>292.100006</ele>
        <time>2011-09-23T14:24:13Z</time>
      </trkpt>
      <trkpt lat="43.62475" lon="6.66047">
        <ele>292.100006</ele>
        <time>2011-09-23T14:24:18Z</time>
      </trkpt>
      <trkpt lat="43.62473" lon="6.66045">
        <ele>292.100006</ele>
        <time>2011-09-23T14:24:23Z</time>
      </trkpt>
      <trkpt lat="43.62472" lon="6.66044">
        <ele>292.299988</ele>
        <time>2011-09-23T14:24:28Z</time>
      </trkpt>
      <trkpt lat="43.62471" lon="6.66043">
        <ele>292.299988</ele>
        <time>2011-09-23T14:24:29Z</time>
      </trkpt>
      <trkpt lat="43.62467" lon="6.66043">
        <ele>292.399994</ele>
        <time>2011-09-23T14:24:38Z</time>
      </trkpt>
      <trkpt lat="43.62467" lon="6.66043">
        <ele>292.100006</ele>
        <time>2011-09-23T14:24:43Z</time>
      </trkpt>
      <trkpt lat="43.62466" lon="6.66043">
        <ele>292.299988</ele>
        <time>2011-09-23T14:24:48Z</time>
      </trkpt>
      <trkpt lat="43.62465" lon="6.66044">
        <ele>292.100006</ele>
        <time>2011-09-23T14:24:53Z</time>
      </trkpt>
      <trkpt lat="43.62464" lon="6.66044">
        <ele>292.600006</ele>
        <time>2011-09-23T14:24:58Z</time>
      </trkpt>
      <trkpt lat="43.62466" lon="6.66047">
        <ele>292.5</ele>
        <time>2011-09-23T14:25:03Z</time>
      </trkpt>
      <trkpt lat="43.62466" lon="6.66049">
        <ele>292.299988</ele>
        <time>2011-09-23T14:25:08Z</time>
      </trkpt>
      <trkpt lat="43.62467" lon="6.66048">
        <ele>292</ele>
        <time>2011-09-23T14:25:13Z</time>
      </trkpt>
      <trkpt lat="43.62468" lon="6.66046">
        <ele>291.799988</ele>
        <time>2011-09-23T14:25:18Z</time>
      </trkpt>
      <trkpt lat="43.62466" lon="6.66046">
        <ele>292.200012</ele>
        <time>2011-09-23T14:25:23Z</time>
      </trkpt>
      <trkpt lat="43.62465" lon="6.66046">
        <ele>292.100006</ele>
        <time>2011-09-23T14:25:28Z</time>
      </trkpt>
      <trkpt lat="43.62466" lon="6.66051">
        <ele>292.299988</ele>
        <time>2011-09-23T14:25:33Z</time>
      </trkpt>
      <trkpt lat="43.62466" lon="6.66051">
        <ele>292</ele>
        <time>2011-09-23T14:25:34Z</time>
      </trkpt>
      <trkpt lat="43.62467" lon="6.66049">
        <ele>292.100006</ele>
        <time>2011-09-23T14:25:43Z</time>
      </trkpt>
      <trkpt lat="43.62466" lon="6.6605">
        <ele>292.200012</ele>
        <time>2011-09-23T14:25:48Z</time>
      </trkpt>
      <trkpt lat="43.62467" lon="6.66051">
        <ele>292.100006</ele>
        <time>2011-09-23T14:25:53Z</time>
      </trkpt>
      <trkpt lat="43.6247" lon="6.66048">
        <ele>292.299988</ele>
        <time>2011-09-23T14:25:58Z</time>
      </trkpt>
      <trkpt lat="43.62472" lon="6.66046">
        <ele>292.100006</ele>
        <time>2011-09-23T14:26:03Z</time>
      </trkpt>
      <trkpt lat="43.62474" lon="6.66044">
        <ele>292.200012</ele>
        <time>2011-09-23T14:26:08Z</time>
      </trkpt>
      <trkpt lat="43.62475" lon="6.6604">
        <ele>292.100006</ele>
        <time>2011-09-23T14:26:13Z</time>
      </trkpt>
      <trkpt lat="43.62475" lon="6.66041">
        <ele>291.899994</ele>
        <time>2011-09-23T14:26:18Z</time>
      </trkpt>
      <trkpt lat="43.62476" lon="6.66044">
        <ele>292</ele>
        <time>2011-09-23T14:26:23Z</time>
      </trkpt>
      <trkpt lat="43.62477" lon="6.66046">
        <ele>292.100006</ele>
        <time>2011-09-23T14:26:28Z</time>
      </trkpt>
      <trkpt lat="43.62478" lon="6.66046">
        <ele>292</ele>
        <time>2011-09-23T14:26:33Z</time>
      </trkpt>
      <trkpt lat="43.62477" lon="6.66045">
        <ele>291.899994</ele>
        <time>2011-09-23T14:26:38Z</time>
      </trkpt>
      <trkpt lat="43.62477" lon="6.66044">
        <ele>291.899994</ele>
        <time>2011-09-23T14:26:39Z</time>
      </trkpt>
      <trkpt lat="43.62477" lon="6.66044">
        <ele>292.5</ele>
        <time>2011-09-23T14:26:48Z</time>
      </trkpt>
      <trkpt lat="43.62477" lon="6.66043">
        <ele>292.200012</ele>
        <time>2011-09-23T14:26:53Z</time>
      </trkpt>
      <trkpt lat="43.62476" lon="6.66043">
        <ele>292.200012</ele>
        <time>2011-09-23T14:26:58Z</time>
      </trkpt>
      <trkpt lat="43.62478" lon="6.66045">
        <ele>292.200012</ele>
        <time>2011-09-23T14:27:03Z</time>
      </trkpt>
      <trkpt lat="43.62478" lon="6.66045">
        <ele>292.200012</ele>
        <time>2011-09-23T14:27:08Z</time>
      </trkpt>
      <trkpt lat="43.62478" lon="6.66046">
        <ele>292.200012</ele>
        <time>2011-09-23T14:27:13Z</time>
      </trkpt>
      <trkpt lat="43.62479" lon="6.66046">
        <ele>292.600006</ele>
        <time>2011-09-23T14:27:18Z</time>
      </trkpt>
      <trkpt lat="43.6248" lon="6.66048">
        <ele>292.299988</ele>
        <time>2011-09-23T14:27:23Z</time>
      </trkpt>
      <trkpt lat="43.6248" lon="6.66048">
        <ele>292.100006</ele>
        <time>2011-09-23T14:27:28Z</time>
      </trkpt>
      <trkpt lat="43.62481" lon="6.66046">
        <ele>292.299988</ele>
        <time>2011-09-23T14:27:33Z</time>
      </trkpt>
      <trkpt lat="43.62479" lon="6.66045">
        <ele>292.299988</ele>
        <time>2011-09-23T14:27:38Z</time>
      </trkpt>
      <trkpt lat="43.62478" lon="6.66045">
        <ele>292.600006</ele>
        <time>2011-09-23T14:27:43Z</time>
      </trkpt>
      <trkpt lat="43.62478" lon="6.66044">
        <ele>292.5</ele>
        <time>2011-09-23T14:27:44Z</time>
      </trkpt>
      <trkpt lat="43.62476" lon="6.66042">
        <ele>292.100006</ele>
        <time>2011-09-23T14:27:53Z</time>
      </trkpt>
      <trkpt lat="43.62475" lon="6.66043">
        <ele>292.100006</ele>
        <time>2011-09-23T14:27:58Z</time>
      </trkpt>
      <trkpt lat="43.62475" lon="6.66045">
        <ele>292.299988</ele>
        <time>2011-09-23T14:28:03Z</time>
      </trkpt>
      <trkpt lat="43.62476" lon="6.66047">
        <ele>292.5</ele>
        <time>2011-09-23T14:28:08Z</time>
      </trkpt>
      <trkpt lat="43.62477" lon="6.66048">
        <ele>292.100006</ele>
        <time>2011-09-23T14:28:13Z</time>
      </trkpt>
      <trkpt lat="43.62476" lon="6.66049">
        <ele>292.299988</ele>
        <time>2011-09-23T14:28:18Z</time>
      </trkpt>
      <trkpt lat="43.62474" lon="6.66052">
        <ele>292.5</ele>
        <time>2011-09-23T14:28:23Z</time>
      </trkpt>
      <trkpt lat="43.62474" lon="6.66055">
        <ele>292.399994</ele>
        <time>2011-09-23T14:28:28Z</time>
      </trkpt>
      <trkpt lat="43.62474" lon="6.66052">
        <ele>292.100006</ele>
        <time>2011-09-23T14:28:33Z</time>
      </trkpt>
      <trkpt lat="43.62473" lon="6.66048">
        <ele>292</ele>
        <time>2011-09-23T14:28:38Z</time>
      </trkpt>
      <trkpt lat="43.62472" lon="6.66045">
        <ele>292.100006</ele>
        <time>2011-09-23T14:28:43Z</time>
      </trkpt>
      <trkpt lat="43.62471" lon="6.66043">
        <ele>292.399994</ele>
        <time>2011-09-23T14:28:48Z</time>
      </trkpt>
      <trkpt lat="43.62471" lon="6.66043">
        <ele>292.399994</ele>
        <time>2011-09-23T14:28:49Z</time>
      </trkpt>
      <trkpt lat="43.62471" lon="6.66036">
        <ele>292.600006</ele>
        <time>2011-09-23T14:28:58Z</time>
      </trkpt>
      <trkpt lat="43.6247" lon="6.66034">
        <ele>292.5</ele>
        <time>2011-09-23T14:29:03Z</time>
      </trkpt>
      <trkpt lat="43.62472" lon="6.66036">
        <ele>292.5</ele>
        <time>2011-09-23T14:29:08Z</time>
      </trkpt>
      <trkpt lat="43.62472" lon="6.66035">
        <ele>292.600006</ele>
        <time>2011-09-23T14:29:13Z</time>
      </trkpt>
      <trkpt lat="43.62473" lon="6.66033">
        <ele>292.5</ele>
        <time>2011-09-23T14:29:18Z</time>
      </trkpt>
      <trkpt lat="43.62475" lon="6.66035">
        <ele>292.399994</ele>
        <time>2011-09-23T14:29:23Z</time>
      </trkpt>
      <trkpt lat="43.62475" lon="6.66034">
        <ele>292.100006</ele>
        <time>2011-09-23T14:29:28Z</time>
      </trkpt>
      <trkpt lat="43.62474" lon="6.66036">
        <ele>292.100006</ele>
        <time>2011-09-23T14:29:33Z</time>
      </trkpt>
      <trkpt lat="43.62476" lon="6.66036">
        <ele>292.5</ele>
        <time>2011-09-23T14:29:38Z</time>
      </trkpt>
      <trkpt lat="43.62476" lon="6.66036">
        <ele>292.899994</ele>
        <time>2011-09-23T14:29:43Z</time>
      </trkpt>
      <trkpt lat="43.62476" lon="6.66039">
        <ele>292.5</ele>
        <time>2011-09-23T14:29:48Z</time>
      </trkpt>
      <trkpt lat="43.62476" lon="6.66041">
        <ele>292</ele>
        <time>2011-09-23T14:29:53Z</time>
      </trkpt>
      <trkpt lat="43.62475" lon="6.66041">
        <ele>292.100006</ele>
        <time>2011-09-23T14:29:54Z</time>
      </trkpt>
      <trkpt lat="43.62475" lon="6.66041">
        <ele>292.399994</ele>
        <time>2011-09-23T14:30:03Z</time>
      </trkpt>
      <trkpt lat="43.62476" lon="6.66042">
        <ele>292.799988</ele>
        <time>2011-09-23T14:30:08Z</time>
      </trkpt>
      <trkpt lat="43.62476" lon="6.66036">
        <ele>292.600006</ele>
        <time>2011-09-23T14:30:13Z</time>
      </trkpt>
      <trkpt lat="43.62476" lon="6.66035">
        <ele>292.299988</ele>
        <time>2011-09-23T14:30:18Z</time>
      </trkpt>
      <trkpt lat="43.62477" lon="6.66035">
        <ele>292.5</ele>
        <time>2011-09-23T14:30:23Z</time>
      </trkpt>
      <trkpt lat="43.62478" lon="6.66037">
        <ele>292.200012</ele>
        <time>2011-09-23T14:30:28Z</time>
      </trkpt>
      <trkpt lat="43.62478" lon="6.66039">
        <ele>292.299988</ele>
        <time>2011-09-23T14:30:33Z</time>
      </trkpt>
      <trkpt lat="43.62478" lon="6.66039">
        <ele>292.200012</ele>
        <time>2011-09-23T14:30:38Z</time>
      </trkpt>
      <trkpt lat="43.62477" lon="6.6604">
        <ele>292.299988</ele>
        <time>2011-09-23T14:30:43Z</time>
      </trkpt>
      <trkpt lat="43.62476" lon="6.66041">
        <ele>291.899994</ele>
        <time>2011-09-23T14:30:48Z</time>
      </trkpt>
      <trkpt lat="43.62476" lon="6.66042">
        <ele>292.100006</ele>
        <time>2011-09-23T14:30:53Z</time>
      </trkpt>
      <trkpt lat="43.62477" lon="6.66044">
        <ele>292.399994</ele>
        <time>2011-09-23T14:30:58Z</time>
      </trkpt>
      <trkpt lat="43.62478" lon="6.66043">
        <ele>292.399994</ele>
        <time>2011-09-23T14:30:59Z</time>
      </trkpt>
      <trkpt lat="43.62477" lon="6.66046">
        <ele>291.399994</ele>
        <time>2011-09-23T14:31:08Z</time>
      </trkpt>
      <trkpt lat="43.6248" lon="6.66047">
        <ele>292.200012</ele>
        <time>2011-09-23T14:31:13Z</time>
      </trkpt>
      <trkpt lat="43.6248" lon="6.66047">
        <ele>292.299988</ele>
        <time>2011-09-23T14:31:18Z</time>
      </trkpt>
      <trkpt lat="43.62481" lon="6.66048">
        <ele>292</ele>
        <time>2011-09-23T14:31:23Z</time>
      </trkpt>
      <trkpt lat="43.62482" lon="6.66048">
        <ele>292</ele>
        <time>2011-09-23T14:31:28Z</time>
      </trkpt>
      <trkpt lat="43.62481" lon="6.66047">
        <ele>292</ele>
        <time>2011-09-23T14:31:33Z</time>
      </trkpt>
      <trkpt lat="43.62481" lon="6.66048">
        <ele>292.299988</ele>
        <time>2011-09-23T14:31:38Z</time>
      </trkpt>
      <trkpt lat="43.62483" lon="6.6605">
        <ele>292.200012</ele>
        <time>2011-09-23T14:31:43Z</time>
      </trkpt>
      <trkpt lat="43.62481" lon="6.66051">
        <ele>292.299988</ele>
        <time>2011-09-23T14:31:48Z</time>
      </trkpt>
      <trkpt lat="43.62481" lon="6.66052">
        <ele>292.299988</ele>
        <time>2011-09-23T14:31:53Z</time>
      </trkpt>
      <trkpt lat="43.6248" lon="6.66052">
        <ele>292.399994</ele>
        <time>2011-09-23T14:31:58Z</time>
      </trkpt>
      <trkpt lat="43.62479" lon="6.66053">
        <ele>292.399994</ele>
        <time>2011-09-23T14:32:03Z</time>
      </trkpt>
      <trkpt lat="43.62478" lon="6.66054">
        <ele>292.399994</ele>
        <time>2011-09-23T14:32:04Z</time>
      </trkpt>
      <trkpt lat="43.62479" lon="6.66053">
        <ele>292.100006</ele>
        <time>2011-09-23T14:32:13Z</time>
      </trkpt>
      <trkpt lat="43.62479" lon="6.66054">
        <ele>292.100006</ele>
        <time>2011-09-23T14:32:18Z</time>
      </trkpt>
      <trkpt lat="43.62479" lon="6.66054">
        <ele>292.200012</ele>
        <time>2011-09-23T14:32:23Z</time>
      </trkpt>
      <trkpt lat="43.62479" lon="6.66054">
        <ele>291.899994</ele>
        <time>2011-09-23T14:32:28Z</time>
      </trkpt>
      <trkpt lat="43.62479" lon="6.66053">
        <ele>292.100006</ele>
        <time>2011-09-23T14:32:33Z</time>
      </trkpt>
      <trkpt lat="43.62478" lon="6.66051">
        <ele>292.5</ele>
        <time>2011-09-23T14:32:38Z</time>
      </trkpt>
      <trkpt lat="43.62478" lon="6.66051">
        <ele>292.299988</ele>
        <time>2011-09-23T14:32:43Z</time>
      </trkpt>
      <trkpt lat="43.62478" lon="6.66052">
        <ele>292.299988</ele>
        <time>2011-09-23T14:32:48Z</time>
      </trkpt>
      <trkpt lat="43.62476" lon="6.66048">
        <ele>292</ele>
        <time>2011-09-23T14:32:53Z</time>
      </trkpt>
      <trkpt lat="43.62474" lon="6.66046">
        <ele>291.899994</ele>
        <time>2011-09-23T14:32:58Z</time>
      </trkpt>
      <trkpt lat="43.62473" lon="6.66044">
        <ele>292.5</ele>
        <time>2011-09-23T14:33:03Z</time>
      </trkpt>
      <trkpt lat="43.62472" lon="6.66042">
        <ele>293.200012</ele>
        <time>2011-09-23T14:33:08Z</time>
      </trkpt>
      <trkpt lat="43.62472" lon="6.66041">
        <ele>293.299988</ele>
        <time>2011-09-23T14:33:09Z</time>
      </trkpt>
      <trkpt lat="43.62475" lon="6.6603">
        <ele>293.700012</ele>
        <time>2011-09-23T14:33:18Z</time>
      </trkpt>
      <trkpt lat="43.62476" lon="6.66025">
        <ele>294</ele>
        <time>2011-09-23T14:33:23Z</time>
      </trkpt>
      <trkpt lat="43.62478" lon="6.66022">
        <ele>294.200012</ele>
        <time>2011-09-23T14:33:28Z</time>
      </trkpt>
      <trkpt lat="43.62478" lon="6.66017">
        <ele>294.299988</ele>
        <time>2011-09-23T14:33:33Z</time>
      </trkpt>
      <trkpt lat="43.62479" lon="6.6601">
        <ele>294.399994</ele>
        <time>2011-09-23T14:33:38Z</time>
      </trkpt>
      <trkpt lat="43.6248" lon="6.66005">
        <ele>294.5</ele>
        <time>2011-09-23T14:33:43Z</time>
      </trkpt>
      <trkpt lat="43.62481" lon="6.65999">
        <ele>294.5</ele>
        <time>2011-09-23T14:33:48Z</time>
      </trkpt>
      <trkpt lat="43.62481" lon="6.65992">
        <ele>294.299988</ele>
        <time>2011-09-23T14:33:53Z</time>
      </trkpt>
      <trkpt lat="43.62482" lon="6.65988">
        <ele>293.799988</ele>
        <time>2011-09-23T14:33:58Z</time>
      </trkpt>
      <trkpt lat="43.62485" lon="6.65985">
        <ele>293.5</ele>
        <time>2011-09-23T14:34:03Z</time>
      </trkpt>
      <trkpt lat="43.62489" lon="6.65985">
        <ele>293.5</ele>
        <time>2011-09-23T14:34:08Z</time>
      </trkpt>
      <trkpt lat="43.62495" lon="6.65987">
        <ele>293.899994</ele>
        <time>2011-09-23T14:34:13Z</time>
      </trkpt>
      <trkpt lat="43.62496" lon="6.65988">
        <ele>293.799988</ele>
        <time>2011-09-23T14:34:14Z</time>
      </trkpt>
      <trkpt lat="43.62502" lon="6.65987">
        <ele>294.100006</ele>
        <time>2011-09-23T14:34:23Z</time>
      </trkpt>
      <trkpt lat="43.62506" lon="6.65989">
        <ele>294.100006</ele>
        <time>2011-09-23T14:34:28Z</time>
      </trkpt>
      <trkpt lat="43.62507" lon="6.65989">
        <ele>294</ele>
        <time>2011-09-23T14:34:33Z</time>
      </trkpt>
      <trkpt lat="43.62511" lon="6.65987">
        <ele>294.899994</ele>
        <time>2011-09-23T14:34:38Z</time>
      </trkpt>
      <trkpt lat="43.62513" lon="6.65993">
        <ele>295.5</ele>
        <time>2011-09-23T14:34:43Z</time>
      </trkpt>
      <trkpt lat="43.62513" lon="6.66001">
        <ele>295.5</ele>
        <time>2011-09-23T14:34:48Z</time>
      </trkpt>
      <trkpt lat="43.62515" lon="6.66009">
        <ele>295.600006</ele>
        <time>2011-09-23T14:34:53Z</time>
      </trkpt>
      <trkpt lat="43.62517" lon="6.66018">
        <ele>295.600006</ele>
        <time>2011-09-23T14:34:58Z</time>
      </trkpt>
      <trkpt lat="43.62518" lon="6.66025">
        <ele>295.299988</ele>
        <time>2011-09-23T14:35:03Z</time>
      </trkpt>
      <trkpt lat="43.62519" lon="6.66034">
        <ele>295.600006</ele>
        <time>2011-09-23T14:35:08Z</time>
      </trkpt>
      <trkpt lat="43.6252" lon="6.66042">
        <ele>295.5</ele>
        <time>2011-09-23T14:35:13Z</time>
      </trkpt>
      <trkpt lat="43.6252" lon="6.66049">
        <ele>295.200012</ele>
        <time>2011-09-23T14:35:18Z</time>
      </trkpt>
      <trkpt lat="43.6252" lon="6.6605">
        <ele>295</ele>
        <time>2011-09-23T14:35:19Z</time>
      </trkpt>
      <trkpt lat="43.62523" lon="6.66062">
        <ele>294.5</ele>
        <time>2011-09-23T14:35:28Z</time>
      </trkpt>
      <trkpt lat="43.62524" lon="6.66066">
        <ele>294.299988</ele>
        <time>2011-09-23T14:35:33Z</time>
      </trkpt>
      <trkpt lat="43.62522" lon="6.66068">
        <ele>293.799988</ele>
        <time>2011-09-23T14:35:38Z</time>
      </trkpt>
      <trkpt lat="43.62521" lon="6.66073">
        <ele>293.600006</ele>
        <time>2011-09-23T14:35:43Z</time>
      </trkpt>
      <trkpt lat="43.62522" lon="6.66079">
        <ele>294.100006</ele>
        <time>2011-09-23T14:35:48Z</time>
      </trkpt>
      <trkpt lat="43.6252" lon="6.66084">
        <ele>293.600006</ele>
        <time>2011-09-23T14:35:53Z</time>
      </trkpt>
      <trkpt lat="43.6252" lon="6.66091">
        <ele>293.700012</ele>
        <time>2011-09-23T14:35:58Z</time>
      </trkpt>
      <trkpt lat="43.6252" lon="6.66098">
        <ele>294.200012</ele>
        <time>2011-09-23T14:36:03Z</time>
      </trkpt>
      <trkpt lat="43.6252" lon="6.66105">
        <ele>294</ele>
        <time>2011-09-23T14:36:08Z</time>
      </trkpt>
      <trkpt lat="43.62519" lon="6.66112">
        <ele>294</ele>
        <time>2011-09-23T14:36:13Z</time>
      </trkpt>
      <trkpt lat="43.62519" lon="6.66119">
        <ele>294</ele>
        <time>2011-09-23T14:36:18Z</time>
      </trkpt>
      <trkpt lat="43.62518" lon="6.66125">
        <ele>293.899994</ele>
        <time>2011-09-23T14:36:23Z</time>
      </trkpt>
      <trkpt lat="43.62517" lon="6.66126">
        <ele>294</ele>
        <time>2011-09-23T14:36:24Z</time>
      </trkpt>
      <trkpt lat="43.62508" lon="6.66131">
        <ele>293.899994</ele>
        <time>2011-09-23T14:36:33Z</time>
      </trkpt>
      <trkpt lat="43.62503" lon="6.66132">
        <ele>293.399994</ele>
        <time>2011-09-23T14:36:38Z</time>
      </trkpt>
      <trkpt lat="43.62498" lon="6.66133">
        <ele>293.299988</ele>
        <time>2011-09-23T14:36:43Z</time>
      </trkpt>
      <trkpt lat="43.62493" lon="6.66134">
        <ele>293.100006</ele>
        <time>2011-09-23T14:36:48Z</time>
      </trkpt>
      <trkpt lat="43.62489" lon="6.66136">
        <ele>292.799988</ele>
        <time>2011-09-23T14:36:53Z</time>
      </trkpt>
      <trkpt lat="43.62484" lon="6.66136">
        <ele>292.399994</ele>
        <time>2011-09-23T14:36:58Z</time>
      </trkpt>
      <trkpt lat="43.62479" lon="6.66136">
        <ele>292.100006</ele>
        <time>2011-09-23T14:37:03Z</time>
      </trkpt>
      <trkpt lat="43.62475" lon="6.66137">
        <ele>292.299988</ele>
        <time>2011-09-23T14:37:08Z</time>
      </trkpt>
      <trkpt lat="43.62471" lon="6.66138">
        <ele>291.799988</ele>
        <time>2011-09-23T14:37:13Z</time>
      </trkpt>
      <trkpt lat="43.62467" lon="6.66143">
        <ele>291.200012</ele>
        <time>2011-09-23T14:37:18Z</time>
      </trkpt>
      <trkpt lat="43.62463" lon="6.66148">
        <ele>290.700012</ele>
        <time>2011-09-23T14:37:23Z</time>
      </trkpt>
      <trkpt lat="43.6246" lon="6.66152">
        <ele>290.399994</ele>
        <time>2011-09-23T14:37:28Z</time>
      </trkpt>
      <trkpt lat="43.62459" lon="6.66153">
        <ele>290.299988</ele>
        <time>2011-09-23T14:37:29Z</time>
      </trkpt>
      <trkpt lat="43.62452" lon="6.6616">
        <ele>288.899994</ele>
        <time>2011-09-23T14:37:38Z</time>
      </trkpt>
      <trkpt lat="43.62447" lon="6.6616">
        <ele>288.5</ele>
        <time>2011-09-23T14:37:43Z</time>
      </trkpt>
      <trkpt lat="43.62441" lon="6.6616">
        <ele>288.299988</ele>
        <time>2011-09-23T14:37:48Z</time>
      </trkpt>
      <trkpt lat="43.62437" lon="6.66163">
        <ele>287.899994</ele>
        <time>2011-09-23T14:37:53Z</time>
      </trkpt>
      <trkpt lat="43.62432" lon="6.66166">
        <ele>287.700012</ele>
        <time>2011-09-23T14:37:58Z</time>
      </trkpt>
      <trkpt lat="43.62427" lon="6.6617">
        <ele>287.600006</ele>
        <time>2011-09-23T14:38:03Z</time>
      </trkpt>
      <trkpt lat="43.62423" lon="6.66173">
        <ele>287.399994</ele>
        <time>2011-09-23T14:38:08Z</time>
      </trkpt>
      <trkpt lat="43.62418" lon="6.66175">
        <ele>287.299988</ele>
        <time>2011-09-23T14:38:13Z</time>
      </trkpt>
      <trkpt lat="43.62413" lon="6.66176">
        <ele>287</ele>
        <time>2011-09-23T14:38:18Z</time>
      </trkpt>
      <trkpt lat="43.62409" lon="6.66176">
        <ele>287.200012</ele>
        <time>2011-09-23T14:38:23Z</time>
      </trkpt>
      <trkpt lat="43.62407" lon="6.66177">
        <ele>287</ele>
        <time>2011-09-23T14:38:28Z</time>
      </trkpt>
      <trkpt lat="43.62406" lon="6.66179">
        <ele>287.100006</ele>
        <time>2011-09-23T14:38:33Z</time>
      </trkpt>
      <trkpt lat="43.62405" lon="6.6618">
        <ele>287.100006</ele>
        <time>2011-09-23T14:38:34Z</time>
      </trkpt>
      <trkpt lat="43.62402" lon="6.66187">
        <ele>288</ele>
        <time>2011-09-23T14:38:43Z</time>
      </trkpt>
      <trkpt lat="43.62399" lon="6.66191">
        <ele>288.5</ele>
        <time>2011-09-23T14:38:48Z</time>
      </trkpt>
      <trkpt lat="43.62396" lon="6.66195">
        <ele>288.799988</ele>
        <time>2011-09-23T14:38:53Z</time>
      </trkpt>
      <trkpt lat="43.62394" lon="6.66197">
        <ele>288.700012</ele>
        <time>2011-09-23T14:38:58Z</time>
      </trkpt>
      <trkpt lat="43.62392" lon="6.66199">
        <ele>289.100006</ele>
        <time>2011-09-23T14:39:03Z</time>
      </trkpt>
      <trkpt lat="43.6239" lon="6.662">
        <ele>289.100006</ele>
        <time>2011-09-23T14:39:08Z</time>
      </trkpt>
      <trkpt lat="43.62389" lon="6.66202">
        <ele>289.200012</ele>
        <time>2011-09-23T14:39:13Z</time>
      </trkpt>
      <trkpt lat="43.62387" lon="6.66206">
        <ele>289.600006</ele>
        <time>2011-09-23T14:39:18Z</time>
      </trkpt>
      <trkpt lat="43.62385" lon="6.66208">
        <ele>289.700012</ele>
        <time>2011-09-23T14:39:23Z</time>
      </trkpt>
      <trkpt lat="43.62383" lon="6.6621">
        <ele>289.899994</ele>
        <time>2011-09-23T14:39:28Z</time>
      </trkpt>
      <trkpt lat="43.6238" lon="6.66211">
        <ele>290.200012</ele>
        <time>2011-09-23T14:39:33Z</time>
      </trkpt>
      <trkpt lat="43.62376" lon="6.66213">
        <ele>290.100006</ele>
        <time>2011-09-23T14:39:38Z</time>
      </trkpt>
      <trkpt lat="43.62376" lon="6.66214">
        <ele>290.200012</ele>
        <time>2011-09-23T14:39:39Z</time>
      </trkpt>
      <trkpt lat="43.62368" lon="6.66218">
        <ele>290.5</ele>
        <time>2011-09-23T14:39:48Z</time>
      </trkpt>
      <trkpt lat="43.62364" lon="6.66219">
        <ele>290.399994</ele>
        <time>2011-09-23T14:39:53Z</time>
      </trkpt>
      <trkpt lat="43.62363" lon="6.66217">
        <ele>290.399994</ele>
        <time>2011-09-23T14:39:58Z</time>
      </trkpt>
      <trkpt lat="43.62361" lon="6.66216">
        <ele>290.600006</ele>
        <time>2011-09-23T14:40:03Z</time>
      </trkpt>
      <trkpt lat="43.62358" lon="6.66214">
        <ele>290.700012</ele>
        <time>2011-09-23T14:40:08Z</time>
      </trkpt>
      <trkpt lat="43.62357" lon="6.66212">
        <ele>290.200012</ele>
        <time>2011-09-23T14:40:13Z</time>
      </trkpt>
      <trkpt lat="43.62354" lon="6.66209">
        <ele>289.799988</ele>
        <time>2011-09-23T14:40:18Z</time>
      </trkpt>
      <trkpt lat="43.62353" lon="6.66205">
        <ele>289.299988</ele>
        <time>2011-09-23T14:40:23Z</time>
      </trkpt>
      <trkpt lat="43.62353" lon="6.66205">
        <ele>289.5</ele>
        <time>2011-09-23T14:40:28Z</time>
      </trkpt>
      <trkpt lat="43.62353" lon="6.66203">
        <ele>289.200012</ele>
        <time>2011-09-23T14:40:33Z</time>
      </trkpt>
      <trkpt lat="43.62352" lon="6.66201">
        <ele>289.200012</ele>
        <time>2011-09-23T14:40:38Z</time>
      </trkpt>
      <trkpt lat="43.62352" lon="6.662">
        <ele>289</ele>
        <time>2011-09-23T14:40:43Z</time>
      </trkpt>
      <trkpt lat="43.62351" lon="6.66199">
        <ele>289.100006</ele>
        <time>2011-09-23T14:40:44Z</time>
      </trkpt>
      <trkpt lat="43.62349" lon="6.66197">
        <ele>288.899994</ele>
        <time>2011-09-23T14:40:53Z</time>
      </trkpt>
      <trkpt lat="43.6235" lon="6.66196">
        <ele>289</ele>
        <time>2011-09-23T14:40:58Z</time>
      </trkpt>
      <trkpt lat="43.6235" lon="6.66196">
        <ele>288.799988</ele>
        <time>2011-09-23T14:41:03Z</time>
      </trkpt>
      <trkpt lat="43.6235" lon="6.66196">
        <ele>288.799988</ele>
        <time>2011-09-23T14:41:08Z</time>
      </trkpt>
      <trkpt lat="43.62353" lon="6.66197">
        <ele>288.899994</ele>
        <time>2011-09-23T14:41:13Z</time>
      </trkpt>
      <trkpt lat="43.62357" lon="6.66199">
        <ele>288.700012</ele>
        <time>2011-09-23T14:41:18Z</time>
      </trkpt>
      <trkpt lat="43.62357" lon="6.66197">
        <ele>289</ele>
        <time>2011-09-23T14:41:23Z</time>
      </trkpt>
      <trkpt lat="43.62354" lon="6.66196">
        <ele>288.899994</ele>
        <time>2011-09-23T14:41:28Z</time>
      </trkpt>
      <trkpt lat="43.62352" lon="6.66194">
        <ele>289.399994</ele>
        <time>2011-09-23T14:41:33Z</time>
      </trkpt>
      <trkpt lat="43.62352" lon="6.66194">
        <ele>289.299988</ele>
        <time>2011-09-23T14:41:38Z</time>
      </trkpt>
      <trkpt lat="43.62352" lon="6.662">
        <ele>288</ele>
        <time>2011-09-23T14:41:59Z</time>
      </trkpt>
      <trkpt lat="43.62354" lon="6.66203">
        <ele>288.899994</ele>
        <time>2011-09-23T14:42:08Z</time>
      </trkpt>
      <trkpt lat="43.62352" lon="6.66201">
        <ele>289.299988</ele>
        <time>2011-09-23T14:42:13Z</time>
      </trkpt>
      <trkpt lat="43.62354" lon="6.66206">
        <ele>289.299988</ele>
        <time>2011-09-23T14:42:18Z</time>
      </trkpt>
      <trkpt lat="43.62356" lon="6.66206">
        <ele>289.600006</ele>
        <time>2011-09-23T14:42:23Z</time>
      </trkpt>
      <trkpt lat="43.62359" lon="6.66209">
        <ele>290.200012</ele>
        <time>2011-09-23T14:42:28Z</time>
      </trkpt>
      <trkpt lat="43.62363" lon="6.66211">
        <ele>290.5</ele>
        <time>2011-09-23T14:42:33Z</time>
      </trkpt>
      <trkpt lat="43.62362" lon="6.66212">
        <ele>290.600006</ele>
        <time>2011-09-23T14:42:38Z</time>
      </trkpt>
      <trkpt lat="43.62361" lon="6.66213">
        <ele>290.799988</ele>
        <time>2011-09-23T14:42:43Z</time>
      </trkpt>
      <trkpt lat="43.62361" lon="6.66214">
        <ele>290.399994</ele>
        <time>2011-09-23T14:42:48Z</time>
      </trkpt>
      <trkpt lat="43.62361" lon="6.66214">
        <ele>290.700012</ele>
        <time>2011-09-23T14:42:53Z</time>
      </trkpt>
      <trkpt lat="43.62361" lon="6.66214">
        <ele>290.899994</ele>
        <time>2011-09-23T14:42:58Z</time>
      </trkpt>
      <trkpt lat="43.6236" lon="6.66214">
        <ele>290.899994</ele>
        <time>2011-09-23T14:43:03Z</time>
      </trkpt>
      <trkpt lat="43.62359" lon="6.66213">
        <ele>290.899994</ele>
        <time>2011-09-23T14:43:08Z</time>
      </trkpt>
      <trkpt lat="43.62358" lon="6.66213">
        <ele>290.700012</ele>
        <time>2011-09-23T14:43:13Z</time>
      </trkpt>
      <trkpt lat="43.62357" lon="6.66212">
        <ele>290.799988</ele>
        <time>2011-09-23T14:43:14Z</time>
      </trkpt>
      <trkpt lat="43.62353" lon="6.66211">
        <ele>290.600006</ele>
        <time>2011-09-23T14:43:23Z</time>
      </trkpt>
      <trkpt lat="43.62353" lon="6.66211">
        <ele>290.899994</ele>
        <time>2011-09-23T14:43:28Z</time>
      </trkpt>
      <trkpt lat="43.62354" lon="6.66211">
        <ele>290.899994</ele>
        <time>2011-09-23T14:43:33Z</time>
      </trkpt>
      <trkpt lat="43.62353" lon="6.66211">
        <ele>290.899994</ele>
        <time>2011-09-23T14:43:38Z</time>
      </trkpt>
      <trkpt lat="43.62353" lon="6.66212">
        <ele>290.700012</ele>
        <time>2011-09-23T14:43:43Z</time>
      </trkpt>
      <trkpt lat="43.62352" lon="6.66211">
        <ele>290.600006</ele>
        <time>2011-09-23T14:43:48Z</time>
      </trkpt>
      <trkpt lat="43.62352" lon="6.66211">
        <ele>290.200012</ele>
        <time>2011-09-23T14:43:53Z</time>
      </trkpt>
      <trkpt lat="43.62351" lon="6.66209">
        <ele>290.399994</ele>
        <time>2011-09-23T14:43:58Z</time>
      </trkpt>
      <trkpt lat="43.62351" lon="6.66211">
        <ele>290.799988</ele>
        <time>2011-09-23T14:44:03Z</time>
      </trkpt>
      <trkpt lat="43.62351" lon="6.66211">
        <ele>290.600006</ele>
        <time>2011-09-23T14:44:08Z</time>
      </trkpt>
      <trkpt lat="43.62349" lon="6.66209">
        <ele>290.5</ele>
        <time>2011-09-23T14:44:13Z</time>
      </trkpt>
      <trkpt lat="43.62348" lon="6.66207">
        <ele>290.799988</ele>
        <time>2011-09-23T14:44:18Z</time>
      </trkpt>
      <trkpt lat="43.62348" lon="6.66207">
        <ele>290.700012</ele>
        <time>2011-09-23T14:44:19Z</time>
      </trkpt>
      <trkpt lat="43.62348" lon="6.66207">
        <ele>290.600006</ele>
        <time>2011-09-23T14:44:28Z</time>
      </trkpt>
      <trkpt lat="43.62348" lon="6.66208">
        <ele>290.600006</ele>
        <time>2011-09-23T14:44:33Z</time>
      </trkpt>
      <trkpt lat="43.62349" lon="6.66208">
        <ele>290.399994</ele>
        <time>2011-09-23T14:44:38Z</time>
      </trkpt>
      <trkpt lat="43.62348" lon="6.66208">
        <ele>290.5</ele>
        <time>2011-09-23T14:44:43Z</time>
      </trkpt>
      <trkpt lat="43.62347" lon="6.66207">
        <ele>290.399994</ele>
        <time>2011-09-23T14:44:48Z</time>
      </trkpt>
      <trkpt lat="43.6235" lon="6.6621">
        <ele>290.5</ele>
        <time>2011-09-23T14:44:53Z</time>
      </trkpt>
      <trkpt lat="43.62351" lon="6.66211">
        <ele>290.299988</ele>
        <time>2011-09-23T14:44:58Z</time>
      </trkpt>
      <trkpt lat="43.62352" lon="6.66208">
        <ele>290.5</ele>
        <time>2011-09-23T14:45:03Z</time>
      </trkpt>
      <trkpt lat="43.62356" lon="6.66204">
        <ele>290.700012</ele>
        <time>2011-09-23T14:45:08Z</time>
      </trkpt>
      <trkpt lat="43.62361" lon="6.66202">
        <ele>290.600006</ele>
        <time>2011-09-23T14:45:13Z</time>
      </trkpt>
      <trkpt lat="43.62368" lon="6.662">
        <ele>290.299988</ele>
        <time>2011-09-23T14:45:18Z</time>
      </trkpt>
      <trkpt lat="43.62374" lon="6.66197">
        <ele>290.299988</ele>
        <time>2011-09-23T14:45:23Z</time>
      </trkpt>
      <trkpt lat="43.62375" lon="6.66198">
        <ele>290.200012</ele>
        <time>2011-09-23T14:45:24Z</time>
      </trkpt>
      <trkpt lat="43.62386" lon="6.66192">
        <ele>289</ele>
        <time>2011-09-23T14:45:33Z</time>
      </trkpt>
      <trkpt lat="43.62389" lon="6.66185">
        <ele>288.700012</ele>
        <time>2011-09-23T14:45:38Z</time>
      </trkpt>
      <trkpt lat="43.62393" lon="6.66178">
        <ele>288.200012</ele>
        <time>2011-09-23T14:45:43Z</time>
      </trkpt>
      <trkpt lat="43.62397" lon="6.66172">
        <ele>287.700012</ele>
        <time>2011-09-23T14:45:48Z</time>
      </trkpt>
      <trkpt lat="43.62401" lon="6.6617">
        <ele>287.600006</ele>
        <time>2011-09-23T14:45:53Z</time>
      </trkpt>
      <trkpt lat="43.62402" lon="6.66167">
        <ele>287.399994</ele>
        <time>2011-09-23T14:45:58Z</time>
      </trkpt>
      <trkpt lat="43.624" lon="6.66166">
        <ele>286.899994</ele>
        <time>2011-09-23T14:46:03Z</time>
      </trkpt>
      <trkpt lat="43.62398" lon="6.66168">
        <ele>286.399994</ele>
        <time>2011-09-23T14:46:08Z</time>
      </trkpt>
      <trkpt lat="43.62398" lon="6.66169">
        <ele>286.299988</ele>
        <time>2011-09-23T14:46:13Z</time>
      </trkpt>
      <trkpt lat="43.62397" lon="6.66171">
        <ele>285.899994</ele>
        <time>2011-09-23T14:46:18Z</time>
      </trkpt>
      <trkpt lat="43.62398" lon="6.66173">
        <ele>285.899994</ele>
        <time>2011-09-23T14:46:23Z</time>
      </trkpt>
      <trkpt lat="43.62398" lon="6.66175">
        <ele>285.700012</ele>
        <time>2011-09-23T14:46:28Z</time>
      </trkpt>
      <trkpt lat="43.62399" lon="6.66175">
        <ele>285.700012</ele>
        <time>2011-09-23T14:46:29Z</time>
      </trkpt>
      <trkpt lat="43.62394" lon="6.66173">
        <ele>285.700012</ele>
        <time>2011-09-23T14:46:38Z</time>
      </trkpt>
      <trkpt lat="43.62394" lon="6.66173">
        <ele>285.700012</ele>
        <time>2011-09-23T14:46:43Z</time>
      </trkpt>
      <trkpt lat="43.62393" lon="6.66172">
        <ele>285.399994</ele>
        <time>2011-09-23T14:46:48Z</time>
      </trkpt>
      <trkpt lat="43.6239" lon="6.66172">
        <ele>285</ele>
        <time>2011-09-23T14:46:53Z</time>
      </trkpt>
      <trkpt lat="43.6239" lon="6.66173">
        <ele>284.700012</ele>
        <time>2011-09-23T14:46:58Z</time>
      </trkpt>
      <trkpt lat="43.62388" lon="6.66173">
        <ele>284.700012</ele>
        <time>2011-09-23T14:47:03Z</time>
      </trkpt>
      <trkpt lat="43.62385" lon="6.66173">
        <ele>284.200012</ele>
        <time>2011-09-23T14:47:08Z</time>
      </trkpt>
      <trkpt lat="43.62382" lon="6.66172">
        <ele>284.700012</ele>
        <time>2011-09-23T14:47:13Z</time>
      </trkpt>
      <trkpt lat="43.62378" lon="6.66169">
        <ele>284.799988</ele>
        <time>2011-09-23T14:47:18Z</time>
      </trkpt>
      <trkpt lat="43.62375" lon="6.66167">
        <ele>284.799988</ele>
        <time>2011-09-23T14:47:23Z</time>
      </trkpt>
      <trkpt lat="43.62374" lon="6.66165">
        <ele>285.200012</ele>
        <time>2011-09-23T14:47:28Z</time>
      </trkpt>
      <trkpt lat="43.6237" lon="6.66163">
        <ele>285.399994</ele>
        <time>2011-09-23T14:47:33Z</time>
      </trkpt>
      <trkpt lat="43.62369" lon="6.66162">
        <ele>285.299988</ele>
        <time>2011-09-23T14:47:34Z</time>
      </trkpt>
      <trkpt lat="43.62358" lon="6.66159">
        <ele>284.600006</ele>
        <time>2011-09-23T14:47:43Z</time>
      </trkpt>
      <trkpt lat="43.62354" lon="6.66156">
        <ele>284.899994</ele>
        <time>2011-09-23T14:47:48Z</time>
      </trkpt>
      <trkpt lat="43.62348" lon="6.66154">
        <ele>284.700012</ele>
        <time>2011-09-23T14:47:53Z</time>
      </trkpt>
      <trkpt lat="43.62343" lon="6.6615">
        <ele>284.299988</ele>
        <time>2011-09-23T14:47:58Z</time>
      </trkpt>
      <trkpt lat="43.62338" lon="6.66149">
        <ele>284.299988</ele>
        <time>2011-09-23T14:48:03Z</time>
      </trkpt>
      <trkpt lat="43.62332" lon="6.66147">
        <ele>284.399994</ele>
        <time>2011-09-23T14:48:08Z</time>
      </trkpt>
      <trkpt lat="43.62327" lon="6.66144">
        <ele>284.299988</ele>
        <time>2011-09-23T14:48:13Z</time>
      </trkpt>
      <trkpt lat="43.62321" lon="6.66142">
        <ele>284.200012</ele>
        <time>2011-09-23T14:48:18Z</time>
      </trkpt>
      <trkpt lat="43.62316" lon="6.6614">
        <ele>284</ele>
        <time>2011-09-23T14:48:23Z</time>
      </trkpt>
      <trkpt lat="43.62311" lon="6.66139">
        <ele>284.5</ele>
        <time>2011-09-23T14:48:28Z</time>
      </trkpt>
      <trkpt lat="43.62307" lon="6.66137">
        <ele>284.600006</ele>
        <time>2011-09-23T14:48:33Z</time>
      </trkpt>
      <trkpt lat="43.62304" lon="6.66137">
        <ele>284.700012</ele>
        <time>2011-09-23T14:48:38Z</time>
      </trkpt>
      <trkpt lat="43.62303" lon="6.66137">
        <ele>284.799988</ele>
        <time>2011-09-23T14:48:39Z</time>
      </trkpt>
      <trkpt lat="43.623" lon="6.66138">
        <ele>284.700012</ele>
        <time>2011-09-23T14:48:48Z</time>
      </trkpt>
      <trkpt lat="43.62297" lon="6.66134">
        <ele>284.700012</ele>
        <time>2011-09-23T14:48:53Z</time>
      </trkpt>
      <trkpt lat="43.62298" lon="6.66127">
        <ele>285</ele>
        <time>2011-09-23T14:48:58Z</time>
      </trkpt>
      <trkpt lat="43.62297" lon="6.6612">
        <ele>285.399994</ele>
        <time>2011-09-23T14:49:03Z</time>
      </trkpt>
      <trkpt lat="43.62299" lon="6.66116">
        <ele>285.700012</ele>
        <time>2011-09-23T14:49:08Z</time>
      </trkpt>
      <trkpt lat="43.62297" lon="6.66112">
        <ele>286.299988</ele>
        <time>2011-09-23T14:49:13Z</time>
      </trkpt>
      <trkpt lat="43.62295" lon="6.66112">
        <ele>287</ele>
        <time>2011-09-23T14:49:18Z</time>
      </trkpt>
      <trkpt lat="43.62293" lon="6.66113">
        <ele>288.200012</ele>
        <time>2011-09-23T14:49:23Z</time>
      </trkpt>
      <trkpt lat="43.62293" lon="6.66108">
        <ele>288.600006</ele>
        <time>2011-09-23T14:49:28Z</time>
      </trkpt>
      <trkpt lat="43.62293" lon="6.66105">
        <ele>289.200012</ele>
        <time>2011-09-23T14:49:33Z</time>
      </trkpt>
      <trkpt lat="43.62293" lon="6.66103">
        <ele>289.100006</ele>
        <time>2011-09-23T14:49:38Z</time>
      </trkpt>
      <trkpt lat="43.62295" lon="6.66103">
        <ele>289.399994</ele>
        <time>2011-09-23T14:49:43Z</time>
      </trkpt>
      <trkpt lat="43.62295" lon="6.66103">
        <ele>289.399994</ele>
        <time>2011-09-23T14:49:44Z</time>
      </trkpt>
      <trkpt lat="43.62298" lon="6.66103">
        <ele>289.399994</ele>
        <time>2011-09-23T14:49:53Z</time>
      </trkpt>
      <trkpt lat="43.62295" lon="6.66099">
        <ele>289.600006</ele>
        <time>2011-09-23T14:49:58Z</time>
      </trkpt>
      <trkpt lat="43.62293" lon="6.66095">
        <ele>290</ele>
        <time>2011-09-23T14:50:03Z</time>
      </trkpt>
      <trkpt lat="43.6229" lon="6.66094">
        <ele>290.100006</ele>
        <time>2011-09-23T14:50:08Z</time>
      </trkpt>
      <trkpt lat="43.62288" lon="6.66093">
        <ele>290.299988</ele>
        <time>2011-09-23T14:50:13Z</time>
      </trkpt>
      <trkpt lat="43.62287" lon="6.66089">
        <ele>290.5</ele>
        <time>2011-09-23T14:50:18Z</time>
      </trkpt>
      <trkpt lat="43.62288" lon="6.66084">
        <ele>290.600006</ele>
        <time>2011-09-23T14:50:23Z</time>
      </trkpt>
      <trkpt lat="43.62287" lon="6.66078">
        <ele>291.399994</ele>
        <time>2011-09-23T14:50:28Z</time>
      </trkpt>
      <trkpt lat="43.62289" lon="6.66073">
        <ele>291.799988</ele>
        <time>2011-09-23T14:50:33Z</time>
      </trkpt>
      <trkpt lat="43.62289" lon="6.6607">
        <ele>292.399994</ele>
        <time>2011-09-23T14:50:38Z</time>
      </trkpt>
      <trkpt lat="43.62288" lon="6.66067">
        <ele>293.299988</ele>
        <time>2011-09-23T14:50:43Z</time>
      </trkpt>
      <trkpt lat="43.62286" lon="6.66065">
        <ele>293.700012</ele>
        <time>2011-09-23T14:50:48Z</time>
      </trkpt>
      <trkpt lat="43.62285" lon="6.66064">
        <ele>293.700012</ele>
        <time>2011-09-23T14:50:49Z</time>
      </trkpt>
      <trkpt lat="43.62282" lon="6.6606">
        <ele>294.899994</ele>
        <time>2011-09-23T14:50:58Z</time>
      </trkpt>
      <trkpt lat="43.62283" lon="6.66058">
        <ele>295.399994</ele>
        <time>2011-09-23T14:51:03Z</time>
      </trkpt>
      <trkpt lat="43.62283" lon="6.66055">
        <ele>295.799988</ele>
        <time>2011-09-23T14:51:08Z</time>
      </trkpt>
      <trkpt lat="43.62281" lon="6.66051">
        <ele>296.700012</ele>
        <time>2011-09-23T14:51:13Z</time>
      </trkpt>
      <trkpt lat="43.62278" lon="6.6605">
        <ele>296.899994</ele>
        <time>2011-09-23T14:51:18Z</time>
      </trkpt>
      <trkpt lat="43.62277" lon="6.66048">
        <ele>297.200012</ele>
        <time>2011-09-23T14:51:23Z</time>
      </trkpt>
      <trkpt lat="43.62279" lon="6.66043">
        <ele>297.700012</ele>
        <time>2011-09-23T14:51:28Z</time>
      </trkpt>
      <trkpt lat="43.62283" lon="6.66037">
        <ele>297.700012</ele>
        <time>2011-09-23T14:51:33Z</time>
      </trkpt>
      <trkpt lat="43.62285" lon="6.66031">
        <ele>297.899994</ele>
        <time>2011-09-23T14:51:38Z</time>
      </trkpt>
      <trkpt lat="43.62286" lon="6.66028">
        <ele>298.299988</ele>
        <time>2011-09-23T14:51:43Z</time>
      </trkpt>
      <trkpt lat="43.62286" lon="6.66023">
        <ele>298.799988</ele>
        <time>2011-09-23T14:51:48Z</time>
      </trkpt>
      <trkpt lat="43.62286" lon="6.66021">
        <ele>299.399994</ele>
        <time>2011-09-23T14:51:53Z</time>
      </trkpt>
      <trkpt lat="43.62286" lon="6.6602">
        <ele>299.600006</ele>
        <time>2011-09-23T14:51:54Z</time>
      </trkpt>
      <trkpt lat="43.62284" lon="6.66015">
        <ele>301.399994</ele>
        <time>2011-09-23T14:52:03Z</time>
      </trkpt>
      <trkpt lat="43.62286" lon="6.6601">
        <ele>302.100006</ele>
        <time>2011-09-23T14:52:08Z</time>
      </trkpt>
      <trkpt lat="43.62288" lon="6.66003">
        <ele>302.100006</ele>
        <time>2011-09-23T14:52:13Z</time>
      </trkpt>
      <trkpt lat="43.62291" lon="6.65997">
        <ele>302.399994</ele>
        <time>2011-09-23T14:52:18Z</time>
      </trkpt>
      <trkpt lat="43.62292" lon="6.65992">
        <ele>302.899994</ele>
        <time>2011-09-23T14:52:23Z</time>
      </trkpt>
      <trkpt lat="43.62297" lon="6.65989">
        <ele>303.100006</ele>
        <time>2011-09-23T14:52:28Z</time>
      </trkpt>
      <trkpt lat="43.623" lon="6.65985">
        <ele>303.899994</ele>
        <time>2011-09-23T14:52:33Z</time>
      </trkpt>
      <trkpt lat="43.62303" lon="6.65981">
        <ele>304.200012</ele>
        <time>2011-09-23T14:52:38Z</time>
      </trkpt>
      <trkpt lat="43.62306" lon="6.65982">
        <ele>304.399994</ele>
        <time>2011-09-23T14:52:43Z</time>
      </trkpt>
      <trkpt lat="43.62305" lon="6.65982">
        <ele>304.200012</ele>
        <time>2011-09-23T14:52:48Z</time>
      </trkpt>
      <trkpt lat="43.62306" lon="6.65982">
        <ele>304.100006</ele>
        <time>2011-09-23T14:52:53Z</time>
      </trkpt>
      <trkpt lat="43.62306" lon="6.65981">
        <ele>304.399994</ele>
        <time>2011-09-23T14:52:58Z</time>
      </trkpt>
      <trkpt lat="43.62306" lon="6.65981">
        <ele>304.299988</ele>
        <time>2011-09-23T14:52:59Z</time>
      </trkpt>
      <trkpt lat="43.62306" lon="6.65981">
        <ele>304.100006</ele>
        <time>2011-09-23T14:53:08Z</time>
      </trkpt>
      <trkpt lat="43.62306" lon="6.65981">
        <ele>304</ele>
        <time>2011-09-23T14:53:13Z</time>
      </trkpt>
      <trkpt lat="43.62306" lon="6.6598">
        <ele>304.299988</ele>
        <time>2011-09-23T14:53:18Z</time>
      </trkpt>
      <trkpt lat="43.62306" lon="6.6598">
        <ele>304.100006</ele>
        <time>2011-09-23T14:53:23Z</time>
      </trkpt>
      <trkpt lat="43.62307" lon="6.65982">
        <ele>303.799988</ele>
        <time>2011-09-23T14:53:28Z</time>
      </trkpt>
      <trkpt lat="43.62307" lon="6.65982">
        <ele>304.100006</ele>
        <time>2011-09-23T14:53:33Z</time>
      </trkpt>
      <trkpt lat="43.62306" lon="6.65981">
        <ele>304.100006</ele>
        <time>2011-09-23T14:53:38Z</time>
      </trkpt>
      <trkpt lat="43.62306" lon="6.6598">
        <ele>304.200012</ele>
        <time>2011-09-23T14:53:43Z</time>
      </trkpt>
      <trkpt lat="43.62305" lon="6.65979">
        <ele>304.5</ele>
        <time>2011-09-23T14:53:48Z</time>
      </trkpt>
      <trkpt lat="43.62305" lon="6.65979">
        <ele>304.100006</ele>
        <time>2011-09-23T14:53:53Z</time>
      </trkpt>
      <trkpt lat="43.62306" lon="6.6598">
        <ele>304</ele>
        <time>2011-09-23T14:53:58Z</time>
      </trkpt>
      <trkpt lat="43.62307" lon="6.65982">
        <ele>304.399994</ele>
        <time>2011-09-23T14:54:03Z</time>
      </trkpt>
      <trkpt lat="43.62308" lon="6.65982">
        <ele>304.299988</ele>
        <time>2011-09-23T14:54:04Z</time>
      </trkpt>
      <trkpt lat="43.62306" lon="6.6598">
        <ele>304.700012</ele>
        <time>2011-09-23T14:54:13Z</time>
      </trkpt>
      <trkpt lat="43.62307" lon="6.65981">
        <ele>304.5</ele>
        <time>2011-09-23T14:54:18Z</time>
      </trkpt>
      <trkpt lat="43.62307" lon="6.65981">
        <ele>304.200012</ele>
        <time>2011-09-23T14:54:23Z</time>
      </trkpt>
      <trkpt lat="43.62307" lon="6.6598">
        <ele>304.600006</ele>
        <time>2011-09-23T14:54:28Z</time>
      </trkpt>
      <trkpt lat="43.62308" lon="6.65981">
        <ele>304.799988</ele>
        <time>2011-09-23T14:54:33Z</time>
      </trkpt>
      <trkpt lat="43.62307" lon="6.65981">
        <ele>304.5</ele>
        <time>2011-09-23T14:54:38Z</time>
      </trkpt>
      <trkpt lat="43.62307" lon="6.65983">
        <ele>304.600006</ele>
        <time>2011-09-23T14:54:43Z</time>
      </trkpt>
      <trkpt lat="43.62308" lon="6.65983">
        <ele>304.700012</ele>
        <time>2011-09-23T14:54:48Z</time>
      </trkpt>
      <trkpt lat="43.62308" lon="6.65982">
        <ele>304.5</ele>
        <time>2011-09-23T14:54:53Z</time>
      </trkpt>
      <trkpt lat="43.62308" lon="6.65982">
        <ele>304.700012</ele>
        <time>2011-09-23T14:54:58Z</time>
      </trkpt>
      <trkpt lat="43.62309" lon="6.65982">
        <ele>304.299988</ele>
        <time>2011-09-23T14:55:03Z</time>
      </trkpt>
      <trkpt lat="43.62311" lon="6.65982">
        <ele>304.299988</ele>
        <time>2011-09-23T14:55:08Z</time>
      </trkpt>
      <trkpt lat="43.62311" lon="6.65981">
        <ele>304.299988</ele>
        <time>2011-09-23T14:55:09Z</time>
      </trkpt>
      <trkpt lat="43.62311" lon="6.65977">
        <ele>304.799988</ele>
        <time>2011-09-23T14:55:18Z</time>
      </trkpt>
      <trkpt lat="43.62313" lon="6.65977">
        <ele>304.899994</ele>
        <time>2011-09-23T14:55:23Z</time>
      </trkpt>
      <trkpt lat="43.62315" lon="6.65976">
        <ele>304.799988</ele>
        <time>2011-09-23T14:55:28Z</time>
      </trkpt>
      <trkpt lat="43.62316" lon="6.65976">
        <ele>304.899994</ele>
        <time>2011-09-23T14:55:33Z</time>
      </trkpt>
      <trkpt lat="43.62316" lon="6.65977">
        <ele>305</ele>
        <time>2011-09-23T14:55:38Z</time>
      </trkpt>
      <trkpt lat="43.62316" lon="6.65979">
        <ele>305.399994</ele>
        <time>2011-09-23T14:55:43Z</time>
      </trkpt>
      <trkpt lat="43.62317" lon="6.65981">
        <ele>305.5</ele>
        <time>2011-09-23T14:55:48Z</time>
      </trkpt>
      <trkpt lat="43.62318" lon="6.6598">
        <ele>305.100006</ele>
        <time>2011-09-23T14:55:53Z</time>
      </trkpt>
      <trkpt lat="43.62318" lon="6.6598">
        <ele>305.299988</ele>
        <time>2011-09-23T14:55:58Z</time>
      </trkpt>
      <trkpt lat="43.62318" lon="6.65979">
        <ele>305.399994</ele>
        <time>2011-09-23T14:56:03Z</time>
      </trkpt>
      <trkpt lat="43.62318" lon="6.65978">
        <ele>305.5</ele>
        <time>2011-09-23T14:56:08Z</time>
      </trkpt>
      <trkpt lat="43.62318" lon="6.65977">
        <ele>305.600006</ele>
        <time>2011-09-23T14:56:13Z</time>
      </trkpt>
      <trkpt lat="43.62318" lon="6.65977">
        <ele>305.5</ele>
        <time>2011-09-23T14:56:14Z</time>
      </trkpt>
      <trkpt lat="43.62318" lon="6.65978">
        <ele>305</ele>
        <time>2011-09-23T14:56:23Z</time>
      </trkpt>
      <trkpt lat="43.62319" lon="6.65977">
        <ele>305</ele>
        <time>2011-09-23T14:56:28Z</time>
      </trkpt>
      <trkpt lat="43.62319" lon="6.65976">
        <ele>305.299988</ele>
        <time>2011-09-23T14:56:33Z</time>
      </trkpt>
      <trkpt lat="43.62319" lon="6.65977">
        <ele>305.100006</ele>
        <time>2011-09-23T14:56:38Z</time>
      </trkpt>
      <trkpt lat="43.62322" lon="6.65977">
        <ele>305.600006</ele>
        <time>2011-09-23T14:56:43Z</time>
      </trkpt>
      <trkpt lat="43.62322" lon="6.65977">
        <ele>304.899994</ele>
        <time>2011-09-23T14:56:48Z</time>
      </trkpt>
      <trkpt lat="43.62322" lon="6.65978">
        <ele>305.100006</ele>
        <time>2011-09-23T14:56:53Z</time>
      </trkpt>
      <trkpt lat="43.62324" lon="6.65979">
        <ele>305.399994</ele>
        <time>2011-09-23T14:56:58Z</time>
      </trkpt>
      <trkpt lat="43.62321" lon="6.65979">
        <ele>304.899994</ele>
        <time>2011-09-23T14:57:03Z</time>
      </trkpt>
      <trkpt lat="43.62321" lon="6.6598">
        <ele>305.299988</ele>
        <time>2011-09-23T14:57:08Z</time>
      </trkpt>
      <trkpt lat="43.62325" lon="6.65979">
        <ele>305.299988</ele>
        <time>2011-09-23T14:57:13Z</time>
      </trkpt>
      <trkpt lat="43.62324" lon="6.65979">
        <ele>305.5</ele>
        <time>2011-09-23T14:57:18Z</time>
      </trkpt>
      <trkpt lat="43.62324" lon="6.65979">
        <ele>305.399994</ele>
        <time>2011-09-23T14:57:19Z</time>
      </trkpt>
      <trkpt lat="43.62323" lon="6.65977">
        <ele>305.600006</ele>
        <time>2011-09-23T14:57:28Z</time>
      </trkpt>
      <trkpt lat="43.6232" lon="6.65977">
        <ele>305.899994</ele>
        <time>2011-09-23T14:57:33Z</time>
      </trkpt>
      <trkpt lat="43.62317" lon="6.65977">
        <ele>306.200012</ele>
        <time>2011-09-23T14:57:38Z</time>
      </trkpt>
      <trkpt lat="43.62317" lon="6.65978">
        <ele>306</ele>
        <time>2011-09-23T14:57:43Z</time>
      </trkpt>
      <trkpt lat="43.62319" lon="6.65978">
        <ele>306.200012</ele>
        <time>2011-09-23T14:57:48Z</time>
      </trkpt>
      <trkpt lat="43.62319" lon="6.65977">
        <ele>306.399994</ele>
        <time>2011-09-23T14:57:53Z</time>
      </trkpt>
      <trkpt lat="43.62319" lon="6.65976">
        <ele>306.399994</ele>
        <time>2011-09-23T14:57:58Z</time>
      </trkpt>
      <trkpt lat="43.62322" lon="6.65976">
        <ele>306.200012</ele>
        <time>2011-09-23T14:58:03Z</time>
      </trkpt>
      <trkpt lat="43.62324" lon="6.65974">
        <ele>306.799988</ele>
        <time>2011-09-23T14:58:08Z</time>
      </trkpt>
      <trkpt lat="43.62327" lon="6.65973">
        <ele>307.600006</ele>
        <time>2011-09-23T14:58:13Z</time>
      </trkpt>
      <trkpt lat="43.62329" lon="6.65971">
        <ele>307.899994</ele>
        <time>2011-09-23T14:58:18Z</time>
      </trkpt>
      <trkpt lat="43.62331" lon="6.65968">
        <ele>308.700012</ele>
        <time>2011-09-23T14:58:23Z</time>
      </trkpt>
      <trkpt lat="43.62332" lon="6.65968">
        <ele>308.700012</ele>
        <time>2011-09-23T14:58:24Z</time>
      </trkpt>
      <trkpt lat="43.62335" lon="6.65963">
        <ele>309.899994</ele>
        <time>2011-09-23T14:58:33Z</time>
      </trkpt>
      <trkpt lat="43.62339" lon="6.6596">
        <ele>309.799988</ele>
        <time>2011-09-23T14:58:38Z</time>
      </trkpt>
      <trkpt lat="43.62341" lon="6.65957">
        <ele>310.399994</ele>
        <time>2011-09-23T14:58:43Z</time>
      </trkpt>
      <trkpt lat="43.62341" lon="6.65953">
        <ele>311</ele>
        <time>2011-09-23T14:58:48Z</time>
      </trkpt>
      <trkpt lat="43.62343" lon="6.6595">
        <ele>311.5</ele>
        <time>2011-09-23T14:58:53Z</time>
      </trkpt>
      <trkpt lat="43.62345" lon="6.65948">
        <ele>312.100006</ele>
        <time>2011-09-23T14:58:58Z</time>
      </trkpt>
      <trkpt lat="43.62348" lon="6.65947">
        <ele>312.200012</ele>
        <time>2011-09-23T14:59:03Z</time>
      </trkpt>
      <trkpt lat="43.6235" lon="6.65947">
        <ele>312.200012</ele>
        <time>2011-09-23T14:59:08Z</time>
      </trkpt>
      <trkpt lat="43.6235" lon="6.65946">
        <ele>312</ele>
        <time>2011-09-23T14:59:13Z</time>
      </trkpt>
      <trkpt lat="43.62351" lon="6.65944">
        <ele>312.5</ele>
        <time>2011-09-23T14:59:18Z</time>
      </trkpt>
      <trkpt lat="43.62351" lon="6.65943">
        <ele>312.299988</ele>
        <time>2011-09-23T14:59:23Z</time>
      </trkpt>
      <trkpt lat="43.6235" lon="6.65941">
        <ele>312.5</ele>
        <time>2011-09-23T14:59:28Z</time>
      </trkpt>
      <trkpt lat="43.62351" lon="6.65941">
        <ele>312.5</ele>
        <time>2011-09-23T14:59:29Z</time>
      </trkpt>
      <trkpt lat="43.62352" lon="6.65939">
        <ele>313.299988</ele>
        <time>2011-09-23T14:59:38Z</time>
      </trkpt>
      <trkpt lat="43.62354" lon="6.65936">
        <ele>314.200012</ele>
        <time>2011-09-23T14:59:43Z</time>
      </trkpt>
      <trkpt lat="43.62358" lon="6.65935">
        <ele>314.600006</ele>
        <time>2011-09-23T14:59:48Z</time>
      </trkpt>
      <trkpt lat="43.62362" lon="6.65936">
        <ele>315.399994</ele>
        <time>2011-09-23T14:59:53Z</time>
      </trkpt>
      <trkpt lat="43.62365" lon="6.65935">
        <ele>315.899994</ele>
        <time>2011-09-23T14:59:58Z</time>
      </trkpt>
      <trkpt lat="43.62367" lon="6.65931">
        <ele>316.600006</ele>
        <time>2011-09-23T15:00:03Z</time>
      </trkpt>
      <trkpt lat="43.62368" lon="6.65929">
        <ele>317.200012</ele>
        <time>2011-09-23T15:00:08Z</time>
      </trkpt>
      <trkpt lat="43.62366" lon="6.65928">
        <ele>318.200012</ele>
        <time>2011-09-23T15:00:13Z</time>
      </trkpt>
      <trkpt lat="43.62364" lon="6.65927">
        <ele>318.5</ele>
        <time>2011-09-23T15:00:18Z</time>
      </trkpt>
      <trkpt lat="43.62361" lon="6.65921">
        <ele>318.399994</ele>
        <time>2011-09-23T15:00:23Z</time>
      </trkpt>
      <trkpt lat="43.62359" lon="6.65913">
        <ele>318</ele>
        <time>2011-09-23T15:00:28Z</time>
      </trkpt>
      <trkpt lat="43.62365" lon="6.65911">
        <ele>318.899994</ele>
        <time>2011-09-23T15:00:33Z</time>
      </trkpt>
      <trkpt lat="43.62366" lon="6.65911">
        <ele>318.799988</ele>
        <time>2011-09-23T15:00:34Z</time>
      </trkpt>
      <trkpt lat="43.62369" lon="6.65904">
        <ele>319</ele>
        <time>2011-09-23T15:00:43Z</time>
      </trkpt>
      <trkpt lat="43.62367" lon="6.65902">
        <ele>319.299988</ele>
        <time>2011-09-23T15:00:48Z</time>
      </trkpt>
      <trkpt lat="43.62367" lon="6.65901">
        <ele>319.700012</ele>
        <time>2011-09-23T15:00:53Z</time>
      </trkpt>
      <trkpt lat="43.62366" lon="6.65898">
        <ele>319.899994</ele>
        <time>2011-09-23T15:00:58Z</time>
      </trkpt>
      <trkpt lat="43.62365" lon="6.65897">
        <ele>320.5</ele>
        <time>2011-09-23T15:01:03Z</time>
      </trkpt>
      <trkpt lat="43.62362" lon="6.65895">
        <ele>320.700012</ele>
        <time>2011-09-23T15:01:08Z</time>
      </trkpt>
      <trkpt lat="43.62359" lon="6.65891">
        <ele>321</ele>
        <time>2011-09-23T15:01:13Z</time>
      </trkpt>
      <trkpt lat="43.62355" lon="6.65888">
        <ele>321.399994</ele>
        <time>2011-09-23T15:01:18Z</time>
      </trkpt>
      <trkpt lat="43.62352" lon="6.65887">
        <ele>321.899994</ele>
        <time>2011-09-23T15:01:23Z</time>
      </trkpt>
      <trkpt lat="43.62348" lon="6.65885">
        <ele>321.899994</ele>
        <time>2011-09-23T15:01:28Z</time>
      </trkpt>
      <trkpt lat="43.62345" lon="6.65882">
        <ele>322</ele>
        <time>2011-09-23T15:01:33Z</time>
      </trkpt>
      <trkpt lat="43.62344" lon="6.65879">
        <ele>322.399994</ele>
        <time>2011-09-23T15:01:38Z</time>
      </trkpt>
      <trkpt lat="43.62344" lon="6.65878">
        <ele>322.600006</ele>
        <time>2011-09-23T15:01:39Z</time>
      </trkpt>
      <trkpt lat="43.62341" lon="6.65872">
        <ele>323.100006</ele>
        <time>2011-09-23T15:01:48Z</time>
      </trkpt>
      <trkpt lat="43.62338" lon="6.6587">
        <ele>323.299988</ele>
        <time>2011-09-23T15:01:53Z</time>
      </trkpt>
      <trkpt lat="43.62337" lon="6.6587">
        <ele>323.200012</ele>
        <time>2011-09-23T15:01:58Z</time>
      </trkpt>
      <trkpt lat="43.62335" lon="6.65864">
        <ele>323.700012</ele>
        <time>2011-09-23T15:02:03Z</time>
      </trkpt>
      <trkpt lat="43.62331" lon="6.6586">
        <ele>323.600006</ele>
        <time>2011-09-23T15:02:08Z</time>
      </trkpt>
      <trkpt lat="43.62328" lon="6.65854">
        <ele>324.299988</ele>
        <time>2011-09-23T15:02:13Z</time>
      </trkpt>
      <trkpt lat="43.62325" lon="6.6585">
        <ele>324.600006</ele>
        <time>2011-09-23T15:02:18Z</time>
      </trkpt>
      <trkpt lat="43.62323" lon="6.65846">
        <ele>324.5</ele>
        <time>2011-09-23T15:02:23Z</time>
      </trkpt>
      <trkpt lat="43.62321" lon="6.65843">
        <ele>325</ele>
        <time>2011-09-23T15:02:28Z</time>
      </trkpt>
      <trkpt lat="43.62317" lon="6.65838">
        <ele>325.200012</ele>
        <time>2011-09-23T15:02:33Z</time>
      </trkpt>
      <trkpt lat="43.62317" lon="6.65832">
        <ele>325.5</ele>
        <time>2011-09-23T15:02:38Z</time>
      </trkpt>
      <trkpt lat="43.62318" lon="6.65826">
        <ele>326</ele>
        <time>2011-09-23T15:02:43Z</time>
      </trkpt>
      <trkpt lat="43.62318" lon="6.65825">
        <ele>325.899994</ele>
        <time>2011-09-23T15:02:44Z</time>
      </trkpt>
      <trkpt lat="43.62318" lon="6.65809">
        <ele>325.200012</ele>
        <time>2011-09-23T15:02:53Z</time>
      </trkpt>
      <trkpt lat="43.62319" lon="6.65802">
        <ele>325.600006</ele>
        <time>2011-09-23T15:02:58Z</time>
      </trkpt>
      <trkpt lat="43.62321" lon="6.65796">
        <ele>325.700012</ele>
        <time>2011-09-23T15:03:03Z</time>
      </trkpt>
      <trkpt lat="43.62323" lon="6.6579">
        <ele>325.799988</ele>
        <time>2011-09-23T15:03:08Z</time>
      </trkpt>
      <trkpt lat="43.62324" lon="6.65783">
        <ele>325.100006</ele>
        <time>2011-09-23T15:03:13Z</time>
      </trkpt>
      <trkpt lat="43.62326" lon="6.65776">
        <ele>324.600006</ele>
        <time>2011-09-23T15:03:18Z</time>
      </trkpt>
      <trkpt lat="43.62325" lon="6.65769">
        <ele>324.200012</ele>
        <time>2011-09-23T15:03:23Z</time>
      </trkpt>
      <trkpt lat="43.62327" lon="6.65762">
        <ele>323.899994</ele>
        <time>2011-09-23T15:03:28Z</time>
      </trkpt>
      <trkpt lat="43.62329" lon="6.65758">
        <ele>323.899994</ele>
        <time>2011-09-23T15:03:33Z</time>
      </trkpt>
      <trkpt lat="43.6233" lon="6.65751">
        <ele>323.5</ele>
        <time>2011-09-23T15:03:38Z</time>
      </trkpt>
      <trkpt lat="43.62332" lon="6.65742">
        <ele>323.100006</ele>
        <time>2011-09-23T15:03:43Z</time>
      </trkpt>
      <trkpt lat="43.62332" lon="6.65734">
        <ele>323.700012</ele>
        <time>2011-09-23T15:03:48Z</time>
      </trkpt>
      <trkpt lat="43.62332" lon="6.65733">
        <ele>323.799988</ele>
        <time>2011-09-23T15:03:49Z</time>
      </trkpt>
      <trkpt lat="43.62337" lon="6.65722">
        <ele>324.200012</ele>
        <time>2011-09-23T15:03:58Z</time>
      </trkpt>
      <trkpt lat="43.62339" lon="6.65716">
        <ele>324.5</ele>
        <time>2011-09-23T15:04:03Z</time>
      </trkpt>
      <trkpt lat="43.62341" lon="6.65711">
        <ele>325.799988</ele>
        <time>2011-09-23T15:04:08Z</time>
      </trkpt>
      <trkpt lat="43.62344" lon="6.65709">
        <ele>326.399994</ele>
        <time>2011-09-23T15:04:13Z</time>
      </trkpt>
      <trkpt lat="43.62346" lon="6.65705">
        <ele>326.799988</ele>
        <time>2011-09-23T15:04:18Z</time>
      </trkpt>
      <trkpt lat="43.62347" lon="6.657">
        <ele>327</ele>
        <time>2011-09-23T15:04:23Z</time>
      </trkpt>
      <trkpt lat="43.62347" lon="6.65693">
        <ele>327.600006</ele>
        <time>2011-09-23T15:04:28Z</time>
      </trkpt>
      <trkpt lat="43.62348" lon="6.65688">
        <ele>327.5</ele>
        <time>2011-09-23T15:04:33Z</time>
      </trkpt>
      <trkpt lat="43.62346" lon="6.65682">
        <ele>328.100006</ele>
        <time>2011-09-23T15:04:38Z</time>
      </trkpt>
      <trkpt lat="43.62345" lon="6.65678">
        <ele>328.5</ele>
        <time>2011-09-23T15:04:43Z</time>
      </trkpt>
      <trkpt lat="43.62342" lon="6.65672">
        <ele>328.799988</ele>
        <time>2011-09-23T15:04:48Z</time>
      </trkpt>
      <trkpt lat="43.6234" lon="6.65667">
        <ele>329.5</ele>
        <time>2011-09-23T15:04:53Z</time>
      </trkpt>
      <trkpt lat="43.62339" lon="6.65666">
        <ele>329.600006</ele>
        <time>2011-09-23T15:04:54Z</time>
      </trkpt>
      <trkpt lat="43.62336" lon="6.65655">
        <ele>329.799988</ele>
        <time>2011-09-23T15:05:03Z</time>
      </trkpt>
      <trkpt lat="43.62335" lon="6.65648">
        <ele>330.200012</ele>
        <time>2011-09-23T15:05:08Z</time>
      </trkpt>
      <trkpt lat="43.62334" lon="6.6564">
        <ele>330.399994</ele>
        <time>2011-09-23T15:05:13Z</time>
      </trkpt>
      <trkpt lat="43.62332" lon="6.65634">
        <ele>330.700012</ele>
        <time>2011-09-23T15:05:18Z</time>
      </trkpt>
      <trkpt lat="43.62329" lon="6.65627">
        <ele>330.899994</ele>
        <time>2011-09-23T15:05:23Z</time>
      </trkpt>
      <trkpt lat="43.62327" lon="6.65622">
        <ele>331.100006</ele>
        <time>2011-09-23T15:05:28Z</time>
      </trkpt>
      <trkpt lat="43.62324" lon="6.65618">
        <ele>331.799988</ele>
        <time>2011-09-23T15:05:33Z</time>
      </trkpt>
      <trkpt lat="43.62322" lon="6.65611">
        <ele>331.799988</ele>
        <time>2011-09-23T15:05:38Z</time>
      </trkpt>
      <trkpt lat="43.6232" lon="6.65604">
        <ele>331.899994</ele>
        <time>2011-09-23T15:05:43Z</time>
      </trkpt>
      <trkpt lat="43.62319" lon="6.65598">
        <ele>331.700012</ele>
        <time>2011-09-23T15:05:48Z</time>
      </trkpt>
      <trkpt lat="43.62319" lon="6.6559">
        <ele>332.299988</ele>
        <time>2011-09-23T15:05:53Z</time>
      </trkpt>
      <trkpt lat="43.62316" lon="6.65581">
        <ele>331.899994</ele>
        <time>2011-09-23T15:05:58Z</time>
      </trkpt>
      <trkpt lat="43.62316" lon="6.65579">
        <ele>332.100006</ele>
        <time>2011-09-23T15:05:59Z</time>
      </trkpt>
      <trkpt lat="43.62316" lon="6.65566">
        <ele>331.799988</ele>
        <time>2011-09-23T15:06:08Z</time>
      </trkpt>
      <trkpt lat="43.62315" lon="6.6556">
        <ele>331.299988</ele>
        <time>2011-09-23T15:06:13Z</time>
      </trkpt>
      <trkpt lat="43.62313" lon="6.65556">
        <ele>331.700012</ele>
        <time>2011-09-23T15:06:18Z</time>
      </trkpt>
      <trkpt lat="43.62312" lon="6.6555">
        <ele>332.299988</ele>
        <time>2011-09-23T15:06:23Z</time>
      </trkpt>
      <trkpt lat="43.62311" lon="6.65544">
        <ele>332.5</ele>
        <time>2011-09-23T15:06:28Z</time>
      </trkpt>
      <trkpt lat="43.6231" lon="6.6554">
        <ele>332.700012</ele>
        <time>2011-09-23T15:06:33Z</time>
      </trkpt>
      <trkpt lat="43.62308" lon="6.65535">
        <ele>333.5</ele>
        <time>2011-09-23T15:06:38Z</time>
      </trkpt>
      <trkpt lat="43.62305" lon="6.65526">
        <ele>333.600006</ele>
        <time>2011-09-23T15:06:43Z</time>
      </trkpt>
      <trkpt lat="43.62303" lon="6.6552">
        <ele>333.799988</ele>
        <time>2011-09-23T15:06:48Z</time>
      </trkpt>
      <trkpt lat="43.62302" lon="6.65514">
        <ele>334.399994</ele>
        <time>2011-09-23T15:06:53Z</time>
      </trkpt>
      <trkpt lat="43.623" lon="6.6551">
        <ele>334.299988</ele>
        <time>2011-09-23T15:06:58Z</time>
      </trkpt>
      <trkpt lat="43.62297" lon="6.65508">
        <ele>334.600006</ele>
        <time>2011-09-23T15:07:03Z</time>
      </trkpt>
      <trkpt lat="43.62298" lon="6.65508">
        <ele>334.600006</ele>
        <time>2011-09-23T15:07:04Z</time>
      </trkpt>
      <trkpt lat="43.62292" lon="6.655">
        <ele>335.399994</ele>
        <time>2011-09-23T15:07:13Z</time>
      </trkpt>
      <trkpt lat="43.62291" lon="6.65495">
        <ele>335.200012</ele>
        <time>2011-09-23T15:07:18Z</time>
      </trkpt>
      <trkpt lat="43.62289" lon="6.65488">
        <ele>334.799988</ele>
        <time>2011-09-23T15:07:23Z</time>
      </trkpt>
      <trkpt lat="43.62288" lon="6.65482">
        <ele>335</ele>
        <time>2011-09-23T15:07:28Z</time>
      </trkpt>
      <trkpt lat="43.62286" lon="6.65477">
        <ele>334.700012</ele>
        <time>2011-09-23T15:07:33Z</time>
      </trkpt>
      <trkpt lat="43.62281" lon="6.6547">
        <ele>334.200012</ele>
        <time>2011-09-23T15:07:38Z</time>
      </trkpt>
      <trkpt lat="43.62279" lon="6.65465">
        <ele>334.200012</ele>
        <time>2011-09-23T15:07:43Z</time>
      </trkpt>
      <trkpt lat="43.62275" lon="6.6546">
        <ele>334</ele>
        <time>2011-09-23T15:07:48Z</time>
      </trkpt>
      <trkpt lat="43.62272" lon="6.65454">
        <ele>333.700012</ele>
        <time>2011-09-23T15:07:53Z</time>
      </trkpt>
      <trkpt lat="43.62268" lon="6.65447">
        <ele>333.100006</ele>
        <time>2011-09-23T15:07:58Z</time>
      </trkpt>
      <trkpt lat="43.62266" lon="6.65443">
        <ele>332.600006</ele>
        <time>2011-09-23T15:08:03Z</time>
      </trkpt>
      <trkpt lat="43.62265" lon="6.65439">
        <ele>332.100006</ele>
        <time>2011-09-23T15:08:08Z</time>
      </trkpt>
      <trkpt lat="43.62264" lon="6.65438">
        <ele>332</ele>
        <time>2011-09-23T15:08:09Z</time>
      </trkpt>
      <trkpt lat="43.6226" lon="6.6543">
        <ele>331.399994</ele>
        <time>2011-09-23T15:08:18Z</time>
      </trkpt>
      <trkpt lat="43.6226" lon="6.65429">
        <ele>331.700012</ele>
        <time>2011-09-23T15:08:23Z</time>
      </trkpt>
      <trkpt lat="43.62259" lon="6.65432">
        <ele>331.600006</ele>
        <time>2011-09-23T15:08:28Z</time>
      </trkpt>
      <trkpt lat="43.62262" lon="6.65435">
        <ele>331.5</ele>
        <time>2011-09-23T15:08:33Z</time>
      </trkpt>
      <trkpt lat="43.62259" lon="6.65432">
        <ele>331.100006</ele>
        <time>2011-09-23T15:08:38Z</time>
      </trkpt>
      <trkpt lat="43.62255" lon="6.65426">
        <ele>330.600006</ele>
        <time>2011-09-23T15:08:43Z</time>
      </trkpt>
      <trkpt lat="43.62253" lon="6.65419">
        <ele>330.200012</ele>
        <time>2011-09-23T15:08:48Z</time>
      </trkpt>
      <trkpt lat="43.62249" lon="6.65413">
        <ele>330.600006</ele>
        <time>2011-09-23T15:08:53Z</time>
      </trkpt>
      <trkpt lat="43.62246" lon="6.65404">
        <ele>330.100006</ele>
        <time>2011-09-23T15:08:58Z</time>
      </trkpt>
      <trkpt lat="43.62245" lon="6.65396">
        <ele>330.200012</ele>
        <time>2011-09-23T15:09:03Z</time>
      </trkpt>
      <trkpt lat="43.62244" lon="6.65391">
        <ele>330.200012</ele>
        <time>2011-09-23T15:09:08Z</time>
      </trkpt>
      <trkpt lat="43.62244" lon="6.65383">
        <ele>330.600006</ele>
        <time>2011-09-23T15:09:13Z</time>
      </trkpt>
      <trkpt lat="43.62244" lon="6.65381">
        <ele>330.600006</ele>
        <time>2011-09-23T15:09:14Z</time>
      </trkpt>
      <trkpt lat="43.62243" lon="6.65377">
        <ele>330.700012</ele>
        <time>2011-09-23T15:09:23Z</time>
      </trkpt>
      <trkpt lat="43.62243" lon="6.65377">
        <ele>330.799988</ele>
        <time>2011-09-23T15:09:28Z</time>
      </trkpt>
      <trkpt lat="43.62238" lon="6.65378">
        <ele>331</ele>
        <time>2011-09-23T15:09:33Z</time>
      </trkpt>
      <trkpt lat="43.62234" lon="6.6538">
        <ele>330.799988</ele>
        <time>2011-09-23T15:09:38Z</time>
      </trkpt>
      <trkpt lat="43.62232" lon="6.6538">
        <ele>330.700012</ele>
        <time>2011-09-23T15:09:43Z</time>
      </trkpt>
      <trkpt lat="43.62232" lon="6.65381">
        <ele>331.100006</ele>
        <time>2011-09-23T15:09:48Z</time>
      </trkpt>
      <trkpt lat="43.62229" lon="6.65379">
        <ele>331.100006</ele>
        <time>2011-09-23T15:09:53Z</time>
      </trkpt>
      <trkpt lat="43.62223" lon="6.65377">
        <ele>331.399994</ele>
        <time>2011-09-23T15:09:58Z</time>
      </trkpt>
      <trkpt lat="43.62221" lon="6.65374">
        <ele>332.299988</ele>
        <time>2011-09-23T15:10:03Z</time>
      </trkpt>
      <trkpt lat="43.62223" lon="6.65371">
        <ele>332.600006</ele>
        <time>2011-09-23T15:10:08Z</time>
      </trkpt>
      <trkpt lat="43.62226" lon="6.65368">
        <ele>333.299988</ele>
        <time>2011-09-23T15:10:13Z</time>
      </trkpt>
      <trkpt lat="43.62227" lon="6.65365">
        <ele>333.5</ele>
        <time>2011-09-23T15:10:18Z</time>
      </trkpt>
      <trkpt lat="43.62228" lon="6.65365">
        <ele>333.600006</ele>
        <time>2011-09-23T15:10:19Z</time>
      </trkpt>
      <trkpt lat="43.62229" lon="6.65365">
        <ele>333.399994</ele>
        <time>2011-09-23T15:10:28Z</time>
      </trkpt>
      <trkpt lat="43.62229" lon="6.65365">
        <ele>333.399994</ele>
        <time>2011-09-23T15:10:33Z</time>
      </trkpt>
      <trkpt lat="43.6223" lon="6.65364">
        <ele>333.100006</ele>
        <time>2011-09-23T15:10:38Z</time>
      </trkpt>
      <trkpt lat="43.62235" lon="6.65363">
        <ele>332.700012</ele>
        <time>2011-09-23T15:10:43Z</time>
      </trkpt>
      <trkpt lat="43.6224" lon="6.65362">
        <ele>332.799988</ele>
        <time>2011-09-23T15:10:48Z</time>
      </trkpt>
      <trkpt lat="43.62243" lon="6.65361">
        <ele>332.600006</ele>
        <time>2011-09-23T15:10:53Z</time>
      </trkpt>
      <trkpt lat="43.62247" lon="6.65359">
        <ele>333.100006</ele>
        <time>2011-09-23T15:10:58Z</time>
      </trkpt>
      <trkpt lat="43.6225" lon="6.65358">
        <ele>332.799988</ele>
        <time>2011-09-23T15:11:03Z</time>
      </trkpt>
      <trkpt lat="43.62256" lon="6.65357">
        <ele>332.799988</ele>
        <time>2011-09-23T15:11:08Z</time>
      </trkpt>
      <trkpt lat="43.62259" lon="6.65356">
        <ele>332.5</ele>
        <time>2011-09-23T15:11:13Z</time>
      </trkpt>
      <trkpt lat="43.62263" lon="6.65356">
        <ele>332.600006</ele>
        <time>2011-09-23T15:11:18Z</time>
      </trkpt>
      <trkpt lat="43.62268" lon="6.65355">
        <ele>332</ele>
        <time>2011-09-23T15:11:23Z</time>
      </trkpt>
      <trkpt lat="43.62269" lon="6.65355">
        <ele>332.200012</ele>
        <time>2011-09-23T15:11:24Z</time>
      </trkpt>
      <trkpt lat="43.62281" lon="6.65354">
        <ele>331.600006</ele>
        <time>2011-09-23T15:11:33Z</time>
      </trkpt>
      <trkpt lat="43.62286" lon="6.65354">
        <ele>331.299988</ele>
        <time>2011-09-23T15:11:38Z</time>
      </trkpt>
      <trkpt lat="43.6229" lon="6.65354">
        <ele>331.200012</ele>
        <time>2011-09-23T15:11:43Z</time>
      </trkpt>
      <trkpt lat="43.62295" lon="6.65354">
        <ele>331.200012</ele>
        <time>2011-09-23T15:11:48Z</time>
      </trkpt>
      <trkpt lat="43.62299" lon="6.65353">
        <ele>331.299988</ele>
        <time>2011-09-23T15:11:53Z</time>
      </trkpt>
      <trkpt lat="43.62303" lon="6.65352">
        <ele>331.299988</ele>
        <time>2011-09-23T15:11:58Z</time>
      </trkpt>
      <trkpt lat="43.62307" lon="6.65349">
        <ele>331.299988</ele>
        <time>2011-09-23T15:12:03Z</time>
      </trkpt>
      <trkpt lat="43.62312" lon="6.65347">
        <ele>331.100006</ele>
        <time>2011-09-23T15:12:08Z</time>
      </trkpt>
      <trkpt lat="43.62316" lon="6.65346">
        <ele>331</ele>
        <time>2011-09-23T15:12:13Z</time>
      </trkpt>
      <trkpt lat="43.62321" lon="6.65348">
        <ele>330.799988</ele>
        <time>2011-09-23T15:12:18Z</time>
      </trkpt>
      <trkpt lat="43.62326" lon="6.65348">
        <ele>330.600006</ele>
        <time>2011-09-23T15:12:23Z</time>
      </trkpt>
      <trkpt lat="43.6233" lon="6.65347">
        <ele>330.399994</ele>
        <time>2011-09-23T15:12:28Z</time>
      </trkpt>
      <trkpt lat="43.62332" lon="6.65347">
        <ele>330.5</ele>
        <time>2011-09-23T15:12:29Z</time>
      </trkpt>
      <trkpt lat="43.6234" lon="6.65344">
        <ele>330.200012</ele>
        <time>2011-09-23T15:12:38Z</time>
      </trkpt>
      <trkpt lat="43.62345" lon="6.65343">
        <ele>329.799988</ele>
        <time>2011-09-23T15:12:43Z</time>
      </trkpt>
      <trkpt lat="43.62349" lon="6.65341">
        <ele>330.200012</ele>
        <time>2011-09-23T15:12:48Z</time>
      </trkpt>
      <trkpt lat="43.62352" lon="6.65338">
        <ele>330</ele>
        <time>2011-09-23T15:12:53Z</time>
      </trkpt>
      <trkpt lat="43.62356" lon="6.65338">
        <ele>329.899994</ele>
        <time>2011-09-23T15:12:58Z</time>
      </trkpt>
      <trkpt lat="43.6236" lon="6.65335">
        <ele>329.5</ele>
        <time>2011-09-23T15:13:03Z</time>
      </trkpt>
      <trkpt lat="43.62364" lon="6.65331">
        <ele>329.299988</ele>
        <time>2011-09-23T15:13:08Z</time>
      </trkpt>
      <trkpt lat="43.62368" lon="6.65327">
        <ele>329.399994</ele>
        <time>2011-09-23T15:13:13Z</time>
      </trkpt>
      <trkpt lat="43.62373" lon="6.65323">
        <ele>329.299988</ele>
        <time>2011-09-23T15:13:18Z</time>
      </trkpt>
      <trkpt lat="43.62377" lon="6.65318">
        <ele>329.299988</ele>
        <time>2011-09-23T15:13:23Z</time>
      </trkpt>
      <trkpt lat="43.62381" lon="6.65314">
        <ele>329.200012</ele>
        <time>2011-09-23T15:13:28Z</time>
      </trkpt>
      <trkpt lat="43.62386" lon="6.65311">
        <ele>328.5</ele>
        <time>2011-09-23T15:13:33Z</time>
      </trkpt>
      <trkpt lat="43.62386" lon="6.65311">
        <ele>328.5</ele>
        <time>2011-09-23T15:13:34Z</time>
      </trkpt>
      <trkpt lat="43.62394" lon="6.65305">
        <ele>328.5</ele>
        <time>2011-09-23T15:13:43Z</time>
      </trkpt>
      <trkpt lat="43.62398" lon="6.65301">
        <ele>328.399994</ele>
        <time>2011-09-23T15:13:48Z</time>
      </trkpt>
      <trkpt lat="43.62402" lon="6.65296">
        <ele>328</ele>
        <time>2011-09-23T15:13:53Z</time>
      </trkpt>
      <trkpt lat="43.62407" lon="6.65293">
        <ele>328</ele>
        <time>2011-09-23T15:13:58Z</time>
      </trkpt>
      <trkpt lat="43.62411" lon="6.65289">
        <ele>328</ele>
        <time>2011-09-23T15:14:03Z</time>
      </trkpt>
      <trkpt lat="43.62416" lon="6.65284">
        <ele>327.5</ele>
        <time>2011-09-23T15:14:08Z</time>
      </trkpt>
      <trkpt lat="43.62418" lon="6.65278">
        <ele>327.700012</ele>
        <time>2011-09-23T15:14:13Z</time>
      </trkpt>
      <trkpt lat="43.62423" lon="6.65274">
        <ele>328</ele>
        <time>2011-09-23T15:14:18Z</time>
      </trkpt>
      <trkpt lat="43.62427" lon="6.6527">
        <ele>327.600006</ele>
        <time>2011-09-23T15:14:23Z</time>
      </trkpt>
      <trkpt lat="43.62431" lon="6.65265">
        <ele>327.600006</ele>
        <time>2011-09-23T15:14:28Z</time>
      </trkpt>
      <trkpt lat="43.62435" lon="6.6526">
        <ele>327.200012</ele>
        <time>2011-09-23T15:14:33Z</time>
      </trkpt>
      <trkpt lat="43.62439" lon="6.65255">
        <ele>326.899994</ele>
        <time>2011-09-23T15:14:38Z</time>
      </trkpt>
      <trkpt lat="43.6244" lon="6.65255">
        <ele>326.899994</ele>
        <time>2011-09-23T15:14:39Z</time>
      </trkpt>
      <trkpt lat="43.62447" lon="6.65244">
        <ele>326.700012</ele>
        <time>2011-09-23T15:14:48Z</time>
      </trkpt>
      <trkpt lat="43.62451" lon="6.6524">
        <ele>326.600006</ele>
        <time>2011-09-23T15:14:53Z</time>
      </trkpt>
      <trkpt lat="43.62455" lon="6.65235">
        <ele>326.399994</ele>
        <time>2011-09-23T15:14:58Z</time>
      </trkpt>
      <trkpt lat="43.62458" lon="6.6523">
        <ele>326.5</ele>
        <time>2011-09-23T15:15:03Z</time>
      </trkpt>
      <trkpt lat="43.62463" lon="6.65226">
        <ele>326.600006</ele>
        <time>2011-09-23T15:15:08Z</time>
      </trkpt>
      <trkpt lat="43.62466" lon="6.6522">
        <ele>326.200012</ele>
        <time>2011-09-23T15:15:13Z</time>
      </trkpt>
      <trkpt lat="43.62469" lon="6.65216">
        <ele>326</ele>
        <time>2011-09-23T15:15:18Z</time>
      </trkpt>
      <trkpt lat="43.62473" lon="6.65212">
        <ele>326</ele>
        <time>2011-09-23T15:15:23Z</time>
      </trkpt>
      <trkpt lat="43.62476" lon="6.65207">
        <ele>325.799988</ele>
        <time>2011-09-23T15:15:28Z</time>
      </trkpt>
      <trkpt lat="43.6248" lon="6.65201">
        <ele>325.700012</ele>
        <time>2011-09-23T15:15:33Z</time>
      </trkpt>
      <trkpt lat="43.62483" lon="6.65197">
        <ele>325.600006</ele>
        <time>2011-09-23T15:15:38Z</time>
      </trkpt>
      <trkpt lat="43.62485" lon="6.65191">
        <ele>325.600006</ele>
        <time>2011-09-23T15:15:43Z</time>
      </trkpt>
      <trkpt lat="43.62485" lon="6.6519">
        <ele>325.5</ele>
        <time>2011-09-23T15:15:44Z</time>
      </trkpt>
      <trkpt lat="43.62492" lon="6.6518">
        <ele>325.200012</ele>
        <time>2011-09-23T15:15:53Z</time>
      </trkpt>
      <trkpt lat="43.62496" lon="6.65175">
        <ele>324.899994</ele>
        <time>2011-09-23T15:15:58Z</time>
      </trkpt>
      <trkpt lat="43.62501" lon="6.6517">
        <ele>325.100006</ele>
        <time>2011-09-23T15:16:03Z</time>
      </trkpt>
      <trkpt lat="43.62505" lon="6.65164">
        <ele>324.799988</ele>
        <time>2011-09-23T15:16:08Z</time>
      </trkpt>
      <trkpt lat="43.62509" lon="6.65158">
        <ele>324.200012</ele>
        <time>2011-09-23T15:16:13Z</time>
      </trkpt>
      <trkpt lat="43.62514" lon="6.65154">
        <ele>324.299988</ele>
        <time>2011-09-23T15:16:18Z</time>
      </trkpt>
      <trkpt lat="43.62519" lon="6.6515">
        <ele>324.200012</ele>
        <time>2011-09-23T15:16:23Z</time>
      </trkpt>
      <trkpt lat="43.62524" lon="6.65146">
        <ele>323.799988</ele>
        <time>2011-09-23T15:16:28Z</time>
      </trkpt>
      <trkpt lat="43.62528" lon="6.65143">
        <ele>324</ele>
        <time>2011-09-23T15:16:33Z</time>
      </trkpt>
      <trkpt lat="43.62532" lon="6.6514">
        <ele>323.600006</ele>
        <time>2011-09-23T15:16:38Z</time>
      </trkpt>
      <trkpt lat="43.62537" lon="6.65139">
        <ele>323.700012</ele>
        <time>2011-09-23T15:16:43Z</time>
      </trkpt>
      <trkpt lat="43.62543" lon="6.65137">
        <ele>323.600006</ele>
        <time>2011-09-23T15:16:48Z</time>
      </trkpt>
      <trkpt lat="43.62544" lon="6.65136">
        <ele>323.5</ele>
        <time>2011-09-23T15:16:49Z</time>
      </trkpt>
      <trkpt lat="43.62554" lon="6.65131">
        <ele>322.200012</ele>
        <time>2011-09-23T15:16:58Z</time>
      </trkpt>
      <trkpt lat="43.62559" lon="6.65127">
        <ele>322.100006</ele>
        <time>2011-09-23T15:17:03Z</time>
      </trkpt>
      <trkpt lat="43.62563" lon="6.65124">
        <ele>321.5</ele>
        <time>2011-09-23T15:17:08Z</time>
      </trkpt>
      <trkpt lat="43.62568" lon="6.6512">
        <ele>321.5</ele>
        <time>2011-09-23T15:17:13Z</time>
      </trkpt>
      <trkpt lat="43.62572" lon="6.65116">
        <ele>321.299988</ele>
        <time>2011-09-23T15:17:18Z</time>
      </trkpt>
      <trkpt lat="43.62576" lon="6.65112">
        <ele>321.200012</ele>
        <time>2011-09-23T15:17:23Z</time>
      </trkpt>
      <trkpt lat="43.62583" lon="6.65109">
        <ele>320.700012</ele>
        <time>2011-09-23T15:17:28Z</time>
      </trkpt>
      <trkpt lat="43.62586" lon="6.65105">
        <ele>320.5</ele>
        <time>2011-09-23T15:17:33Z</time>
      </trkpt>
      <trkpt lat="43.62591" lon="6.65101">
        <ele>320.700012</ele>
        <time>2011-09-23T15:17:38Z</time>
      </trkpt>
      <trkpt lat="43.62597" lon="6.651">
        <ele>320.700012</ele>
        <time>2011-09-23T15:17:43Z</time>
      </trkpt>
      <trkpt lat="43.62602" lon="6.65098">
        <ele>320.600006</ele>
        <time>2011-09-23T15:17:48Z</time>
      </trkpt>
      <trkpt lat="43.62607" lon="6.65096">
        <ele>320.600006</ele>
        <time>2011-09-23T15:17:53Z</time>
      </trkpt>
      <trkpt lat="43.62607" lon="6.65095">
        <ele>320.799988</ele>
        <time>2011-09-23T15:17:54Z</time>
      </trkpt>
      <trkpt lat="43.62616" lon="6.65093">
        <ele>320.600006</ele>
        <time>2011-09-23T15:18:03Z</time>
      </trkpt>
      <trkpt lat="43.62622" lon="6.65092">
        <ele>320.600006</ele>
        <time>2011-09-23T15:18:08Z</time>
      </trkpt>
      <trkpt lat="43.62629" lon="6.6509">
        <ele>320.600006</ele>
        <time>2011-09-23T15:18:13Z</time>
      </trkpt>
      <trkpt lat="43.62634" lon="6.65089">
        <ele>321.100006</ele>
        <time>2011-09-23T15:18:18Z</time>
      </trkpt>
      <trkpt lat="43.62635" lon="6.65087">
        <ele>321</ele>
        <time>2011-09-23T15:18:23Z</time>
      </trkpt>
      <trkpt lat="43.62637" lon="6.65087">
        <ele>321.200012</ele>
        <time>2011-09-23T15:18:28Z</time>
      </trkpt>
      <trkpt lat="43.62636" lon="6.65087">
        <ele>320.700012</ele>
        <time>2011-09-23T15:18:33Z</time>
      </trkpt>
      <trkpt lat="43.62638" lon="6.65091">
        <ele>320.5</ele>
        <time>2011-09-23T15:18:38Z</time>
      </trkpt>
      <trkpt lat="43.62644" lon="6.65091">
        <ele>320.700012</ele>
        <time>2011-09-23T15:18:43Z</time>
      </trkpt>
      <trkpt lat="43.6265" lon="6.65089">
        <ele>320.799988</ele>
        <time>2011-09-23T15:18:48Z</time>
      </trkpt>
      <trkpt lat="43.62656" lon="6.65089">
        <ele>320.799988</ele>
        <time>2011-09-23T15:18:53Z</time>
      </trkpt>
      <trkpt lat="43.62662" lon="6.65087">
        <ele>320.799988</ele>
        <time>2011-09-23T15:18:58Z</time>
      </trkpt>
      <trkpt lat="43.62663" lon="6.65087">
        <ele>321</ele>
        <time>2011-09-23T15:18:59Z</time>
      </trkpt>
      <trkpt lat="43.6267" lon="6.65087">
        <ele>321.100006</ele>
        <time>2011-09-23T15:19:08Z</time>
      </trkpt>
      <trkpt lat="43.62676" lon="6.65086">
        <ele>321.5</ele>
        <time>2011-09-23T15:19:13Z</time>
      </trkpt>
      <trkpt lat="43.62683" lon="6.65085">
        <ele>321.100006</ele>
        <time>2011-09-23T15:19:18Z</time>
      </trkpt>
      <trkpt lat="43.62689" lon="6.65084">
        <ele>321.399994</ele>
        <time>2011-09-23T15:19:23Z</time>
      </trkpt>
      <trkpt lat="43.62694" lon="6.65082">
        <ele>321.600006</ele>
        <time>2011-09-23T15:19:28Z</time>
      </trkpt>
      <trkpt lat="43.62696" lon="6.65078">
        <ele>321.600006</ele>
        <time>2011-09-23T15:19:33Z</time>
      </trkpt>
      <trkpt lat="43.62698" lon="6.65072">
        <ele>322.200012</ele>
        <time>2011-09-23T15:19:38Z</time>
      </trkpt>
      <trkpt lat="43.627" lon="6.65065">
        <ele>322.200012</ele>
        <time>2011-09-23T15:19:43Z</time>
      </trkpt>
      <trkpt lat="43.62705" lon="6.65063">
        <ele>322.100006</ele>
        <time>2011-09-23T15:19:48Z</time>
      </trkpt>
      <trkpt lat="43.62714" lon="6.65066">
        <ele>321.899994</ele>
        <time>2011-09-23T15:19:53Z</time>
      </trkpt>
      <trkpt lat="43.62716" lon="6.65068">
        <ele>322.100006</ele>
        <time>2011-09-23T15:19:58Z</time>
      </trkpt>
      <trkpt lat="43.62721" lon="6.65071">
        <ele>322.600006</ele>
        <time>2011-09-23T15:20:03Z</time>
      </trkpt>
      <trkpt lat="43.62722" lon="6.65072">
        <ele>322.700012</ele>
        <time>2011-09-23T15:20:04Z</time>
      </trkpt>
      <trkpt lat="43.62729" lon="6.65076">
        <ele>323</ele>
        <time>2011-09-23T15:20:13Z</time>
      </trkpt>
      <trkpt lat="43.62734" lon="6.65077">
        <ele>323</ele>
        <time>2011-09-23T15:20:18Z</time>
      </trkpt>
      <trkpt lat="43.62739" lon="6.65079">
        <ele>323</ele>
        <time>2011-09-23T15:20:23Z</time>
      </trkpt>
      <trkpt lat="43.62744" lon="6.65081">
        <ele>322.899994</ele>
        <time>2011-09-23T15:20:28Z</time>
      </trkpt>
      <trkpt lat="43.62749" lon="6.65082">
        <ele>323.5</ele>
        <time>2011-09-23T15:20:33Z</time>
      </trkpt>
      <trkpt lat="43.62754" lon="6.65083">
        <ele>323.700012</ele>
        <time>2011-09-23T15:20:38Z</time>
      </trkpt>
      <trkpt lat="43.62759" lon="6.65086">
        <ele>323.700012</ele>
        <time>2011-09-23T15:20:43Z</time>
      </trkpt>
      <trkpt lat="43.62765" lon="6.65089">
        <ele>323.700012</ele>
        <time>2011-09-23T15:20:48Z</time>
      </trkpt>
      <trkpt lat="43.62771" lon="6.65091">
        <ele>322.5</ele>
        <time>2011-09-23T15:20:53Z</time>
      </trkpt>
      <trkpt lat="43.62774" lon="6.65093">
        <ele>324.200012</ele>
        <time>2011-09-23T15:20:58Z</time>
      </trkpt>
      <trkpt lat="43.6278" lon="6.65096">
        <ele>324</ele>
        <time>2011-09-23T15:21:03Z</time>
      </trkpt>
      <trkpt lat="43.62785" lon="6.65098">
        <ele>323.299988</ele>
        <time>2011-09-23T15:21:08Z</time>
      </trkpt>
      <trkpt lat="43.62786" lon="6.65099">
        <ele>323.5</ele>
        <time>2011-09-23T15:21:09Z</time>
      </trkpt>
      <trkpt lat="43.62796" lon="6.65103">
        <ele>324</ele>
        <time>2011-09-23T15:21:18Z</time>
      </trkpt>
      <trkpt lat="43.62802" lon="6.65105">
        <ele>324.100006</ele>
        <time>2011-09-23T15:21:23Z</time>
      </trkpt>
      <trkpt lat="43.62808" lon="6.65108">
        <ele>324</ele>
        <time>2011-09-23T15:21:28Z</time>
      </trkpt>
      <trkpt lat="43.62812" lon="6.65109">
        <ele>324.200012</ele>
        <time>2011-09-23T15:21:33Z</time>
      </trkpt>
      <trkpt lat="43.62817" lon="6.65111">
        <ele>324</ele>
        <time>2011-09-23T15:21:38Z</time>
      </trkpt>
      <trkpt lat="43.62822" lon="6.65113">
        <ele>324</ele>
        <time>2011-09-23T15:21:43Z</time>
      </trkpt>
      <trkpt lat="43.62827" lon="6.65115">
        <ele>324.5</ele>
        <time>2011-09-23T15:21:48Z</time>
      </trkpt>
      <trkpt lat="43.62832" lon="6.65117">
        <ele>324.299988</ele>
        <time>2011-09-23T15:21:53Z</time>
      </trkpt>
      <trkpt lat="43.62836" lon="6.65119">
        <ele>324.100006</ele>
        <time>2011-09-23T15:21:58Z</time>
      </trkpt>
      <trkpt lat="43.6284" lon="6.65122">
        <ele>324.100006</ele>
        <time>2011-09-23T15:22:03Z</time>
      </trkpt>
      <trkpt lat="43.62846" lon="6.65123">
        <ele>323.700012</ele>
        <time>2011-09-23T15:22:08Z</time>
      </trkpt>
      <trkpt lat="43.62852" lon="6.65126">
        <ele>323.899994</ele>
        <time>2011-09-23T15:22:13Z</time>
      </trkpt>
      <trkpt lat="43.62853" lon="6.65126">
        <ele>323.899994</ele>
        <time>2011-09-23T15:22:14Z</time>
      </trkpt>
      <trkpt lat="43.62861" lon="6.65131">
        <ele>324</ele>
        <time>2011-09-23T15:22:23Z</time>
      </trkpt>
      <trkpt lat="43.62866" lon="6.65133">
        <ele>323.5</ele>
        <time>2011-09-23T15:22:28Z</time>
      </trkpt>
      <trkpt lat="43.6287" lon="6.65135">
        <ele>323.899994</ele>
        <time>2011-09-23T15:22:33Z</time>
      </trkpt>
      <trkpt lat="43.62874" lon="6.65136">
        <ele>323.799988</ele>
        <time>2011-09-23T15:22:38Z</time>
      </trkpt>
      <trkpt lat="43.62882" lon="6.65139">
        <ele>323.700012</ele>
        <time>2011-09-23T15:22:43Z</time>
      </trkpt>
      <trkpt lat="43.62887" lon="6.6514">
        <ele>323.5</ele>
        <time>2011-09-23T15:22:48Z</time>
      </trkpt>
      <trkpt lat="43.62892" lon="6.65143">
        <ele>323.299988</ele>
        <time>2011-09-23T15:22:53Z</time>
      </trkpt>
      <trkpt lat="43.62898" lon="6.65145">
        <ele>323.799988</ele>
        <time>2011-09-23T15:22:58Z</time>
      </trkpt>
      <trkpt lat="43.62903" lon="6.65148">
        <ele>324</ele>
        <time>2011-09-23T15:23:03Z</time>
      </trkpt>
      <trkpt lat="43.62908" lon="6.6515">
        <ele>324.200012</ele>
        <time>2011-09-23T15:23:08Z</time>
      </trkpt>
      <trkpt lat="43.62912" lon="6.65152">
        <ele>323.799988</ele>
        <time>2011-09-23T15:23:13Z</time>
      </trkpt>
      <trkpt lat="43.62917" lon="6.65155">
        <ele>324</ele>
        <time>2011-09-23T15:23:18Z</time>
      </trkpt>
      <trkpt lat="43.62918" lon="6.65155">
        <ele>324</ele>
        <time>2011-09-23T15:23:19Z</time>
      </trkpt>
      <trkpt lat="43.62929" lon="6.65159">
        <ele>324</ele>
        <time>2011-09-23T15:23:28Z</time>
      </trkpt>
      <trkpt lat="43.62935" lon="6.65162">
        <ele>323.799988</ele>
        <time>2011-09-23T15:23:33Z</time>
      </trkpt>
      <trkpt lat="43.62942" lon="6.65164">
        <ele>323.799988</ele>
        <time>2011-09-23T15:23:38Z</time>
      </trkpt>
      <trkpt lat="43.62946" lon="6.65166">
        <ele>324.100006</ele>
        <time>2011-09-23T15:23:43Z</time>
      </trkpt>
      <trkpt lat="43.6295" lon="6.65167">
        <ele>324</ele>
        <time>2011-09-23T15:23:48Z</time>
      </trkpt>
      <trkpt lat="43.62956" lon="6.65169">
        <ele>323.799988</ele>
        <time>2011-09-23T15:23:53Z</time>
      </trkpt>
      <trkpt lat="43.62958" lon="6.65171">
        <ele>324.200012</ele>
        <time>2011-09-23T15:23:58Z</time>
      </trkpt>
      <trkpt lat="43.62966" lon="6.65173">
        <ele>323.799988</ele>
        <time>2011-09-23T15:24:03Z</time>
      </trkpt>
      <trkpt lat="43.62973" lon="6.65176">
        <ele>323.799988</ele>
        <time>2011-09-23T15:24:08Z</time>
      </trkpt>
      <trkpt lat="43.62977" lon="6.65178">
        <ele>323.899994</ele>
        <time>2011-09-23T15:24:13Z</time>
      </trkpt>
      <trkpt lat="43.62984" lon="6.65181">
        <ele>323.899994</ele>
        <time>2011-09-23T15:24:18Z</time>
      </trkpt>
      <trkpt lat="43.62987" lon="6.65183">
        <ele>323.799988</ele>
        <time>2011-09-23T15:24:23Z</time>
      </trkpt>
      <trkpt lat="43.62987" lon="6.65183">
        <ele>323.799988</ele>
        <time>2011-09-23T15:24:24Z</time>
      </trkpt>
      <trkpt lat="43.62999" lon="6.65188">
        <ele>323.600006</ele>
        <time>2011-09-23T15:24:33Z</time>
      </trkpt>
      <trkpt lat="43.63004" lon="6.6519">
        <ele>323.799988</ele>
        <time>2011-09-23T15:24:38Z</time>
      </trkpt>
      <trkpt lat="43.6301" lon="6.65193">
        <ele>323.799988</ele>
        <time>2011-09-23T15:24:43Z</time>
      </trkpt>
      <trkpt lat="43.63016" lon="6.65196">
        <ele>324.299988</ele>
        <time>2011-09-23T15:24:48Z</time>
      </trkpt>
      <trkpt lat="43.63022" lon="6.65201">
        <ele>324.200012</ele>
        <time>2011-09-23T15:24:53Z</time>
      </trkpt>
      <trkpt lat="43.63025" lon="6.65205">
        <ele>324.5</ele>
        <time>2011-09-23T15:24:58Z</time>
      </trkpt>
      <trkpt lat="43.63028" lon="6.65208">
        <ele>324.299988</ele>
        <time>2011-09-23T15:25:03Z</time>
      </trkpt>
      <trkpt lat="43.63032" lon="6.65212">
        <ele>324.299988</ele>
        <time>2011-09-23T15:25:08Z</time>
      </trkpt>
      <trkpt lat="43.63035" lon="6.65216">
        <ele>324.5</ele>
        <time>2011-09-23T15:25:13Z</time>
      </trkpt>
      <trkpt lat="43.63039" lon="6.6522">
        <ele>324.5</ele>
        <time>2011-09-23T15:25:18Z</time>
      </trkpt>
      <trkpt lat="43.63044" lon="6.65224">
        <ele>324.5</ele>
        <time>2011-09-23T15:25:23Z</time>
      </trkpt>
      <trkpt lat="43.63048" lon="6.65229">
        <ele>324.5</ele>
        <time>2011-09-23T15:25:28Z</time>
      </trkpt>
      <trkpt lat="43.63049" lon="6.65229">
        <ele>324.5</ele>
        <time>2011-09-23T15:25:29Z</time>
      </trkpt>
      <trkpt lat="43.63054" lon="6.65237">
        <ele>324.899994</ele>
        <time>2011-09-23T15:25:38Z</time>
      </trkpt>
      <trkpt lat="43.63056" lon="6.65242">
        <ele>325</ele>
        <time>2011-09-23T15:25:43Z</time>
      </trkpt>
      <trkpt lat="43.63057" lon="6.65246">
        <ele>325.200012</ele>
        <time>2011-09-23T15:25:48Z</time>
      </trkpt>
      <trkpt lat="43.63059" lon="6.6525">
        <ele>325.100006</ele>
        <time>2011-09-23T15:25:53Z</time>
      </trkpt>
      <trkpt lat="43.63062" lon="6.65256">
        <ele>325.200012</ele>
        <time>2011-09-23T15:25:58Z</time>
      </trkpt>
      <trkpt lat="43.63065" lon="6.65262">
        <ele>325.600006</ele>
        <time>2011-09-23T15:26:03Z</time>
      </trkpt>
      <trkpt lat="43.63067" lon="6.65266">
        <ele>325.399994</ele>
        <time>2011-09-23T15:26:08Z</time>
      </trkpt>
      <trkpt lat="43.63067" lon="6.65269">
        <ele>325.5</ele>
        <time>2011-09-23T15:26:13Z</time>
      </trkpt>
      <trkpt lat="43.63069" lon="6.65275">
        <ele>325.700012</ele>
        <time>2011-09-23T15:26:18Z</time>
      </trkpt>
      <trkpt lat="43.63073" lon="6.65281">
        <ele>325.200012</ele>
        <time>2011-09-23T15:26:23Z</time>
      </trkpt>
      <trkpt lat="43.63076" lon="6.65285">
        <ele>325.299988</ele>
        <time>2011-09-23T15:26:28Z</time>
      </trkpt>
      <trkpt lat="43.6308" lon="6.6529">
        <ele>325.399994</ele>
        <time>2011-09-23T15:26:33Z</time>
      </trkpt>
      <trkpt lat="43.6308" lon="6.65291">
        <ele>325.5</ele>
        <time>2011-09-23T15:26:34Z</time>
      </trkpt>
      <trkpt lat="43.63082" lon="6.65301">
        <ele>326.200012</ele>
        <time>2011-09-23T15:26:43Z</time>
      </trkpt>
      <trkpt lat="43.63084" lon="6.65306">
        <ele>326.200012</ele>
        <time>2011-09-23T15:26:48Z</time>
      </trkpt>
      <trkpt lat="43.63086" lon="6.65311">
        <ele>326.100006</ele>
        <time>2011-09-23T15:26:53Z</time>
      </trkpt>
      <trkpt lat="43.63088" lon="6.65318">
        <ele>326.100006</ele>
        <time>2011-09-23T15:26:58Z</time>
      </trkpt>
      <trkpt lat="43.6309" lon="6.65323">
        <ele>326</ele>
        <time>2011-09-23T15:27:03Z</time>
      </trkpt>
      <trkpt lat="43.63092" lon="6.6533">
        <ele>326</ele>
        <time>2011-09-23T15:27:08Z</time>
      </trkpt>
      <trkpt lat="43.63094" lon="6.65335">
        <ele>326</ele>
        <time>2011-09-23T15:27:13Z</time>
      </trkpt>
      <trkpt lat="43.63096" lon="6.65341">
        <ele>325.899994</ele>
        <time>2011-09-23T15:27:18Z</time>
      </trkpt>
      <trkpt lat="43.63098" lon="6.65348">
        <ele>325.600006</ele>
        <time>2011-09-23T15:27:23Z</time>
      </trkpt>
      <trkpt lat="43.63099" lon="6.65353">
        <ele>326.100006</ele>
        <time>2011-09-23T15:27:28Z</time>
      </trkpt>
      <trkpt lat="43.631" lon="6.65358">
        <ele>326</ele>
        <time>2011-09-23T15:27:33Z</time>
      </trkpt>
      <trkpt lat="43.631" lon="6.65364">
        <ele>326.100006</ele>
        <time>2011-09-23T15:27:38Z</time>
      </trkpt>
      <trkpt lat="43.63101" lon="6.65365">
        <ele>326.100006</ele>
        <time>2011-09-23T15:27:39Z</time>
      </trkpt>
      <trkpt lat="43.63103" lon="6.65375">
        <ele>326.399994</ele>
        <time>2011-09-23T15:27:48Z</time>
      </trkpt>
      <trkpt lat="43.63105" lon="6.65381">
        <ele>326.299988</ele>
        <time>2011-09-23T15:27:53Z</time>
      </trkpt>
      <trkpt lat="43.63106" lon="6.65387">
        <ele>326.700012</ele>
        <time>2011-09-23T15:27:58Z</time>
      </trkpt>
      <trkpt lat="43.63109" lon="6.65392">
        <ele>326.399994</ele>
        <time>2011-09-23T15:28:03Z</time>
      </trkpt>
      <trkpt lat="43.63112" lon="6.65398">
        <ele>326.899994</ele>
        <time>2011-09-23T15:28:08Z</time>
      </trkpt>
      <trkpt lat="43.63113" lon="6.65403">
        <ele>326.700012</ele>
        <time>2011-09-23T15:28:13Z</time>
      </trkpt>
      <trkpt lat="43.63114" lon="6.65409">
        <ele>326.700012</ele>
        <time>2011-09-23T15:28:18Z</time>
      </trkpt>
      <trkpt lat="43.63115" lon="6.65415">
        <ele>326.600006</ele>
        <time>2011-09-23T15:28:23Z</time>
      </trkpt>
      <trkpt lat="43.63116" lon="6.65421">
        <ele>326.799988</ele>
        <time>2011-09-23T15:28:28Z</time>
      </trkpt>
      <trkpt lat="43.63118" lon="6.65427">
        <ele>326.700012</ele>
        <time>2011-09-23T15:28:33Z</time>
      </trkpt>
      <trkpt lat="43.63119" lon="6.65432">
        <ele>327.299988</ele>
        <time>2011-09-23T15:28:38Z</time>
      </trkpt>
      <trkpt lat="43.63121" lon="6.65439">
        <ele>327</ele>
        <time>2011-09-23T15:28:43Z</time>
      </trkpt>
      <trkpt lat="43.63121" lon="6.6544">
        <ele>327</ele>
        <time>2011-09-23T15:28:44Z</time>
      </trkpt>
      <trkpt lat="43.63123" lon="6.6545">
        <ele>327.299988</ele>
        <time>2011-09-23T15:28:53Z</time>
      </trkpt>
      <trkpt lat="43.63125" lon="6.65455">
        <ele>327</ele>
        <time>2011-09-23T15:28:58Z</time>
      </trkpt>
      <trkpt lat="43.63126" lon="6.6546">
        <ele>327.100006</ele>
        <time>2011-09-23T15:29:03Z</time>
      </trkpt>
      <trkpt lat="43.63126" lon="6.65462">
        <ele>327</ele>
        <time>2011-09-23T15:29:08Z</time>
      </trkpt>
      <trkpt lat="43.63124" lon="6.65463">
        <ele>327.200012</ele>
        <time>2011-09-23T15:29:13Z</time>
      </trkpt>
      <trkpt lat="43.63123" lon="6.65465">
        <ele>327</ele>
        <time>2011-09-23T15:29:18Z</time>
      </trkpt>
      <trkpt lat="43.63123" lon="6.65466">
        <ele>326.899994</ele>
        <time>2011-09-23T15:29:23Z</time>
      </trkpt>
      <trkpt lat="43.63124" lon="6.65469">
        <ele>327.299988</ele>
        <time>2011-09-23T15:29:28Z</time>
      </trkpt>
      <trkpt lat="43.63127" lon="6.65473">
        <ele>327</ele>
        <time>2011-09-23T15:29:33Z</time>
      </trkpt>
      <trkpt lat="43.6313" lon="6.65479">
        <ele>327.200012</ele>
        <time>2011-09-23T15:29:38Z</time>
      </trkpt>
      <trkpt lat="43.63132" lon="6.65484">
        <ele>327.100006</ele>
        <time>2011-09-23T15:29:43Z</time>
      </trkpt>
      <trkpt lat="43.63133" lon="6.65489">
        <ele>327.200012</ele>
        <time>2011-09-23T15:29:48Z</time>
      </trkpt>
      <trkpt lat="43.63134" lon="6.6549">
        <ele>327.299988</ele>
        <time>2011-09-23T15:29:49Z</time>
      </trkpt>
      <trkpt lat="43.63136" lon="6.65499">
        <ele>327.399994</ele>
        <time>2011-09-23T15:29:58Z</time>
      </trkpt>
      <trkpt lat="43.63138" lon="6.65505">
        <ele>327.200012</ele>
        <time>2011-09-23T15:30:03Z</time>
      </trkpt>
      <trkpt lat="43.63139" lon="6.65511">
        <ele>327.200012</ele>
        <time>2011-09-23T15:30:08Z</time>
      </trkpt>
      <trkpt lat="43.6314" lon="6.65516">
        <ele>327.200012</ele>
        <time>2011-09-23T15:30:13Z</time>
      </trkpt>
      <trkpt lat="43.63141" lon="6.65521">
        <ele>327.399994</ele>
        <time>2011-09-23T15:30:18Z</time>
      </trkpt>
      <trkpt lat="43.63143" lon="6.65523">
        <ele>327</ele>
        <time>2011-09-23T15:30:23Z</time>
      </trkpt>
      <trkpt lat="43.63142" lon="6.65523">
        <ele>327.299988</ele>
        <time>2011-09-23T15:30:28Z</time>
      </trkpt>
      <trkpt lat="43.63146" lon="6.65524">
        <ele>327</ele>
        <time>2011-09-23T15:30:33Z</time>
      </trkpt>
      <trkpt lat="43.63145" lon="6.65527">
        <ele>326.899994</ele>
        <time>2011-09-23T15:30:38Z</time>
      </trkpt>
      <trkpt lat="43.63144" lon="6.65531">
        <ele>326.600006</ele>
        <time>2011-09-23T15:30:43Z</time>
      </trkpt>
      <trkpt lat="43.63142" lon="6.65536">
        <ele>327</ele>
        <time>2011-09-23T15:30:48Z</time>
      </trkpt>
      <trkpt lat="43.63144" lon="6.6554">
        <ele>326.600006</ele>
        <time>2011-09-23T15:30:53Z</time>
      </trkpt>
      <trkpt lat="43.63144" lon="6.65539">
        <ele>326.899994</ele>
        <time>2011-09-23T15:30:54Z</time>
      </trkpt>
      <trkpt lat="43.6315" lon="6.6554">
        <ele>327.899994</ele>
        <time>2011-09-23T15:31:03Z</time>
      </trkpt>
      <trkpt lat="43.63152" lon="6.65543">
        <ele>328.100006</ele>
        <time>2011-09-23T15:31:08Z</time>
      </trkpt>
      <trkpt lat="43.63151" lon="6.65543">
        <ele>328</ele>
        <time>2011-09-23T15:31:13Z</time>
      </trkpt>
      <trkpt lat="43.63153" lon="6.65542">
        <ele>328.100006</ele>
        <time>2011-09-23T15:31:18Z</time>
      </trkpt>
      <trkpt lat="43.6316" lon="6.65541">
        <ele>328.200012</ele>
        <time>2011-09-23T15:31:23Z</time>
      </trkpt>
      <trkpt lat="43.63165" lon="6.65538">
        <ele>328.100006</ele>
        <time>2011-09-23T15:31:28Z</time>
      </trkpt>
      <trkpt lat="43.63172" lon="6.65537">
        <ele>328.299988</ele>
        <time>2011-09-23T15:31:33Z</time>
      </trkpt>
      <trkpt lat="43.63178" lon="6.65537">
        <ele>328.5</ele>
        <time>2011-09-23T15:31:38Z</time>
      </trkpt>
      <trkpt lat="43.63182" lon="6.65536">
        <ele>328.799988</ele>
        <time>2011-09-23T15:31:43Z</time>
      </trkpt>
      <trkpt lat="43.63186" lon="6.65534">
        <ele>329.100006</ele>
        <time>2011-09-23T15:31:48Z</time>
      </trkpt>
      <trkpt lat="43.63191" lon="6.65531">
        <ele>329.299988</ele>
        <time>2011-09-23T15:31:53Z</time>
      </trkpt>
      <trkpt lat="43.63193" lon="6.65527">
        <ele>330.100006</ele>
        <time>2011-09-23T15:31:58Z</time>
      </trkpt>
      <trkpt lat="43.63193" lon="6.65526">
        <ele>329.799988</ele>
        <time>2011-09-23T15:31:59Z</time>
      </trkpt>
      <trkpt lat="43.63194" lon="6.65516">
        <ele>329.399994</ele>
        <time>2011-09-23T15:32:08Z</time>
      </trkpt>
      <trkpt lat="43.63195" lon="6.65511">
        <ele>329.899994</ele>
        <time>2011-09-23T15:32:13Z</time>
      </trkpt>
      <trkpt lat="43.63197" lon="6.65506">
        <ele>330.200012</ele>
        <time>2011-09-23T15:32:18Z</time>
      </trkpt>
      <trkpt lat="43.63197" lon="6.655">
        <ele>330.100006</ele>
        <time>2011-09-23T15:32:23Z</time>
      </trkpt>
      <trkpt lat="43.63198" lon="6.65494">
        <ele>330.299988</ele>
        <time>2011-09-23T15:32:28Z</time>
      </trkpt>
      <trkpt lat="43.63197" lon="6.65488">
        <ele>330.299988</ele>
        <time>2011-09-23T15:32:33Z</time>
      </trkpt>
      <trkpt lat="43.63195" lon="6.65482">
        <ele>330.100006</ele>
        <time>2011-09-23T15:32:38Z</time>
      </trkpt>
      <trkpt lat="43.63196" lon="6.65476">
        <ele>330.5</ele>
        <time>2011-09-23T15:32:43Z</time>
      </trkpt>
      <trkpt lat="43.63196" lon="6.65468">
        <ele>330.100006</ele>
        <time>2011-09-23T15:32:48Z</time>
      </trkpt>
      <trkpt lat="43.63196" lon="6.65463">
        <ele>330.5</ele>
        <time>2011-09-23T15:32:53Z</time>
      </trkpt>
      <trkpt lat="43.63198" lon="6.65458">
        <ele>330.700012</ele>
        <time>2011-09-23T15:32:58Z</time>
      </trkpt>
      <trkpt lat="43.63201" lon="6.65452">
        <ele>330.899994</ele>
        <time>2011-09-23T15:33:03Z</time>
      </trkpt>
      <trkpt lat="43.63202" lon="6.6545">
        <ele>330.799988</ele>
        <time>2011-09-23T15:33:04Z</time>
      </trkpt>
    </trkseg>
  </trk>
</gpx>